Darstellungsparameter: Aktuell verwendete Einstellungen:
Skalierung der Graphiken ... ?
xyx+y,   Skalierungsfaktor:      Skalierung: Modus: x, Faktor: 1
Darstellungszeitraum ... ?
Vom - - bis: - -   Zeitraum: 26.09.2011 - 16.10.2011
Min/Max/Avg-Anzeige ... ?
Zeige MMA aktuell
Zeige MMA Monat
Zeige MMA alles
Zeige --A aktuell
Zeige --A Monat
Zeige --A alles
Keine MMA-Anzeige
MMA:
Average (ber die Originaldaten)
MMA-Basis: 26.09.2011 - 16.10.2011
Quicknavigation für Darstellung... ?
Tage:      1T, 2T, 3T, 5T -1T -2T -3T -5T +1T +2T +3T +5T
Wochen: 1W, 2W, 3W -1W -2W -3W +1W +2W +3W
Monate: 1M, 3M, 6M -1M -3M -6M +1M +3M +6M
Jahre:    1J, 3J, 5J, 10J -1J -3J -5J -10J +1J +3J +5J +10J
Nutze für die Darstellung ... ?
Originaldaten oder Mittelwerte auf ...
Stundenbasis Tagesbasis Wochenbasis
Monatsbasis Jahresbasis      Datenbasis: Original-Daten
Darstellen als:
Statistik (Auto) Statistik J:M      Darstellung:
Zur Graphik,    zurück zur Übersicht aller Sensoren.
 
Tabellarische Datenbersicht: ?
 
Sensor: Nr:Datum:Temp:Abs-Feuchte:Windchill:Wind:
Aussen-T/F 1 26-09-2011 00:08:02 12.4 C 9.4 g/m*3 12.4 C 0 km/h
2 26-09-2011 00:20:02 12.7 C 9.68 g/m*3 12.7 C 0 km/h
3 26-09-2011 00:32:02 12.3 C 9.45 g/m*3 12.3 C 0 km/h
4 26-09-2011 00:44:02 12.1 C 9.33 g/m*3 12.1 C 0 km/h
5 26-09-2011 00:56:02 12 C 9.27 g/m*3 12 C 0 km/h
6 26-09-2011 01:08:02 11.7 C 9.1 g/m*3 11.7 C 0 km/h
7 26-09-2011 01:20:02 11.8 C 9.16 g/m*3 11.8 C 0 km/h
8 26-09-2011 01:32:01 11.6 C 9.04 g/m*3 11.6 C 0 km/h
9 26-09-2011 01:44:01 11.4 C 8.93 g/m*3 11.4 C 0 km/h
10 26-09-2011 01:56:02 11.4 C 8.93 g/m*3 11.4 C 0 km/h
11 26-09-2011 02:08:01 11.2 C 8.82 g/m*3 11.2 C 0 km/h
12 26-09-2011 02:20:01 11.2 C 8.82 g/m*3 11.2 C 0 km/h
13 26-09-2011 02:32:02 11.1 C 8.76 g/m*3 11.1 C 0 km/h
14 26-09-2011 02:44:02 11.1 C 8.76 g/m*3 11.1 C 0 km/h
15 26-09-2011 02:56:01 11 C 8.81 g/m*3 11 C 0 km/h
16 26-09-2011 03:08:01 10.9 C 8.75 g/m*3 10.9 C 0 km/h
17 26-09-2011 03:20:02 11.4 C 9.03 g/m*3 11.4 C 0 km/h
18 26-09-2011 03:32:01 11 C 8.91 g/m*3 11 C 0 km/h
19 26-09-2011 03:44:01 10.8 C 8.8 g/m*3 10.8 C 0 km/h
20 26-09-2011 03:56:01 10.4 C 8.58 g/m*3 10.4 C 0 km/h
21 26-09-2011 04:08:01 10.3 C 8.43 g/m*3 10.3 C 0 km/h
22 26-09-2011 04:20:01 10.5 C 8.63 g/m*3 10.5 C 0 km/h
23 26-09-2011 04:32:02 10.4 C 8.58 g/m*3 10.4 C 0 km/h
24 26-09-2011 04:44:02 10.2 C 8.47 g/m*3 10.2 C 0 km/h
25 26-09-2011 04:56:01 10.2 C 8.47 g/m*3 10.2 C 0 km/h
Sensor: Nr:Datum:Temp:Abs-Feuchte:Windchill:Wind:
Aussen-T/F 26 26-09-2011 05:08:02 10.3 C 8.52 g/m*3 10.3 C 0 km/h
27 26-09-2011 05:20:01 10.1 C 8.42 g/m*3 10.1 C 0 km/h
28 26-09-2011 05:32:01 10.1 C 8.32 g/m*3 10.1 C 0 km/h
29 26-09-2011 05:44:01 10.1 C 8.42 g/m*3 10.1 C 0 km/h
30 26-09-2011 05:56:01 10 C 8.36 g/m*3 10 C 0 km/h
31 26-09-2011 06:08:01 10.1 C 8.42 g/m*3 10.1 C 0 km/h
32 26-09-2011 06:20:02 9.8 C 8.35 g/m*3 9.8 C 0 km/h
33 26-09-2011 06:32:01 10.1 C 8.42 g/m*3 10.1 C 0 km/h
34 26-09-2011 06:44:01 9.9 C 8.4 g/m*3 9.9 C 0 km/h
35 26-09-2011 06:56:01 9.9 C 8.4 g/m*3 9.9 C 0 km/h
36 26-09-2011 07:08:01 9.9 C 8.5 g/m*3 9.9 C 0 km/h
37 26-09-2011 07:20:02 9.6 C 8.24 g/m*3 9.6 C 0 km/h
38 26-09-2011 07:32:01 9.5 C 8.19 g/m*3 9.5 C 0 km/h
39 26-09-2011 07:44:01 9.6 C 8.24 g/m*3 9.6 C 0 km/h
40 26-09-2011 07:56:02 9.6 C 8.24 g/m*3 9.6 C 0 km/h
41 26-09-2011 08:08:01 9.7 C 8.3 g/m*3 9.7 C 0 km/h
42 26-09-2011 08:20:01 10 C 8.36 g/m*3 10 C 0 km/h
43 26-09-2011 08:32:02 10.5 C 8.63 g/m*3 10.5 C 0 km/h
44 26-09-2011 08:44:02 10.5 C 8.63 g/m*3 10.5 C 0 km/h
45 26-09-2011 08:56:01 10.6 C 8.78 g/m*3 10.6 C 0 km/h
46 26-09-2011 09:08:02 10.8 C 8.9 g/m*3 10.8 C 0 km/h
47 26-09-2011 09:20:01 11 C 8.91 g/m*3 11 C 0 km/h
48 26-09-2011 09:32:02 11.2 C 9.02 g/m*3 11.2 C 0 km/h
49 26-09-2011 09:44:02 11.8 C 9.37 g/m*3 11.8 C 0 km/h
50 26-09-2011 09:56:01 12.1 C 9.54 g/m*3 12.1 C 0 km/h
Sensor: Nr:Datum:Temp:Abs-Feuchte:Windchill:Wind:
Aussen-T/F 51 26-09-2011 10:08:02 12.5 C 9.78 g/m*3 12.5 C 0 km/h
52 26-09-2011 10:20:01 12.7 C 9.91 g/m*3 12.7 C 0 km/h
53 26-09-2011 10:32:01 13.4 C 10.35 g/m*3 13.4 C 0 km/h
54 26-09-2011 10:44:01 13.7 C 10.54 g/m*3 13.7 C 0 km/h
55 26-09-2011 10:56:01 14.2 C 10.75 g/m*3 14.2 C 0 km/h
56 26-09-2011 11:08:01 14.4 C 10.88 g/m*3 14.4 C 0 km/h
57 26-09-2011 11:20:02 14.7 C 11.08 g/m*3 14.7 C 0 km/h
58 26-09-2011 11:32:01 15 C 11.28 g/m*3 15 C 0 km/h
59 26-09-2011 11:44:01 15.4 C 11.56 g/m*3 15.4 C 0 km/h
60 26-09-2011 11:56:02 15.8 C 11.85 g/m*3 15.8 C 0 km/h
61 26-09-2011 12:08:01 16.1 C 11.93 g/m*3 16.1 C 0 km/h
62 26-09-2011 12:20:02 16.7 C 12.36 g/m*3 16.7 C 0 km/h
63 26-09-2011 12:32:01 17 C 12.3 g/m*3 17 C 0 km/h
64 26-09-2011 12:44:01 17.8 C 12.75 g/m*3 17.8 C 0 km/h
65 26-09-2011 12:56:02 18.6 C 12.89 g/m*3 18.6 C 0 km/h
66 26-09-2011 13:08:01 19.1 C 12.95 g/m*3 19.1 C 0 km/h
67 26-09-2011 13:20:01 19.8 C 13.15 g/m*3 19.8 C 0 km/h
68 26-09-2011 13:32:02 20.6 C 13.07 g/m*3 20.6 C 0 km/h
69 26-09-2011 13:44:02 21.5 C 13.2 g/m*3 21.5 C 0 km/h
70 26-09-2011 13:56:01 22.1 C 12.69 g/m*3 22.1 C 0 km/h
71 26-09-2011 14:08:02 23.1 C 12.82 g/m*3 23.1 C 0 km/h
72 26-09-2011 14:20:01 24.1 C 10.94 g/m*3 24.1 C 0 km/h
73 26-09-2011 14:32:01 25.2 C 9.08 g/m*3 25.2 C 0 km/h
74 26-09-2011 14:44:01 24.9 C 9.84 g/m*3 24.9 C 0 km/h
75 26-09-2011 14:56:01 25.4 C 9.18 g/m*3 25.4 C 0 km/h
Sensor: Nr:Datum:Temp:Abs-Feuchte:Windchill:Wind:
Aussen-T/F 76 26-09-2011 15:08:01 25.5 C 8.76 g/m*3 25.5 C 0 km/h
77 26-09-2011 15:20:01 25.9 C 9.68 g/m*3 25.9 C 0 km/h
78 26-09-2011 15:32:01 26.3 C 9.9 g/m*3 26.3 C 0 km/h
79 26-09-2011 15:44:01 26.1 C 9.06 g/m*3 26.1 C 0 km/h
80 26-09-2011 15:56:01 25.6 C 9.52 g/m*3 25.6 C 0 km/h
81 26-09-2011 16:08:01 25.2 C 9.54 g/m*3 25.2 C 0 km/h
82 26-09-2011 16:20:01 24.7 C 9.73 g/m*3 24.7 C 0 km/h
83 26-09-2011 16:32:02 24.8 C 9.56 g/m*3 24.8 C 0 km/h
84 26-09-2011 16:44:02 24.7 C 8.83 g/m*3 24.7 C 0 km/h
85 26-09-2011 16:56:01 23.9 C 9.3 g/m*3 23.9 C 0 km/h
86 26-09-2011 17:08:02 23.5 C 9.73 g/m*3 23.5 C 0 km/h
87 26-09-2011 17:20:01 23.2 C 9.98 g/m*3 23.2 C 0 km/h
88 26-09-2011 17:32:01 22.7 C 10.51 g/m*3 22.7 C 0 km/h
89 26-09-2011 17:44:01 22.6 C 10.25 g/m*3 22.6 C 0 km/h
90 26-09-2011 17:56:01 22.6 C 10.45 g/m*3 22.6 C 0 km/h
91 26-09-2011 18:08:01 22.2 C 10.41 g/m*3 22.2 C 0 km/h
92 26-09-2011 18:20:01 21.7 C 10.68 g/m*3 21.7 C 0 km/h
93 26-09-2011 18:32:01 21.8 C 10.36 g/m*3 21.8 C 0 km/h
94 26-09-2011 18:44:01 21.2 C 10.38 g/m*3 21.2 C 0 km/h
95 26-09-2011 18:56:01 21.3 C 10.44 g/m*3 21.3 C 0 km/h
96 26-09-2011 19:08:01 20.4 C 10.26 g/m*3 20.4 C 0 km/h
97 26-09-2011 19:20:02 19.8 C 10.59 g/m*3 19.8 C 0 km/h
98 26-09-2011 19:32:01 19.5 C 10.57 g/m*3 19.5 C 0 km/h
99 26-09-2011 19:44:01 19.3 C 10.62 g/m*3 19.3 C 0 km/h
100 26-09-2011 19:56:02 19.1 C 10.66 g/m*3 19.1 C 0 km/h
Sensor: Nr:Datum:Temp:Abs-Feuchte:Windchill:Wind:
Aussen-T/F 101 26-09-2011 20:08:01 18.7 C 10.73 g/m*3 18.7 C 0 km/h
102 26-09-2011 20:20:01 18.2 C 10.88 g/m*3 18.2 C 0 km/h
103 26-09-2011 20:32:02 18.1 C 10.97 g/m*3 18.1 C 0 km/h
104 26-09-2011 20:44:02 17.5 C 10.73 g/m*3 17.5 C 0 km/h
105 26-09-2011 20:56:01 16.8 C 10.72 g/m*3 16.8 C 0 km/h
106 26-09-2011 21:08:01 16.6 C 11.02 g/m*3 16.6 C 0 km/h
107 26-09-2011 21:20:01 16.5 C 11.09 g/m*3 16.5 C 0 km/h
108 26-09-2011 21:32:02 16.4 C 11.17 g/m*3 16.4 C 0 km/h
109 26-09-2011 21:44:02 16.4 C 10.89 g/m*3 16.4 C 0 km/h
110 26-09-2011 21:56:01 17 C 11.14 g/m*3 17 C 0 km/h
111 26-09-2011 22:08:01 17.1 C 11.06 g/m*3 17.1 C 0 km/h
112 26-09-2011 22:21:10 16 C 10.35 g/m*3 16 C 0 km/h
113 26-09-2011 22:33:10 15.3 C 10.32 g/m*3 15.3 C 0 km/h
114 26-09-2011 22:45:10 15.3 C 10.71 g/m*3 15.3 C 0 km/h
115 26-09-2011 22:57:11 15.5 C 10.97 g/m*3 15.5 C 0 km/h
116 26-09-2011 23:09:11 15 C 10.64 g/m*3 15 C 0 km/h
117 26-09-2011 23:21:11 14.7 C 10.58 g/m*3 14.7 C 0 km/h
118 26-09-2011 23:33:11 14.6 C 10.51 g/m*3 14.6 C 0 km/h
119 26-09-2011 23:45:11 14.5 C 10.57 g/m*3 14.5 C 0 km/h
120 26-09-2011 23:57:11 14.4 C 10.51 g/m*3 14.4 C 0 km/h
121 27-09-2011 00:09:11 14.3 C 10.44 g/m*3 14.3 C 0 km/h
122 27-09-2011 00:21:11 14.2 C 10.38 g/m*3 14.2 C 0 km/h
123 27-09-2011 00:33:11 14.2 C 10.5 g/m*3 14.2 C 0 km/h
124 27-09-2011 00:45:11 14.3 C 10.57 g/m*3 14.3 C 0 km/h
125 27-09-2011 00:57:11 14 C 10.37 g/m*3 14 C 0 km/h
Sensor: Nr:Datum:Temp:Abs-Feuchte:Windchill:Wind:
Aussen-T/F 126 27-09-2011 01:09:11 14.3 C 10.69 g/m*3 14.3 C 0 km/h
127 27-09-2011 01:21:11 14.5 C 10.82 g/m*3 14.5 C 0 km/h
128 27-09-2011 01:33:11 14.1 C 10.56 g/m*3 14.1 C 0 km/h
129 27-09-2011 01:45:11 13.8 C 10.37 g/m*3 13.8 C 0 km/h
130 27-09-2011 01:57:11 14.3 C 10.69 g/m*3 14.3 C 0 km/h
131 27-09-2011 02:09:11 13.9 C 10.55 g/m*3 13.9 C 0 km/h
132 27-09-2011 02:21:11 13.6 C 10.36 g/m*3 13.6 C 0 km/h
133 27-09-2011 02:33:11 13.3 C 10.17 g/m*3 13.3 C 0 km/h
134 27-09-2011 02:45:11 13.2 C 10.1 g/m*3 13.2 C 0 km/h
135 27-09-2011 02:57:11 13.4 C 10.23 g/m*3 13.4 C 0 km/h
136 27-09-2011 03:09:12 13.2 C 10.1 g/m*3 13.2 C 0 km/h
137 27-09-2011 03:21:12 13.3 C 10.17 g/m*3 13.3 C 0 km/h
138 27-09-2011 03:33:12 13.5 C 10.41 g/m*3 13.5 C 0 km/h
139 27-09-2011 03:45:12 13.3 C 10.17 g/m*3 13.3 C 0 km/h
140 27-09-2011 03:57:12 13.2 C 10.1 g/m*3 13.2 C 0 km/h
141 27-09-2011 04:09:12 13.2 C 10.1 g/m*3 13.2 C 0 km/h
142 27-09-2011 04:21:12 13.1 C 10.04 g/m*3 13.1 C 0 km/h
143 27-09-2011 04:33:12 12.9 C 10.03 g/m*3 12.9 C 0 km/h
144 27-09-2011 04:45:12 12.7 C 9.91 g/m*3 12.7 C 0 km/h
145 27-09-2011 04:57:12 12.5 C 9.78 g/m*3 12.5 C 0 km/h
146 27-09-2011 05:09:12 12.4 C 9.72 g/m*3 12.4 C 0 km/h
147 27-09-2011 05:21:12 12.4 C 9.72 g/m*3 12.4 C 0 km/h
148 27-09-2011 05:33:12 12.3 C 9.66 g/m*3 12.3 C 0 km/h
149 27-09-2011 05:45:12 12.7 C 9.91 g/m*3 12.7 C 0 km/h
150 27-09-2011 05:57:12 12.9 C 10.03 g/m*3 12.9 C 0 km/h
Sensor: Nr:Datum:Temp:Abs-Feuchte:Windchill:Wind:
Aussen-T/F 151 27-09-2011 06:09:12 13.1 C 10.16 g/m*3 13.1 C 0 km/h
152 27-09-2011 06:21:12 13.3 C 10.28 g/m*3 13.3 C 0 km/h
153 27-09-2011 06:33:12 13.1 C 10.16 g/m*3 13.1 C 0 km/h
154 27-09-2011 06:45:12 13 C 10.09 g/m*3 13 C 0 km/h
155 27-09-2011 06:57:12 13 C 10.09 g/m*3 13 C 0 km/h
156 27-09-2011 07:09:13 12.6 C 9.96 g/m*3 12.6 C 0 km/h
157 27-09-2011 07:21:13 12.8 C 10.08 g/m*3 12.8 C 0 km/h
158 27-09-2011 07:33:11 12.8 C 10.08 g/m*3 12.8 C 0 km/h
159 27-09-2011 07:45:02 12.6 C 9.96 g/m*3 12.6 C 0 km/h
160 27-09-2011 07:57:02 12.9 C 10.14 g/m*3 12.9 C 0 km/h
161 27-09-2011 08:09:03 12.7 C 10.02 g/m*3 12.7 C 0 km/h
162 27-09-2011 08:21:02 12.8 C 10.08 g/m*3 12.8 C 0 km/h
163 27-09-2011 08:33:03 12.7 C 10.02 g/m*3 12.7 C 0 km/h
164 27-09-2011 08:45:02 12.8 C 10.08 g/m*3 12.8 C 0 km/h
165 27-09-2011 08:57:02 13.2 C 10.22 g/m*3 13.2 C 0 km/h
166 27-09-2011 09:09:02 13.3 C 10.28 g/m*3 13.3 C 0 km/h
167 27-09-2011 09:21:03 13.4 C 10.35 g/m*3 13.4 C 0 km/h
168 27-09-2011 09:33:02 13.5 C 10.41 g/m*3 13.5 C 0 km/h
169 27-09-2011 09:45:03 13.6 C 10.47 g/m*3 13.6 C 0 km/h
170 27-09-2011 09:57:03 13.8 C 10.6 g/m*3 13.8 C 0 km/h
171 27-09-2011 10:09:02 14.1 C 10.8 g/m*3 14.1 C 0 km/h
172 27-09-2011 10:21:03 14.8 C 11.27 g/m*3 14.8 C 0 km/h
173 27-09-2011 10:33:02 15.8 C 11.98 g/m*3 15.8 C 0 km/h
174 27-09-2011 10:45:02 16.1 C 11.93 g/m*3 16.1 C 0 km/h
175 27-09-2011 10:57:02 16.8 C 12.3 g/m*3 16.8 C 0 km/h
Sensor: Nr:Datum:Temp:Abs-Feuchte:Windchill:Wind:
Aussen-T/F 176 27-09-2011 11:09:02 16.8 C 11.87 g/m*3 16.8 C 0 km/h
177 27-09-2011 11:21:02 17 C 11.87 g/m*3 17 C 0 km/h
178 27-09-2011 11:33:02 16.9 C 11.79 g/m*3 16.9 C 0 km/h
179 27-09-2011 11:45:01 17 C 11.87 g/m*3 17 C 0 km/h
180 27-09-2011 11:57:01 17.2 C 12.01 g/m*3 17.2 C 0 km/h
181 27-09-2011 12:09:02 17.4 C 11.71 g/m*3 17.4 C 0 km/h
182 27-09-2011 12:21:01 18.2 C 11.97 g/m*3 18.2 C 0 km/h
183 27-09-2011 12:33:02 18.3 C 12.04 g/m*3 18.3 C 0 km/h
184 27-09-2011 12:45:01 18.5 C 12.18 g/m*3 18.5 C 0 km/h
185 27-09-2011 12:57:01 18.9 C 11.5 g/m*3 18.9 C 0 km/h
186 27-09-2011 13:09:02 19.7 C 11.72 g/m*3 19.7 C 0 km/h
187 27-09-2011 13:21:01 20.2 C 11.89 g/m*3 20.2 C 0 km/h
188 27-09-2011 13:33:02 21.1 C 11.06 g/m*3 21.1 C 0 km/h
189 27-09-2011 13:45:01 22.4 C 10.92 g/m*3 22.4 C 0 km/h
190 27-09-2011 13:57:01 21.8 C 10.94 g/m*3 21.8 C 0 km/h
191 27-09-2011 14:09:02 22.2 C 10.41 g/m*3 22.2 C 0 km/h
192 27-09-2011 14:21:02 21.9 C 10.42 g/m*3 21.9 C 0 km/h
193 27-09-2011 14:33:01 22.2 C 10.01 g/m*3 22.2 C 0 km/h
194 27-09-2011 14:45:02 22.9 C 8.99 g/m*3 22.9 C 0 km/h
195 27-09-2011 14:57:02 22.5 C 9.79 g/m*3 22.5 C 0 km/h
196 27-09-2011 15:09:01 23.2 C 9.15 g/m*3 23.2 C 0 km/h
197 27-09-2011 15:21:01 23 C 9.25 g/m*3 23 C 0 km/h
198 27-09-2011 15:33:01 23.4 C 8.62 g/m*3 23.4 C 0 km/h
199 27-09-2011 15:45:02 24.1 C 8.75 g/m*3 24.1 C 0 km/h
200 27-09-2011 15:57:02 23.9 C 8.87 g/m*3 23.9 C 0 km/h
Sensor: Nr:Datum:Temp:Abs-Feuchte:Windchill:Wind:
Aussen-T/F 201 27-09-2011 16:09:01 24.1 C 9.19 g/m*3 24.1 C 0 km/h
202 27-09-2011 16:21:02 27.3 C 8.63 g/m*3 27.3 C 0 km/h
203 27-09-2011 16:33:02 29.5 C 8.56 g/m*3 29.5 C 0 km/h
204 27-09-2011 16:45:02 30.3 C 9.55 g/m*3 30.3 C 0 km/h
205 27-09-2011 16:57:02 30 C 9.4 g/m*3 30 C 0 km/h
206 27-09-2011 17:09:02 28.9 C 8.86 g/m*3 28.9 C 0 km/h
207 27-09-2011 17:21:02 28 C 9.52 g/m*3 28 C 0 km/h
208 27-09-2011 17:33:02 26.1 C 8.81 g/m*3 26.1 C 0 km/h
209 27-09-2011 17:45:02 26.9 C 9.73 g/m*3 26.9 C 0 km/h
210 27-09-2011 17:57:02 26.1 C 10.04 g/m*3 26.1 C 0 km/h
211 27-09-2011 18:09:02 23.1 C 10.34 g/m*3 23.1 C 0 km/h
212 27-09-2011 18:21:02 23.2 C 11.02 g/m*3 23.2 C 0 km/h
213 27-09-2011 18:33:02 22.4 C 10.72 g/m*3 22.4 C 0 km/h
214 27-09-2011 18:45:01 21.2 C 10.56 g/m*3 21.2 C 0 km/h
215 27-09-2011 18:57:01 20.4 C 10.61 g/m*3 20.4 C 0 km/h
216 27-09-2011 19:09:01 19.4 C 10.84 g/m*3 19.4 C 0 km/h
217 27-09-2011 19:21:02 19 C 10.92 g/m*3 19 C 0 km/h
218 27-09-2011 19:33:01 18.6 C 10.98 g/m*3 18.6 C 0 km/h
219 27-09-2011 19:45:02 18.4 C 10.85 g/m*3 18.4 C 0 km/h
220 27-09-2011 19:57:02 18.1 C 10.97 g/m*3 18.1 C 0 km/h
221 27-09-2011 20:09:02 17.8 C 11.08 g/m*3 17.8 C 0 km/h
222 27-09-2011 20:21:02 17.7 C 11.16 g/m*3 17.7 C 0 km/h
223 27-09-2011 20:33:02 17.6 C 11.1 g/m*3 17.6 C 0 km/h
224 27-09-2011 20:45:02 17.2 C 10.84 g/m*3 17.2 C 0 km/h
225 27-09-2011 20:57:02 17.2 C 11.13 g/m*3 17.2 C 0 km/h
Sensor: Nr:Datum:Temp:Abs-Feuchte:Windchill:Wind:
Aussen-T/F 226 27-09-2011 21:09:02 17.1 C 11.06 g/m*3 17.1 C 0 km/h
227 27-09-2011 21:21:01 16.9 C 11.22 g/m*3 16.9 C 0 km/h
228 27-09-2011 21:34:01 16.8 C 11.15 g/m*3 16.8 C 0 km/h
229 27-09-2011 21:46:01 16.7 C 11.23 g/m*3 16.7 C 0 km/h
230 27-09-2011 21:58:01 16.6 C 11.3 g/m*3 16.6 C 0 km/h
231 27-09-2011 22:10:01 16.4 C 11.17 g/m*3 16.4 C 0 km/h
232 27-09-2011 22:22:01 16 C 11.04 g/m*3 16 C 0 km/h
233 27-09-2011 22:34:01 15.6 C 10.91 g/m*3 15.6 C 0 km/h
234 27-09-2011 22:46:01 15.9 C 11.24 g/m*3 15.9 C 0 km/h
235 27-09-2011 22:58:01 15.5 C 10.97 g/m*3 15.5 C 0 km/h
236 27-09-2011 23:10:01 15.5 C 11.1 g/m*3 15.5 C 0 km/h
237 27-09-2011 23:22:01 14.9 C 10.83 g/m*3 14.9 C 0 km/h
238 27-09-2011 23:34:01 14.6 C 10.64 g/m*3 14.6 C 0 km/h
239 27-09-2011 23:46:02 14.6 C 10.76 g/m*3 14.6 C 0 km/h
240 27-09-2011 23:58:02 14.4 C 10.63 g/m*3 14.4 C 0 km/h
241 28-09-2011 00:10:02 14.1 C 10.44 g/m*3 14.1 C 0 km/h
242 28-09-2011 00:22:02 14 C 10.37 g/m*3 14 C 0 km/h
243 28-09-2011 00:34:02 14.2 C 10.5 g/m*3 14.2 C 0 km/h
244 28-09-2011 00:46:02 13.8 C 10.37 g/m*3 13.8 C 0 km/h
245 28-09-2011 00:58:02 13.7 C 10.3 g/m*3 13.7 C 0 km/h
246 28-09-2011 01:10:02 13.5 C 10.18 g/m*3 13.5 C 0 km/h
247 28-09-2011 01:22:02 13.2 C 9.99 g/m*3 13.2 C 0 km/h
248 28-09-2011 01:34:02 13.4 C 10.23 g/m*3 13.4 C 0 km/h
249 28-09-2011 01:46:02 12.7 C 9.8 g/m*3 12.7 C 0 km/h
250 28-09-2011 01:58:02 12.9 C 9.92 g/m*3 12.9 C 0 km/h
Sensor: Nr:Datum:Temp:Abs-Feuchte:Windchill:Wind:
Aussen-T/F 251 28-09-2011 02:10:02 12.8 C 9.86 g/m*3 12.8 C 0 km/h
252 28-09-2011 02:22:02 13.1 C 9.93 g/m*3 13.1 C 0 km/h
253 28-09-2011 02:34:02 12.8 C 9.86 g/m*3 12.8 C 0 km/h
254 28-09-2011 02:46:02 12.8 C 9.97 g/m*3 12.8 C 0 km/h
255 28-09-2011 02:58:02 12.8 C 9.97 g/m*3 12.8 C 0 km/h
256 28-09-2011 03:10:02 12.4 C 9.72 g/m*3 12.4 C 0 km/h
257 28-09-2011 03:22:02 12.6 C 9.74 g/m*3 12.6 C 0 km/h
258 28-09-2011 03:34:02 12.4 C 9.62 g/m*3 12.4 C 0 km/h
259 28-09-2011 03:46:02 12.3 C 9.56 g/m*3 12.3 C 0 km/h
260 28-09-2011 03:58:03 12.4 C 9.72 g/m*3 12.4 C 0 km/h
261 28-09-2011 04:10:03 12.1 C 9.44 g/m*3 12.1 C 0 km/h
262 28-09-2011 04:22:03 11.8 C 9.37 g/m*3 11.8 C 0 km/h
263 28-09-2011 04:34:03 11.8 C 9.37 g/m*3 11.8 C 0 km/h
264 28-09-2011 04:46:03 11.9 C 9.43 g/m*3 11.9 C 0 km/h
265 28-09-2011 04:58:03 11.8 C 9.37 g/m*3 11.8 C 0 km/h
266 28-09-2011 05:10:03 11.5 C 9.19 g/m*3 11.5 C 0 km/h
267 28-09-2011 05:22:03 11.7 C 9.31 g/m*3 11.7 C 0 km/h
268 28-09-2011 05:34:03 11.5 C 9.19 g/m*3 11.5 C 0 km/h
269 28-09-2011 05:46:03 11.3 C 9.08 g/m*3 11.3 C 0 km/h
270 28-09-2011 05:58:03 11.2 C 9.02 g/m*3 11.2 C 0 km/h
271 28-09-2011 06:10:03 10.9 C 8.85 g/m*3 10.9 C 0 km/h
272 28-09-2011 06:22:03 11.2 C 9.02 g/m*3 11.2 C 0 km/h
273 28-09-2011 06:34:03 11.7 C 9.31 g/m*3 11.7 C 0 km/h
274 28-09-2011 06:46:03 12.2 C 9.6 g/m*3 12.2 C 0 km/h
275 28-09-2011 06:58:03 12.6 C 9.85 g/m*3 12.6 C 0 km/h
Sensor: Nr:Datum:Temp:Abs-Feuchte:Windchill:Wind:
Aussen-T/F 276 28-09-2011 07:10:02 12.8 C 10.08 g/m*3 12.8 C 0 km/h
277 28-09-2011 07:22:01 13 C 10.09 g/m*3 13 C 0 km/h
278 28-09-2011 07:34:02 13.1 C 10.16 g/m*3 13.1 C 0 km/h
279 28-09-2011 07:46:02 13.1 C 10.16 g/m*3 13.1 C 0 km/h
280 28-09-2011 07:58:02 13.2 C 10.22 g/m*3 13.2 C 0 km/h
281 28-09-2011 08:10:02 13.3 C 10.28 g/m*3 13.3 C 0 km/h
282 28-09-2011 08:22:01 13.3 C 10.4 g/m*3 13.3 C 0 km/h
283 28-09-2011 08:34:02 13.4 C 10.46 g/m*3 13.4 C 0 km/h
284 28-09-2011 08:46:02 13.4 C 10.46 g/m*3 13.4 C 0 km/h
285 28-09-2011 08:58:02 13.5 C 10.53 g/m*3 13.5 C 0 km/h
286 28-09-2011 09:10:02 13.5 C 10.53 g/m*3 13.5 C 0 km/h
287 28-09-2011 09:22:02 13.5 C 10.53 g/m*3 13.5 C 0 km/h
288 28-09-2011 09:34:02 14 C 10.74 g/m*3 14 C 0 km/h
289 28-09-2011 09:46:02 14.4 C 11 g/m*3 14.4 C 0 km/h
290 28-09-2011 09:58:02 14.4 C 11 g/m*3 14.4 C 0 km/h
291 28-09-2011 10:10:02 14.7 C 11.21 g/m*3 14.7 C 0 km/h
292 28-09-2011 10:22:02 15 C 11.28 g/m*3 15 C 0 km/h
293 28-09-2011 10:34:01 14.9 C 11.34 g/m*3 14.9 C 0 km/h
294 28-09-2011 10:46:02 15.2 C 11.29 g/m*3 15.2 C 0 km/h
295 28-09-2011 10:58:03 15.4 C 11.43 g/m*3 15.4 C 0 km/h
296 28-09-2011 11:10:01 15.2 C 11.16 g/m*3 15.2 C 0 km/h
297 28-09-2011 11:22:01 15.2 C 11.16 g/m*3 15.2 C 0 km/h
298 28-09-2011 11:34:02 15.5 C 11.37 g/m*3 15.5 C 0 km/h
299 28-09-2011 11:46:02 16 C 11.72 g/m*3 16 C 0 km/h
300 28-09-2011 11:58:02 16.4 C 12 g/m*3 16.4 C 0 km/h
Sensor: Nr:Datum:Temp:Abs-Feuchte:Windchill:Wind:
Aussen-T/F 301 28-09-2011 12:10:02 16.8 C 12.15 g/m*3 16.8 C 0 km/h
302 28-09-2011 12:22:02 17.6 C 12 g/m*3 17.6 C 0 km/h
303 28-09-2011 12:34:02 17.9 C 11.91 g/m*3 17.9 C 0 km/h
304 28-09-2011 12:46:02 18.2 C 11.97 g/m*3 18.2 C 0 km/h
305 28-09-2011 12:58:02 18.6 C 11.78 g/m*3 18.6 C 0 km/h
306 28-09-2011 13:10:02 19.2 C 11.54 g/m*3 19.2 C 0 km/h
307 28-09-2011 13:22:01 19.5 C 11.58 g/m*3 19.5 C 0 km/h
308 28-09-2011 13:34:02 20.3 C 11.78 g/m*3 20.3 C 0 km/h
309 28-09-2011 13:46:01 20.9 C 11.29 g/m*3 20.9 C 0 km/h
310 28-09-2011 13:58:01 21 C 11.17 g/m*3 21 C 0 km/h
311 28-09-2011 14:10:02 21.6 C 11 g/m*3 21.6 C 0 km/h
312 28-09-2011 14:22:02 21.6 C 11.19 g/m*3 21.6 C 0 km/h
313 28-09-2011 14:34:02 22 C 10.87 g/m*3 22 C 0 km/h
314 28-09-2011 14:46:02 22.5 C 10.59 g/m*3 22.5 C 0 km/h
315 28-09-2011 14:58:02 22.8 C 10.97 g/m*3 22.8 C 0 km/h
316 28-09-2011 15:10:01 23.2 C 10.6 g/m*3 23.2 C 0 km/h
317 28-09-2011 15:22:02 23.4 C 10.51 g/m*3 23.4 C 0 km/h
318 28-09-2011 15:34:02 23.5 C 10.57 g/m*3 23.5 C 0 km/h
319 28-09-2011 15:46:02 22.4 C 11.72 g/m*3 22.4 C 0 km/h
320 28-09-2011 15:58:02 22.1 C 11.52 g/m*3 22.1 C 0 km/h
321 28-09-2011 16:10:02 22.9 C 12.06 g/m*3 22.9 C 0 km/h
322 28-09-2011 16:22:02 25.4 C 11.06 g/m*3 25.4 C 0 km/h
323 28-09-2011 16:34:02 26.5 C 10.51 g/m*3 26.5 C 0 km/h
324 28-09-2011 16:46:01 26.1 C 11.02 g/m*3 26.1 C 0 km/h
325 28-09-2011 16:58:01 27.3 C 9.68 g/m*3 27.3 C 0 km/h
Sensor: Nr:Datum:Temp:Abs-Feuchte:Windchill:Wind:
Aussen-T/F 326 28-09-2011 17:10:02 28.7 C 11.3 g/m*3 28.7 C 0 km/h
327 28-09-2011 17:22:01 28.3 C 10.78 g/m*3 28.3 C 0 km/h
328 28-09-2011 17:34:02 27.7 C 10.7 g/m*3 27.7 C 0 km/h
329 28-09-2011 17:46:01 27.1 C 10.87 g/m*3 27.1 C 0 km/h
330 28-09-2011 17:58:01 26.2 C 10.34 g/m*3 26.2 C 0 km/h
331 28-09-2011 18:10:02 25.7 C 10.53 g/m*3 25.7 C 0 km/h
332 28-09-2011 18:22:02 24.6 C 10.8 g/m*3 24.6 C 0 km/h
333 28-09-2011 18:34:01 23.5 C 11 g/m*3 23.5 C 0 km/h
334 28-09-2011 18:46:02 22.6 C 11.05 g/m*3 22.6 C 0 km/h
335 28-09-2011 18:58:02 21.3 C 11 g/m*3 21.3 C 0 km/h
336 28-09-2011 19:10:01 19.3 C 11.28 g/m*3 19.3 C 0 km/h
337 28-09-2011 19:22:02 18.5 C 11.39 g/m*3 18.5 C 0 km/h
338 28-09-2011 19:34:01 18.1 C 11.43 g/m*3 18.1 C 0 km/h
339 28-09-2011 19:46:02 17.7 C 11.62 g/m*3 17.7 C 0 km/h
340 28-09-2011 19:58:02 17.6 C 11.7 g/m*3 17.6 C 0 km/h
341 28-09-2011 20:10:01 17.2 C 11.42 g/m*3 17.2 C 0 km/h
342 28-09-2011 20:22:01 17.1 C 11.5 g/m*3 17.1 C 0 km/h
343 28-09-2011 20:34:02 17 C 11.58 g/m*3 17 C 0 km/h
344 28-09-2011 20:46:02 16.8 C 11.58 g/m*3 16.8 C 0 km/h
345 28-09-2011 20:58:02 16.7 C 11.65 g/m*3 16.7 C 0 km/h
346 28-09-2011 21:10:02 16.5 C 11.65 g/m*3 16.5 C 0 km/h
347 28-09-2011 21:22:02 16.4 C 11.58 g/m*3 16.4 C 0 km/h
348 28-09-2011 21:34:02 16.2 C 11.45 g/m*3 16.2 C 0 km/h
349 28-09-2011 21:46:02 16.3 C 11.65 g/m*3 16.3 C 0 km/h
350 28-09-2011 21:58:02 16 C 11.44 g/m*3 16 C 0 km/h
Sensor: Nr:Datum:Temp:Abs-Feuchte:Windchill:Wind:
Aussen-T/F 351 28-09-2011 22:10:02 16.2 C 11.58 g/m*3 16.2 C 0 km/h
352 28-09-2011 22:22:02 16 C 11.44 g/m*3 16 C 0 km/h
353 28-09-2011 22:34:02 15.7 C 11.37 g/m*3 15.7 C 0 km/h
354 28-09-2011 22:46:02 15.7 C 11.51 g/m*3 15.7 C 0 km/h
355 28-09-2011 22:58:02 15.8 C 11.58 g/m*3 15.8 C 0 km/h
356 28-09-2011 23:10:02 15.7 C 11.51 g/m*3 15.7 C 0 km/h
357 28-09-2011 23:22:03 15.6 C 11.44 g/m*3 15.6 C 0 km/h
358 28-09-2011 23:34:02 15.6 C 11.44 g/m*3 15.6 C 0 km/h
359 28-09-2011 23:46:01 15.2 C 11.16 g/m*3 15.2 C 0 km/h
360 28-09-2011 23:58:01 14.8 C 11.02 g/m*3 14.8 C 0 km/h
361 29-09-2011 00:10:02 14.8 C 11.02 g/m*3 14.8 C 0 km/h
362 29-09-2011 00:22:01 14.3 C 10.69 g/m*3 14.3 C 0 km/h
363 29-09-2011 00:34:01 14.1 C 10.56 g/m*3 14.1 C 0 km/h
364 29-09-2011 00:46:01 13.9 C 10.55 g/m*3 13.9 C 0 km/h
365 29-09-2011 00:58:01 13.7 C 10.42 g/m*3 13.7 C 0 km/h
366 29-09-2011 01:10:02 13.6 C 10.24 g/m*3 13.6 C 0 km/h
367 29-09-2011 01:22:01 13.4 C 10.23 g/m*3 13.4 C 0 km/h
368 29-09-2011 01:34:01 13.5 C 10.29 g/m*3 13.5 C 0 km/h
369 29-09-2011 01:46:01 13.5 C 10.29 g/m*3 13.5 C 0 km/h
370 29-09-2011 01:58:01 13 C 9.98 g/m*3 13 C 0 km/h
371 29-09-2011 02:10:01 12.8 C 9.97 g/m*3 12.8 C 0 km/h
372 29-09-2011 02:22:02 12.7 C 9.91 g/m*3 12.7 C 0 km/h
373 29-09-2011 02:34:01 12.7 C 9.91 g/m*3 12.7 C 0 km/h
374 29-09-2011 02:46:02 12.7 C 9.91 g/m*3 12.7 C 0 km/h
375 29-09-2011 02:58:02 12.5 C 9.78 g/m*3 12.5 C 0 km/h
Sensor: Nr:Datum:Temp:Abs-Feuchte:Windchill:Wind:
Aussen-T/F 376 29-09-2011 03:10:01 12.2 C 9.6 g/m*3 12.2 C 0 km/h
377 29-09-2011 03:22:01 12.4 C 9.72 g/m*3 12.4 C 0 km/h
378 29-09-2011 03:34:02 12 C 9.48 g/m*3 12 C 0 km/h
379 29-09-2011 03:46:02 11.8 C 9.37 g/m*3 11.8 C 0 km/h
380 29-09-2011 03:58:02 11.6 C 9.25 g/m*3 11.6 C 0 km/h
381 29-09-2011 04:10:01 11.7 C 9.31 g/m*3 11.7 C 0 km/h
382 29-09-2011 04:22:02 11.9 C 9.53 g/m*3 11.9 C 0 km/h
383 29-09-2011 04:34:01 12.1 C 9.54 g/m*3 12.1 C 0 km/h
384 29-09-2011 04:46:02 12.2 C 9.6 g/m*3 12.2 C 0 km/h
385 29-09-2011 04:58:02 12.2 C 9.6 g/m*3 12.2 C 0 km/h
386 29-09-2011 05:10:01 12.4 C 9.72 g/m*3 12.4 C 0 km/h
387 29-09-2011 05:22:01 12.5 C 9.78 g/m*3 12.5 C 0 km/h
388 29-09-2011 05:34:02 12.4 C 9.72 g/m*3 12.4 C 0 km/h
389 29-09-2011 05:46:01 12.5 C 9.89 g/m*3 12.5 C 0 km/h
390 29-09-2011 05:58:01 12.6 C 9.96 g/m*3 12.6 C 0 km/h
391 29-09-2011 06:10:02 12.5 C 9.89 g/m*3 12.5 C 0 km/h
392 29-09-2011 06:22:01 12.3 C 9.77 g/m*3 12.3 C 0 km/h
393 29-09-2011 06:34:02 12.4 C 9.83 g/m*3 12.4 C 0 km/h
394 29-09-2011 06:46:01 12.3 C 9.77 g/m*3 12.3 C 0 km/h
395 29-09-2011 06:58:01 12.4 C 9.83 g/m*3 12.4 C 0 km/h
396 29-09-2011 07:10:02 12.3 C 9.77 g/m*3 12.3 C 0 km/h
397 29-09-2011 07:22:01 12.2 C 9.71 g/m*3 12.2 C 0 km/h
398 29-09-2011 07:34:01 12.2 C 9.71 g/m*3 12.2 C 0 km/h
399 29-09-2011 07:46:01 12.3 C 9.77 g/m*3 12.3 C 0 km/h
400 29-09-2011 07:58:01 12.3 C 9.77 g/m*3 12.3 C 0 km/h
Sensor: Nr:Datum:Temp:Abs-Feuchte:Windchill:Wind:
Aussen-T/F 401 29-09-2011 08:10:01 12.5 C 9.89 g/m*3 12.5 C 0 km/h
402 29-09-2011 08:22:02 12.5 C 9.89 g/m*3 12.5 C 0 km/h
403 29-09-2011 08:34:01 12.4 C 9.83 g/m*3 12.4 C 0 km/h
404 29-09-2011 08:46:02 12.6 C 9.96 g/m*3 12.6 C 0 km/h
405 29-09-2011 08:58:02 12.8 C 10.08 g/m*3 12.8 C 0 km/h
406 29-09-2011 09:10:01 13 C 10.21 g/m*3 13 C 0 km/h
407 29-09-2011 09:22:01 13.2 C 10.33 g/m*3 13.2 C 0 km/h
408 29-09-2011 09:34:01 13.1 C 10.27 g/m*3 13.1 C 0 km/h
409 29-09-2011 09:46:01 13.2 C 10.33 g/m*3 13.2 C 0 km/h
410 29-09-2011 09:58:02 13.7 C 10.66 g/m*3 13.7 C 0 km/h
411 29-09-2011 10:10:01 13.9 C 10.79 g/m*3 13.9 C 0 km/h
412 29-09-2011 10:22:01 14.3 C 10.93 g/m*3 14.3 C 0 km/h
413 29-09-2011 10:34:02 14 C 10.61 g/m*3 14 C 0 km/h
414 29-09-2011 10:46:01 14 C 10.49 g/m*3 14 C 0 km/h
415 29-09-2011 10:58:01 14.2 C 10.62 g/m*3 14.2 C 0 km/h
416 29-09-2011 11:10:02 14.1 C 10.56 g/m*3 14.1 C 0 km/h
417 29-09-2011 11:22:01 14.4 C 10.88 g/m*3 14.4 C 0 km/h
418 29-09-2011 11:34:01 15 C 11.16 g/m*3 15 C 0 km/h
419 29-09-2011 11:46:01 15.5 C 11.63 g/m*3 15.5 C 0 km/h
420 29-09-2011 11:58:01 15.6 C 11.7 g/m*3 15.6 C 0 km/h
421 29-09-2011 12:10:01 16.2 C 12 g/m*3 16.2 C 0 km/h
422 29-09-2011 12:22:02 16.9 C 12.08 g/m*3 16.9 C 0 km/h
423 29-09-2011 12:34:01 17.6 C 11.55 g/m*3 17.6 C 0 km/h
424 29-09-2011 12:46:02 18.5 C 11.08 g/m*3 18.5 C 0 km/h
425 29-09-2011 12:58:02 19.3 C 10.95 g/m*3 19.3 C 0 km/h
Sensor: Nr:Datum:Temp:Abs-Feuchte:Windchill:Wind:
Aussen-T/F 426 29-09-2011 13:10:01 19.6 C 10.8 g/m*3 19.6 C 0 km/h
427 29-09-2011 13:22:02 20.3 C 10.55 g/m*3 20.3 C 0 km/h
428 29-09-2011 13:34:01 21.6 C 11 g/m*3 21.6 C 0 km/h
429 29-09-2011 13:46:02 22 C 10.29 g/m*3 22 C 0 km/h
430 29-09-2011 13:58:02 22.2 C 9.82 g/m*3 22.2 C 0 km/h
431 29-09-2011 14:10:01 22.5 C 9.99 g/m*3 22.5 C 0 km/h
432 29-09-2011 14:22:01 22.5 C 9.79 g/m*3 22.5 C 0 km/h
433 29-09-2011 14:34:02 22.6 C 9.84 g/m*3 22.6 C 0 km/h
434 29-09-2011 14:46:01 23 C 10.07 g/m*3 23 C 0 km/h
435 29-09-2011 14:58:01 23.4 C 10.3 g/m*3 23.4 C 0 km/h
436 29-09-2011 15:10:02 23.7 C 10.27 g/m*3 23.7 C 0 km/h
437 29-09-2011 15:22:01 23.7 C 10.05 g/m*3 23.7 C 0 km/h
438 29-09-2011 15:34:01 23.4 C 10.3 g/m*3 23.4 C 0 km/h
439 29-09-2011 15:46:01 22.8 C 9.96 g/m*3 22.8 C 0 km/h
440 29-09-2011 15:58:01 22.6 C 10.04 g/m*3 22.6 C 0 km/h
441 29-09-2011 16:10:02 23.1 C 9.72 g/m*3 23.1 C 0 km/h
442 29-09-2011 16:22:01 25.3 C 10.07 g/m*3 25.3 C 0 km/h
443 29-09-2011 16:34:01 27.7 C 8.83 g/m*3 27.7 C 0 km/h
444 29-09-2011 16:46:01 27.5 C 9.79 g/m*3 27.5 C 0 km/h
445 29-09-2011 16:58:01 28.4 C 9.45 g/m*3 28.4 C 0 km/h
446 29-09-2011 17:10:01 29 C 9.77 g/m*3 29 C 0 km/h
447 29-09-2011 17:22:02 28.4 C 9.45 g/m*3 28.4 C 0 km/h
448 29-09-2011 17:34:01 28.5 C 9.78 g/m*3 28.5 C 0 km/h
449 29-09-2011 17:46:02 25.2 C 9.54 g/m*3 25.2 C 0 km/h
450 29-09-2011 17:58:02 23.8 C 10.33 g/m*3 23.8 C 0 km/h
Sensor: Nr:Datum:Temp:Abs-Feuchte:Windchill:Wind:
Aussen-T/F 451 29-09-2011 18:10:01 22.9 C 10.01 g/m*3 22.9 C 0 km/h
452 29-09-2011 18:22:01 21 C 8.79 g/m*3 21 C 0 km/h
453 29-09-2011 18:34:02 20.7 C 8.64 g/m*3 20.7 C 0 km/h
454 29-09-2011 18:46:01 20.6 C 8.95 g/m*3 20.6 C 0 km/h
455 29-09-2011 18:58:01 19.5 C 8.73 g/m*3 19.5 C 0 km/h
456 29-09-2011 19:10:01 18.2 C 9.01 g/m*3 18.2 C 0 km/h
457 29-09-2011 19:22:01 17.6 C 9.15 g/m*3 17.6 C 0 km/h
458 29-09-2011 19:34:02 17.1 C 9.32 g/m*3 17.1 C 0 km/h
459 29-09-2011 19:46:01 17 C 9.26 g/m*3 17 C 0 km/h
460 29-09-2011 19:58:01 17 C 9.41 g/m*3 17 C 0 km/h
461 29-09-2011 20:10:02 16.8 C 9.58 g/m*3 16.8 C 0 km/h
462 29-09-2011 20:22:01 16.2 C 9.52 g/m*3 16.2 C 0 km/h
463 29-09-2011 20:34:01 16 C 9.67 g/m*3 16 C 0 km/h
464 29-09-2011 20:46:01 15.7 C 9.9 g/m*3 15.7 C 0 km/h
465 29-09-2011 20:58:01 15 C 9.62 g/m*3 15 C 0 km/h
466 29-09-2011 21:10:01 14.4 C 9.39 g/m*3 14.4 C 0 km/h
467 29-09-2011 21:22:02 14.1 C 9.34 g/m*3 14.1 C 0 km/h
468 29-09-2011 21:34:01 13.8 C 9.41 g/m*3 13.8 C 0 km/h
469 29-09-2011 21:46:02 13.6 C 9.53 g/m*3 13.6 C 0 km/h
470 29-09-2011 21:58:02 13.4 C 9.42 g/m*3 13.4 C 0 km/h
471 29-09-2011 22:10:01 13.1 C 9.36 g/m*3 13.1 C 0 km/h
472 29-09-2011 22:23:02 12.8 C 9.3 g/m*3 12.8 C 0 km/h
473 29-09-2011 22:35:02 12.7 C 9.24 g/m*3 12.7 C 0 km/h
474 29-09-2011 22:47:02 12.5 C 9.13 g/m*3 12.5 C 0 km/h
475 29-09-2011 22:59:02 12.4 C 9.07 g/m*3 12.4 C 0 km/h
Sensor: Nr:Datum:Temp:Abs-Feuchte:Windchill:Wind:
Aussen-T/F 476 29-09-2011 23:11:02 12.4 C 9.18 g/m*3 12.4 C 0 km/h
477 29-09-2011 23:23:02 11.9 C 9 g/m*3 11.9 C 0 km/h
478 29-09-2011 23:35:02 11.9 C 9 g/m*3 11.9 C 0 km/h
479 29-09-2011 23:47:02 11.8 C 9.05 g/m*3 11.8 C 0 km/h
480 29-09-2011 23:59:02 11.5 C 8.78 g/m*3 11.5 C 0 km/h
481 30-09-2011 00:11:02 11.5 C 8.88 g/m*3 11.5 C 0 km/h
482 30-09-2011 00:23:02 11.5 C 8.88 g/m*3 11.5 C 0 km/h
483 30-09-2011 00:35:02 11.2 C 8.72 g/m*3 11.2 C 0 km/h
484 30-09-2011 00:47:02 11 C 8.61 g/m*3 11 C 0 km/h
485 30-09-2011 00:59:02 11 C 8.61 g/m*3 11 C 0 km/h
486 30-09-2011 01:11:03 11.1 C 8.76 g/m*3 11.1 C 0 km/h
487 30-09-2011 01:23:03 10.7 C 8.55 g/m*3 10.7 C 0 km/h
488 30-09-2011 01:35:03 10.6 C 8.49 g/m*3 10.6 C 0 km/h
489 30-09-2011 01:47:03 10.6 C 8.49 g/m*3 10.6 C 0 km/h
490 30-09-2011 01:59:03 10.8 C 8.7 g/m*3 10.8 C 0 km/h
491 30-09-2011 02:11:03 10.3 C 8.43 g/m*3 10.3 C 0 km/h
492 30-09-2011 02:23:03 10.1 C 8.32 g/m*3 10.1 C 0 km/h
493 30-09-2011 02:35:03 9.8 C 8.26 g/m*3 9.8 C 0 km/h
494 30-09-2011 02:47:03 9.9 C 8.31 g/m*3 9.9 C 0 km/h
495 30-09-2011 02:59:03 9.7 C 8.2 g/m*3 9.7 C 0 km/h
496 30-09-2011 03:11:03 9.6 C 8.15 g/m*3 9.6 C 0 km/h
497 30-09-2011 03:23:03 9.5 C 8.1 g/m*3 9.5 C 0 km/h
498 30-09-2011 03:35:03 9.6 C 8.15 g/m*3 9.6 C 0 km/h
499 30-09-2011 03:47:03 9.5 C 8.01 g/m*3 9.5 C 0 km/h
500 30-09-2011 03:59:03 9.5 C 8.1 g/m*3 9.5 C 0 km/h
Sensor: Nr:Datum:Temp:Abs-Feuchte:Windchill:Wind:
Aussen-T/F 501 30-09-2011 04:11:03 9.3 C 8 g/m*3 9.3 C 0 km/h
502 30-09-2011 04:23:03 9.2 C 7.95 g/m*3 9.2 C 0 km/h
503 30-09-2011 04:35:03 9.3 C 8 g/m*3 9.3 C 0 km/h
504 30-09-2011 04:47:03 9.3 C 7.91 g/m*3 9.3 C 0 km/h
505 30-09-2011 04:59:03 9 C 7.85 g/m*3 9 C 0 km/h
506 30-09-2011 05:11:03 8.8 C 7.83 g/m*3 8.8 C 0 km/h
507 30-09-2011 05:23:03 9.3 C 8 g/m*3 9.3 C 0 km/h
508 30-09-2011 05:35:04 9 C 7.85 g/m*3 9 C 0 km/h
509 30-09-2011 05:47:04 9.3 C 8.09 g/m*3 9.3 C 0 km/h
510 30-09-2011 05:59:04 9.2 C 8.04 g/m*3 9.2 C 0 km/h
511 30-09-2011 06:11:04 8.7 C 7.87 g/m*3 8.7 C 0 km/h
512 30-09-2011 06:23:04 8.4 C 7.72 g/m*3 8.4 C 0 km/h
513 30-09-2011 06:35:04 8.3 C 7.67 g/m*3 8.3 C 0 km/h
514 30-09-2011 06:47:04 8.6 C 7.82 g/m*3 8.6 C 0 km/h
515 30-09-2011 06:59:04 8.6 C 7.82 g/m*3 8.6 C 0 km/h
516 30-09-2011 07:11:02 8.6 C 7.82 g/m*3 8.6 C 0 km/h
517 30-09-2011 07:23:02 8.9 C 7.97 g/m*3 8.9 C 0 km/h
518 30-09-2011 07:35:02 9 C 7.93 g/m*3 9 C 0 km/h
519 30-09-2011 07:47:02 9.3 C 8.18 g/m*3 9.3 C 0 km/h
520 30-09-2011 07:59:02 9.4 C 8.23 g/m*3 9.4 C 0 km/h
521 30-09-2011 08:11:02 9.5 C 8.28 g/m*3 9.5 C 0 km/h
522 30-09-2011 08:23:03 9.5 C 8.28 g/m*3 9.5 C 0 km/h
523 30-09-2011 08:35:02 9.4 C 8.23 g/m*3 9.4 C 0 km/h
524 30-09-2011 08:47:02 9.1 C 8.07 g/m*3 9.1 C 0 km/h
525 30-09-2011 08:59:02 9.4 C 8.23 g/m*3 9.4 C 0 km/h
Sensor: Nr:Datum:Temp:Abs-Feuchte:Windchill:Wind:
Aussen-T/F 526 30-09-2011 09:11:02 9.4 C 8.23 g/m*3 9.4 C 0 km/h
527 30-09-2011 09:23:02 9.3 C 8.18 g/m*3 9.3 C 0 km/h
528 30-09-2011 09:35:01 9.8 C 8.44 g/m*3 9.8 C 0 km/h
529 30-09-2011 09:47:02 10.5 C 8.73 g/m*3 10.5 C 0 km/h
530 30-09-2011 09:59:02 10.5 C 8.73 g/m*3 10.5 C 0 km/h
531 30-09-2011 10:11:01 10.2 C 8.56 g/m*3 10.2 C 0 km/h
532 30-09-2011 10:23:01 10.1 C 8.42 g/m*3 10.1 C 0 km/h
533 30-09-2011 10:35:02 10.5 C 8.73 g/m*3 10.5 C 0 km/h
534 30-09-2011 10:47:02 11.1 C 9.07 g/m*3 11.1 C 0 km/h
535 30-09-2011 10:59:02 11.6 C 9.35 g/m*3 11.6 C 0 km/h
536 30-09-2011 11:11:02 12.3 C 9.77 g/m*3 12.3 C 0 km/h
537 30-09-2011 11:23:02 12.9 C 10.14 g/m*3 12.9 C 0 km/h
538 30-09-2011 11:35:02 13.5 C 10.41 g/m*3 13.5 C 0 km/h
539 30-09-2011 11:47:02 14 C 10.74 g/m*3 14 C 0 km/h
540 30-09-2011 11:59:02 14.8 C 11.27 g/m*3 14.8 C 0 km/h
541 30-09-2011 12:11:02 15 C 11.41 g/m*3 15 C 0 km/h
542 30-09-2011 12:23:02 15.5 C 11.63 g/m*3 15.5 C 0 km/h
543 30-09-2011 12:35:02 16.1 C 11.93 g/m*3 16.1 C 0 km/h
544 30-09-2011 12:47:02 16.5 C 11.94 g/m*3 16.5 C 0 km/h
545 30-09-2011 12:59:02 16.9 C 12.08 g/m*3 16.9 C 0 km/h
546 30-09-2011 13:11:02 17.6 C 12 g/m*3 17.6 C 0 km/h
547 30-09-2011 13:23:02 18.1 C 11.9 g/m*3 18.1 C 0 km/h
548 30-09-2011 13:35:02 20.7 C 12.6 g/m*3 20.7 C 0 km/h
549 30-09-2011 13:47:02 20.9 C 10.56 g/m*3 20.9 C 0 km/h
550 30-09-2011 13:59:02 20 C 10.89 g/m*3 20 C 0 km/h
Sensor: Nr:Datum:Temp:Abs-Feuchte:Windchill:Wind:
Aussen-T/F 551 30-09-2011 14:11:01 19.9 C 10.31 g/m*3 19.9 C 0 km/h
552 30-09-2011 14:23:02 20.2 C 9.79 g/m*3 20.2 C 0 km/h
553 30-09-2011 14:35:02 20.9 C 9.11 g/m*3 20.9 C 0 km/h
554 30-09-2011 14:47:02 21.9 C 8.68 g/m*3 21.9 C 0 km/h
555 30-09-2011 14:59:02 21.9 C 8.88 g/m*3 21.9 C 0 km/h
556 30-09-2011 15:11:03 21.5 C 9.43 g/m*3 21.5 C 0 km/h
557 30-09-2011 15:23:02 21.3 C 9.32 g/m*3 21.3 C 0 km/h
558 30-09-2011 15:35:02 21 C 8.98 g/m*3 21 C 0 km/h
559 30-09-2011 15:47:01 21.9 C 8.88 g/m*3 21.9 C 0 km/h
560 30-09-2011 15:59:01 22 C 8.73 g/m*3 22 C 0 km/h
561 30-09-2011 16:11:02 23.1 C 8.27 g/m*3 23.1 C 0 km/h
562 30-09-2011 16:23:01 26.2 C 9.35 g/m*3 26.2 C 0 km/h
563 30-09-2011 16:35:01 29.3 C 7.88 g/m*3 29.3 C 0 km/h
564 30-09-2011 16:47:01 30.1 C 7.93 g/m*3 30.1 C 0 km/h
565 30-09-2011 16:59:01 30.6 C 8.46 g/m*3 30.6 C 0 km/h
566 30-09-2011 17:11:01 30.4 C 8.68 g/m*3 30.4 C 0 km/h
567 30-09-2011 17:23:02 28.5 C 8.38 g/m*3 28.5 C 0 km/h
568 30-09-2011 17:35:01 26.9 C 8.45 g/m*3 26.9 C 0 km/h
569 30-09-2011 17:47:03 25.6 C 8.33 g/m*3 25.6 C 0 km/h
570 30-09-2011 17:59:03 25 C 8.52 g/m*3 25 C 0 km/h
571 30-09-2011 18:11:02 23.8 C 8.6 g/m*3 23.8 C 0 km/h
572 30-09-2011 18:23:02 22.6 C 8.64 g/m*3 22.6 C 0 km/h
573 30-09-2011 18:35:02 21.8 C 8.83 g/m*3 21.8 C 0 km/h
574 30-09-2011 18:47:02 20.7 C 8.82 g/m*3 20.7 C 0 km/h
575 30-09-2011 18:59:02 19.1 C 8.85 g/m*3 19.1 C 0 km/h
Sensor: Nr:Datum:Temp:Abs-Feuchte:Windchill:Wind:
Aussen-T/F 576 30-09-2011 19:11:01 18.5 C 9.18 g/m*3 18.5 C 0 km/h
577 30-09-2011 19:23:02 18.6 C 8.75 g/m*3 18.6 C 0 km/h
578 30-09-2011 19:35:02 18.4 C 8.81 g/m*3 18.4 C 0 km/h
579 30-09-2011 19:47:01 18.1 C 8.65 g/m*3 18.1 C 0 km/h
580 30-09-2011 19:59:01 16.9 C 9.06 g/m*3 16.9 C 0 km/h
581 30-09-2011 20:11:02 15.7 C 8.96 g/m*3 15.7 C 0 km/h
582 30-09-2011 20:23:01 15.1 C 9.16 g/m*3 15.1 C 0 km/h
583 30-09-2011 20:35:01 15.2 C 9.48 g/m*3 15.2 C 0 km/h
584 30-09-2011 20:47:01 15.1 C 9.68 g/m*3 15.1 C 0 km/h
585 30-09-2011 20:59:01 14.7 C 9.44 g/m*3 14.7 C 0 km/h
586 30-09-2011 21:11:02 14.2 C 9.16 g/m*3 14.2 C 0 km/h
587 30-09-2011 21:23:01 13.8 C 9.17 g/m*3 13.8 C 0 km/h
588 30-09-2011 21:35:01 13.6 C 9.18 g/m*3 13.6 C 0 km/h
589 30-09-2011 21:47:01 13.4 C 9.18 g/m*3 13.4 C 0 km/h
590 30-09-2011 21:59:01 13.1 C 9.01 g/m*3 13.1 C 0 km/h
591 30-09-2011 22:12:03 13.1 C 9.24 g/m*3 13.1 C 0 km/h
592 30-09-2011 22:24:03 12.8 C 9.18 g/m*3 12.8 C 0 km/h
593 30-09-2011 22:36:03 12.8 C 9.18 g/m*3 12.8 C 0 km/h
594 30-09-2011 22:48:03 12.5 C 9.02 g/m*3 12.5 C 0 km/h
595 30-09-2011 23:00:03 12.4 C 9.07 g/m*3 12.4 C 0 km/h
596 30-09-2011 23:12:03 12.2 C 8.96 g/m*3 12.2 C 0 km/h
597 30-09-2011 23:24:03 12.1 C 9.01 g/m*3 12.1 C 0 km/h
598 30-09-2011 23:36:03 12.2 C 9.17 g/m*3 12.2 C 0 km/h
599 30-09-2011 23:48:03 11.7 C 8.89 g/m*3 11.7 C 0 km/h
600 01-10-2011 00:00:03 11.5 C 8.78 g/m*3 11.5 C 0 km/h
Sensor: Nr:Datum:Temp:Abs-Feuchte:Windchill:Wind:
Aussen-T/F 601 01-10-2011 00:12:03 11.3 C 8.67 g/m*3 11.3 C 0 km/h
602 01-10-2011 00:24:03 11.3 C 8.77 g/m*3 11.3 C 0 km/h
603 01-10-2011 00:36:03 11.2 C 8.72 g/m*3 11.2 C 0 km/h
604 01-10-2011 00:48:03 11.1 C 8.66 g/m*3 11.1 C 0 km/h
605 01-10-2011 01:00:03 11.1 C 8.66 g/m*3 11.1 C 0 km/h
606 01-10-2011 01:12:03 10.8 C 8.6 g/m*3 10.8 C 0 km/h
607 01-10-2011 01:24:03 10.8 C 8.6 g/m*3 10.8 C 0 km/h
608 01-10-2011 01:36:03 10.6 C 8.49 g/m*3 10.6 C 0 km/h
609 01-10-2011 01:48:03 10.8 C 8.6 g/m*3 10.8 C 0 km/h
610 01-10-2011 02:00:03 10.6 C 8.59 g/m*3 10.6 C 0 km/h
611 01-10-2011 02:12:04 10.2 C 8.28 g/m*3 10.2 C 0 km/h
612 01-10-2011 02:24:04 10.5 C 8.44 g/m*3 10.5 C 0 km/h
613 01-10-2011 02:36:04 10.4 C 8.48 g/m*3 10.4 C 0 km/h
614 01-10-2011 02:48:04 9.9 C 8.31 g/m*3 9.9 C 0 km/h
615 01-10-2011 03:00:04 10 C 8.17 g/m*3 10 C 0 km/h
616 01-10-2011 03:12:04 10 C 8.27 g/m*3 10 C 0 km/h
617 01-10-2011 03:24:04 9.9 C 8.31 g/m*3 9.9 C 0 km/h
618 01-10-2011 03:36:04 9.8 C 8.26 g/m*3 9.8 C 0 km/h
619 01-10-2011 03:48:04 9.6 C 8.15 g/m*3 9.6 C 0 km/h
620 01-10-2011 04:00:04 9.6 C 8.06 g/m*3 9.6 C 0 km/h
621 01-10-2011 04:12:04 9.5 C 8.1 g/m*3 9.5 C 0 km/h
622 01-10-2011 04:24:04 9.6 C 8.15 g/m*3 9.6 C 0 km/h
623 01-10-2011 04:36:04 9.3 C 8 g/m*3 9.3 C 0 km/h
624 01-10-2011 04:48:04 9 C 7.85 g/m*3 9 C 0 km/h
625 01-10-2011 05:00:04 9 C 7.85 g/m*3 9 C 0 km/h
Sensor: Nr:Datum:Temp:Abs-Feuchte:Windchill:Wind:
Aussen-T/F 626 01-10-2011 05:12:04 9.1 C 7.9 g/m*3 9.1 C 0 km/h
627 01-10-2011 05:24:04 8.8 C 7.83 g/m*3 8.8 C 0 km/h
628 01-10-2011 05:36:04 9.1 C 7.9 g/m*3 9.1 C 0 km/h
629 01-10-2011 05:48:04 9.1 C 7.9 g/m*3 9.1 C 0 km/h
630 01-10-2011 06:00:04 8.8 C 7.83 g/m*3 8.8 C 0 km/h
631 01-10-2011 06:12:04 8.5 C 7.68 g/m*3 8.5 C 0 km/h
632 01-10-2011 06:24:04 8.6 C 7.73 g/m*3 8.6 C 0 km/h
633 01-10-2011 06:36:05 8.3 C 7.59 g/m*3 8.3 C 0 km/h
634 01-10-2011 06:48:05 8.3 C 7.59 g/m*3 8.3 C 0 km/h
635 01-10-2011 07:00:05 8.2 C 7.54 g/m*3 8.2 C 0 km/h
636 01-10-2011 07:12:05 8.2 C 7.54 g/m*3 8.2 C 0 km/h
637 01-10-2011 07:24:05 8.4 C 7.63 g/m*3 8.4 C 0 km/h
638 01-10-2011 07:36:05 8.2 C 7.54 g/m*3 8.2 C 0 km/h
639 01-10-2011 07:48:01 8.5 C 7.77 g/m*3 8.5 C 0 km/h
640 01-10-2011 08:00:02 8.5 C 7.77 g/m*3 8.5 C 0 km/h
641 01-10-2011 08:12:01 8.3 C 7.67 g/m*3 8.3 C 0 km/h
642 01-10-2011 08:24:01 8.4 C 7.72 g/m*3 8.4 C 0 km/h
643 01-10-2011 08:36:02 8.4 C 7.63 g/m*3 8.4 C 0 km/h
644 01-10-2011 08:48:02 8.5 C 7.77 g/m*3 8.5 C 0 km/h
645 01-10-2011 09:00:02 8.6 C 7.82 g/m*3 8.6 C 0 km/h
646 01-10-2011 09:12:02 8.7 C 7.87 g/m*3 8.7 C 0 km/h
647 01-10-2011 09:24:01 8.8 C 7.92 g/m*3 8.8 C 0 km/h
648 01-10-2011 09:36:02 9 C 7.93 g/m*3 9 C 0 km/h
649 01-10-2011 09:48:01 9.1 C 7.99 g/m*3 9.1 C 0 km/h
650 01-10-2011 10:00:01 9.4 C 8.14 g/m*3 9.4 C 0 km/h
Sensor: Nr:Datum:Temp:Abs-Feuchte:Windchill:Wind:
Aussen-T/F 651 01-10-2011 10:12:02 9.9 C 8.4 g/m*3 9.9 C 0 km/h
652 01-10-2011 10:24:01 10.3 C 8.52 g/m*3 10.3 C 0 km/h
653 01-10-2011 10:36:02 10.8 C 8.9 g/m*3 10.8 C 0 km/h
654 01-10-2011 10:48:02 11.3 C 9.18 g/m*3 11.3 C 0 km/h
655 01-10-2011 11:00:02 11.7 C 9.41 g/m*3 11.7 C 0 km/h
656 01-10-2011 11:12:01 11.9 C 9.53 g/m*3 11.9 C 0 km/h
657 01-10-2011 11:24:02 12.4 C 9.83 g/m*3 12.4 C 0 km/h
658 01-10-2011 11:36:01 12.9 C 10.14 g/m*3 12.9 C 0 km/h
659 01-10-2011 11:48:02 13.2 C 10.22 g/m*3 13.2 C 0 km/h
660 01-10-2011 12:00:02 13.5 C 10.41 g/m*3 13.5 C 0 km/h
661 01-10-2011 12:12:01 13.8 C 10.6 g/m*3 13.8 C 0 km/h
662 01-10-2011 12:24:01 14.4 C 11 g/m*3 14.4 C 0 km/h
663 01-10-2011 12:36:01 14.5 C 11.07 g/m*3 14.5 C 0 km/h
664 01-10-2011 12:48:02 15.5 C 11.76 g/m*3 15.5 C 0 km/h
665 01-10-2011 13:00:03 16.4 C 12.14 g/m*3 16.4 C 0 km/h
666 01-10-2011 13:12:01 16.7 C 12.08 g/m*3 16.7 C 0 km/h
667 01-10-2011 13:24:02 17.8 C 12.6 g/m*3 17.8 C 0 km/h
668 01-10-2011 13:36:02 20 C 13.31 g/m*3 20 C 0 km/h
669 01-10-2011 13:48:02 19.5 C 12.08 g/m*3 19.5 C 0 km/h
670 01-10-2011 14:00:02 19 C 11.73 g/m*3 19 C 0 km/h
671 01-10-2011 14:12:03 19.3 C 11.78 g/m*3 19.3 C 0 km/h
672 01-10-2011 14:24:02 19.3 C 11.94 g/m*3 19.3 C 0 km/h
673 01-10-2011 14:36:03 19.2 C 11.87 g/m*3 19.2 C 0 km/h
674 01-10-2011 14:48:02 19.1 C 11.8 g/m*3 19.1 C 0 km/h
675 01-10-2011 15:00:02 19.3 C 11.61 g/m*3 19.3 C 0 km/h
Sensor: Nr:Datum:Temp:Abs-Feuchte:Windchill:Wind:
Aussen-T/F 676 01-10-2011 15:12:02 19.6 C 11.65 g/m*3 19.6 C 0 km/h
677 01-10-2011 15:24:01 19.9 C 11.34 g/m*3 19.9 C 0 km/h
678 01-10-2011 15:36:02 20.1 C 11.13 g/m*3 20.1 C 0 km/h
679 01-10-2011 15:48:02 20.5 C 10.68 g/m*3 20.5 C 0 km/h
680 01-10-2011 16:00:02 20.8 C 10.5 g/m*3 20.8 C 0 km/h
681 01-10-2011 16:12:02 21.4 C 10.12 g/m*3 21.4 C 0 km/h
682 01-10-2011 16:24:01 26.9 C 9.98 g/m*3 26.9 C 0 km/h
683 01-10-2011 16:36:02 30 C 9.4 g/m*3 30 C 0 km/h
684 01-10-2011 16:48:01 30.1 C 9.76 g/m*3 30.1 C 0 km/h
685 01-10-2011 17:00:01 30 C 9.1 g/m*3 30 C 0 km/h
686 01-10-2011 17:12:02 29.8 C 9 g/m*3 29.8 C 0 km/h
687 01-10-2011 17:24:02 28.5 C 8.66 g/m*3 28.5 C 0 km/h
688 01-10-2011 17:36:02 28.5 C 8.66 g/m*3 28.5 C 0 km/h
689 01-10-2011 17:48:02 26.7 C 8.86 g/m*3 26.7 C 0 km/h
690 01-10-2011 18:00:02 26.3 C 8.91 g/m*3 26.3 C 0 km/h
691 01-10-2011 18:12:01 25.6 C 8.81 g/m*3 25.6 C 0 km/h
692 01-10-2011 18:24:02 24.3 C 8.85 g/m*3 24.3 C 0 km/h
693 01-10-2011 18:36:01 24 C 8.92 g/m*3 24 C 0 km/h
694 01-10-2011 18:48:02 23.2 C 8.94 g/m*3 23.2 C 0 km/h
695 01-10-2011 19:00:03 20.4 C 9.02 g/m*3 20.4 C 0 km/h
696 01-10-2011 19:12:02 19 C 9.13 g/m*3 19 C 0 km/h
697 01-10-2011 19:24:02 18.4 C 9.59 g/m*3 18.4 C 0 km/h
698 01-10-2011 19:36:02 18 C 9.68 g/m*3 18 C 0 km/h
699 01-10-2011 19:48:02 17.8 C 9.71 g/m*3 17.8 C 0 km/h
700 01-10-2011 20:00:02 17.1 C 9.61 g/m*3 17.1 C 0 km/h
Sensor: Nr:Datum:Temp:Abs-Feuchte:Windchill:Wind:
Aussen-T/F 701 01-10-2011 20:12:02 17 C 9.84 g/m*3 17 C 0 km/h
702 01-10-2011 20:24:02 16.5 C 9.83 g/m*3 16.5 C 0 km/h
703 01-10-2011 20:36:02 15.9 C 9.75 g/m*3 15.9 C 0 km/h
704 01-10-2011 20:48:01 15.6 C 9.71 g/m*3 15.6 C 0 km/h
705 01-10-2011 21:00:01 15.2 C 9.61 g/m*3 15.2 C 0 km/h
706 01-10-2011 21:12:02 14.9 C 9.69 g/m*3 14.9 C 0 km/h
707 01-10-2011 21:24:01 14.7 C 9.57 g/m*3 14.7 C 0 km/h
708 01-10-2011 21:36:02 14.5 C 9.58 g/m*3 14.5 C 0 km/h
709 01-10-2011 21:48:01 14.3 C 9.46 g/m*3 14.3 C 0 km/h
710 01-10-2011 22:00:01 13.8 C 9.41 g/m*3 13.8 C 0 km/h
711 01-10-2011 22:12:02 13.6 C 9.3 g/m*3 13.6 C 0 km/h
712 01-10-2011 22:24:01 13.5 C 9.36 g/m*3 13.5 C 0 km/h
713 01-10-2011 22:37:02 13.2 C 9.3 g/m*3 13.2 C 0 km/h
714 01-10-2011 22:49:02 12.9 C 9.24 g/m*3 12.9 C 0 km/h
715 01-10-2011 23:01:02 13.1 C 9.36 g/m*3 13.1 C 0 km/h
716 01-10-2011 23:13:02 13 C 9.41 g/m*3 13 C 0 km/h
717 01-10-2011 23:25:02 13 C 9.53 g/m*3 13 C 0 km/h
718 01-10-2011 23:37:02 12.8 C 9.41 g/m*3 12.8 C 0 km/h
719 01-10-2011 23:49:02 13 C 9.53 g/m*3 13 C 0 km/h
720 02-10-2011 00:01:02 12.5 C 9.35 g/m*3 12.5 C 0 km/h
721 02-10-2011 00:13:02 12.4 C 9.29 g/m*3 12.4 C 0 km/h
722 02-10-2011 00:25:02 12.1 C 9.12 g/m*3 12.1 C 0 km/h
723 02-10-2011 00:37:02 12.1 C 9.12 g/m*3 12.1 C 0 km/h
724 02-10-2011 00:49:02 11.9 C 9.21 g/m*3 11.9 C 0 km/h
725 02-10-2011 01:01:02 11.7 C 9.1 g/m*3 11.7 C 0 km/h
Sensor: Nr:Datum:Temp:Abs-Feuchte:Windchill:Wind:
Aussen-T/F 726 02-10-2011 01:13:02 11.5 C 8.88 g/m*3 11.5 C 0 km/h
727 02-10-2011 01:25:02 11.3 C 8.77 g/m*3 11.3 C 0 km/h
728 02-10-2011 01:37:02 11.2 C 8.82 g/m*3 11.2 C 0 km/h
729 02-10-2011 01:49:02 11.2 C 8.82 g/m*3 11.2 C 0 km/h
730 02-10-2011 02:01:02 11.2 C 8.82 g/m*3 11.2 C 0 km/h
731 02-10-2011 02:13:02 11 C 8.71 g/m*3 11 C 0 km/h
732 02-10-2011 02:25:02 10.8 C 8.7 g/m*3 10.8 C 0 km/h
733 02-10-2011 02:37:02 10.8 C 8.6 g/m*3 10.8 C 0 km/h
734 02-10-2011 02:49:02 10.9 C 8.65 g/m*3 10.9 C 0 km/h
735 02-10-2011 03:01:03 11 C 8.71 g/m*3 11 C 0 km/h
736 02-10-2011 03:13:03 11 C 8.71 g/m*3 11 C 0 km/h
737 02-10-2011 03:25:03 10.6 C 8.59 g/m*3 10.6 C 0 km/h
738 02-10-2011 03:37:03 10.4 C 8.48 g/m*3 10.4 C 0 km/h
739 02-10-2011 03:49:03 10.4 C 8.48 g/m*3 10.4 C 0 km/h
740 02-10-2011 04:01:03 10.4 C 8.48 g/m*3 10.4 C 0 km/h
741 02-10-2011 04:13:03 10.3 C 8.43 g/m*3 10.3 C 0 km/h
742 02-10-2011 04:25:03 10.1 C 8.32 g/m*3 10.1 C 0 km/h
743 02-10-2011 04:37:03 10 C 8.27 g/m*3 10 C 0 km/h
744 02-10-2011 04:49:03 9.9 C 8.31 g/m*3 9.9 C 0 km/h
745 02-10-2011 05:01:03 9.6 C 8.15 g/m*3 9.6 C 0 km/h
746 02-10-2011 05:13:03 9.8 C 8.26 g/m*3 9.8 C 0 km/h
747 02-10-2011 05:25:03 9.6 C 8.15 g/m*3 9.6 C 0 km/h
748 02-10-2011 05:37:03 9.5 C 8.1 g/m*3 9.5 C 0 km/h
749 02-10-2011 05:49:03 9.7 C 8.2 g/m*3 9.7 C 0 km/h
750 02-10-2011 06:01:03 10 C 8.36 g/m*3 10 C 0 km/h
Sensor: Nr:Datum:Temp:Abs-Feuchte:Windchill:Wind:
Aussen-T/F 751 02-10-2011 06:13:03 10.1 C 8.42 g/m*3 10.1 C 0 km/h
752 02-10-2011 06:25:03 9.8 C 8.35 g/m*3 9.8 C 0 km/h
753 02-10-2011 06:37:03 9.7 C 8.3 g/m*3 9.7 C 0 km/h
754 02-10-2011 06:49:03 9.3 C 8.09 g/m*3 9.3 C 0 km/h
755 02-10-2011 07:01:03 9.2 C 8.04 g/m*3 9.2 C 0 km/h
756 02-10-2011 07:13:03 9.1 C 7.99 g/m*3 9.1 C 0 km/h
757 02-10-2011 07:25:04 9.3 C 8.09 g/m*3 9.3 C 0 km/h
758 02-10-2011 07:37:04 9.5 C 8.19 g/m*3 9.5 C 0 km/h
759 02-10-2011 07:49:04 9.3 C 8.09 g/m*3 9.3 C 0 km/h
760 02-10-2011 08:01:04 9.1 C 7.99 g/m*3 9.1 C 0 km/h
761 02-10-2011 08:13:04 9.1 C 7.99 g/m*3 9.1 C 0 km/h
762 02-10-2011 08:25:04 9.1 C 7.99 g/m*3 9.1 C 0 km/h
763 02-10-2011 08:37:04 9.3 C 8.09 g/m*3 9.3 C 0 km/h
764 02-10-2011 08:49:04 9.6 C 8.34 g/m*3 9.6 C 0 km/h
765 02-10-2011 09:01:02 9.6 C 8.34 g/m*3 9.6 C 0 km/h
766 02-10-2011 09:13:02 9.7 C 8.39 g/m*3 9.7 C 0 km/h
767 02-10-2011 09:25:01 10 C 8.36 g/m*3 10 C 0 km/h
768 02-10-2011 09:37:01 10.2 C 8.47 g/m*3 10.2 C 0 km/h
769 02-10-2011 09:49:01 10.5 C 8.73 g/m*3 10.5 C 0 km/h
770 02-10-2011 10:01:02 10.8 C 8.9 g/m*3 10.8 C 0 km/h
771 02-10-2011 10:13:02 11.1 C 8.96 g/m*3 11.1 C 0 km/h
772 02-10-2011 10:25:02 11.4 C 9.14 g/m*3 11.4 C 0 km/h
773 02-10-2011 10:37:01 11.7 C 9.41 g/m*3 11.7 C 0 km/h
774 02-10-2011 10:49:02 12.3 C 9.77 g/m*3 12.3 C 0 km/h
775 02-10-2011 11:01:01 12.6 C 9.96 g/m*3 12.6 C 0 km/h
Sensor: Nr:Datum:Temp:Abs-Feuchte:Windchill:Wind:
Aussen-T/F 776 02-10-2011 11:13:01 12.7 C 10.02 g/m*3 12.7 C 0 km/h
777 02-10-2011 11:25:02 13 C 10.09 g/m*3 13 C 0 km/h
778 02-10-2011 11:37:01 13.3 C 10.28 g/m*3 13.3 C 0 km/h
779 02-10-2011 11:49:02 13.8 C 10.72 g/m*3 13.8 C 0 km/h
780 02-10-2011 12:01:02 14.2 C 10.87 g/m*3 14.2 C 0 km/h
781 02-10-2011 12:13:02 14.4 C 11 g/m*3 14.4 C 0 km/h
782 02-10-2011 12:25:02 15 C 11.28 g/m*3 15 C 0 km/h
783 02-10-2011 12:37:02 15.4 C 11.56 g/m*3 15.4 C 0 km/h
784 02-10-2011 12:49:01 16.2 C 12.14 g/m*3 16.2 C 0 km/h
785 02-10-2011 13:01:02 16.8 C 12.3 g/m*3 16.8 C 0 km/h
786 02-10-2011 13:13:02 17.3 C 12.37 g/m*3 17.3 C 0 km/h
787 02-10-2011 13:25:01 18.2 C 12.43 g/m*3 18.2 C 0 km/h
788 02-10-2011 13:37:02 20.9 C 12.75 g/m*3 20.9 C 0 km/h
789 02-10-2011 13:49:01 19.6 C 11.48 g/m*3 19.6 C 0 km/h
790 02-10-2011 14:01:02 19.6 C 11.31 g/m*3 19.6 C 0 km/h
791 02-10-2011 14:13:02 19.3 C 11.11 g/m*3 19.3 C 0 km/h
792 02-10-2011 14:25:01 19.3 C 11.11 g/m*3 19.3 C 0 km/h
793 02-10-2011 14:37:02 19.2 C 11.21 g/m*3 19.2 C 0 km/h
794 02-10-2011 14:49:01 19.2 C 11.05 g/m*3 19.2 C 0 km/h
795 02-10-2011 15:01:02 19.1 C 10.98 g/m*3 19.1 C 0 km/h
796 02-10-2011 15:13:02 19.7 C 10.7 g/m*3 19.7 C 0 km/h
797 02-10-2011 15:25:02 19.7 C 10.7 g/m*3 19.7 C 0 km/h
798 02-10-2011 15:37:01 19.8 C 10.76 g/m*3 19.8 C 0 km/h
799 02-10-2011 15:49:02 20.4 C 10.44 g/m*3 20.4 C 0 km/h
800 02-10-2011 16:01:01 20.6 C 10.56 g/m*3 20.6 C 0 km/h
Sensor: Nr:Datum:Temp:Abs-Feuchte:Windchill:Wind:
Aussen-T/F 801 02-10-2011 16:13:01 20.9 C 10.56 g/m*3 20.9 C 0 km/h
802 02-10-2011 16:25:02 27.1 C 10.35 g/m*3 27.1 C 0 km/h
803 02-10-2011 16:37:01 29.4 C 9.1 g/m*3 29.4 C 0 km/h
804 02-10-2011 16:49:02 30.3 C 9.55 g/m*3 30.3 C 0 km/h
805 02-10-2011 17:01:02 30.1 C 9.15 g/m*3 30.1 C 0 km/h
806 02-10-2011 17:13:02 29.1 C 8.95 g/m*3 29.1 C 0 km/h
807 02-10-2011 17:25:02 29 C 8.9 g/m*3 29 C 0 km/h
808 02-10-2011 17:37:02 26.7 C 8.86 g/m*3 26.7 C 0 km/h
809 02-10-2011 17:49:01 25.4 C 8.71 g/m*3 25.4 C 0 km/h
810 02-10-2011 18:01:02 24.3 C 8.63 g/m*3 24.3 C 0 km/h
811 02-10-2011 18:13:02 23.6 C 8.93 g/m*3 23.6 C 0 km/h
812 02-10-2011 18:25:01 23.3 C 8.99 g/m*3 23.3 C 0 km/h
813 02-10-2011 18:37:02 22.5 C 8.99 g/m*3 22.5 C 0 km/h
814 02-10-2011 18:49:01 22 C 9.12 g/m*3 22 C 0 km/h
815 02-10-2011 19:01:02 19.7 C 9.17 g/m*3 19.7 C 0 km/h
816 02-10-2011 19:13:02 18.8 C 9.18 g/m*3 18.8 C 0 km/h
817 02-10-2011 19:25:01 18.2 C 9.17 g/m*3 18.2 C 0 km/h
818 02-10-2011 19:37:02 17.9 C 9.31 g/m*3 17.9 C 0 km/h
819 02-10-2011 19:49:01 17.1 C 9.17 g/m*3 17.1 C 0 km/h
820 02-10-2011 20:01:02 16.8 C 9.72 g/m*3 16.8 C 0 km/h
821 02-10-2011 20:13:02 16.3 C 9.57 g/m*3 16.3 C 0 km/h
822 02-10-2011 20:25:02 16.3 C 9.71 g/m*3 16.3 C 0 km/h
823 02-10-2011 20:37:01 15.7 C 9.63 g/m*3 15.7 C 0 km/h
824 02-10-2011 20:49:02 15.6 C 9.71 g/m*3 15.6 C 0 km/h
825 02-10-2011 21:01:01 15.4 C 9.85 g/m*3 15.4 C 0 km/h
Sensor: Nr:Datum:Temp:Abs-Feuchte:Windchill:Wind:
Aussen-T/F 826 02-10-2011 21:13:01 15.1 C 9.68 g/m*3 15.1 C 0 km/h
827 02-10-2011 21:25:02 14.8 C 9.75 g/m*3 14.8 C 0 km/h
828 02-10-2011 21:37:01 14.6 C 9.76 g/m*3 14.6 C 0 km/h
829 02-10-2011 21:50:03 14.5 C 9.83 g/m*3 14.5 C 0 km/h
830 02-10-2011 22:02:03 14.4 C 9.89 g/m*3 14.4 C 0 km/h
831 02-10-2011 22:14:03 14.1 C 9.95 g/m*3 14.1 C 0 km/h
832 02-10-2011 22:26:03 14.1 C 9.95 g/m*3 14.1 C 0 km/h
833 02-10-2011 22:38:03 13.8 C 9.89 g/m*3 13.8 C 0 km/h
834 02-10-2011 22:50:03 13.5 C 9.71 g/m*3 13.5 C 0 km/h
835 02-10-2011 23:02:03 13.4 C 9.76 g/m*3 13.4 C 0 km/h
836 02-10-2011 23:14:03 13.1 C 9.59 g/m*3 13.1 C 0 km/h
837 02-10-2011 23:26:03 13.1 C 9.59 g/m*3 13.1 C 0 km/h
838 02-10-2011 23:38:03 12.9 C 9.58 g/m*3 12.9 C 0 km/h
839 02-10-2011 23:50:03 12.9 C 9.58 g/m*3 12.9 C 0 km/h
840 03-10-2011 00:02:03 12.8 C 9.52 g/m*3 12.8 C 0 km/h
841 03-10-2011 00:14:03 12.7 C 9.46 g/m*3 12.7 C 0 km/h
842 03-10-2011 00:26:03 12.5 C 9.46 g/m*3 12.5 C 0 km/h
843 03-10-2011 00:38:03 12.3 C 9.34 g/m*3 12.3 C 0 km/h
844 03-10-2011 00:50:03 12.6 C 9.62 g/m*3 12.6 C 0 km/h
845 03-10-2011 01:02:03 12.7 C 9.68 g/m*3 12.7 C 0 km/h
846 03-10-2011 01:14:03 12.3 C 9.45 g/m*3 12.3 C 0 km/h
847 03-10-2011 01:26:03 12.2 C 9.39 g/m*3 12.2 C 0 km/h
848 03-10-2011 01:38:03 12.2 C 9.39 g/m*3 12.2 C 0 km/h
849 03-10-2011 01:50:04 12 C 9.38 g/m*3 12 C 0 km/h
850 03-10-2011 02:02:04 11.7 C 9.2 g/m*3 11.7 C 0 km/h
Sensor: Nr:Datum:Temp:Abs-Feuchte:Windchill:Wind:
Aussen-T/F 851 03-10-2011 02:14:04 11.4 C 9.03 g/m*3 11.4 C 0 km/h
852 03-10-2011 02:26:04 11.5 C 9.09 g/m*3 11.5 C 0 km/h
853 03-10-2011 02:38:04 11.9 C 9.32 g/m*3 11.9 C 0 km/h
854 03-10-2011 02:50:04 11.5 C 9.09 g/m*3 11.5 C 0 km/h
855 03-10-2011 03:02:04 11.5 C 9.09 g/m*3 11.5 C 0 km/h
856 03-10-2011 03:14:04 11.4 C 9.03 g/m*3 11.4 C 0 km/h
857 03-10-2011 03:26:04 11.2 C 8.92 g/m*3 11.2 C 0 km/h
858 03-10-2011 03:38:04 11.5 C 9.19 g/m*3 11.5 C 0 km/h
859 03-10-2011 03:50:04 11.1 C 8.86 g/m*3 11.1 C 0 km/h
860 03-10-2011 04:02:04 11 C 8.81 g/m*3 11 C 0 km/h
861 03-10-2011 04:14:04 11.1 C 8.96 g/m*3 11.1 C 0 km/h
862 03-10-2011 04:26:04 11.1 C 8.96 g/m*3 11.1 C 0 km/h
863 03-10-2011 04:38:04 11.1 C 8.96 g/m*3 11.1 C 0 km/h
864 03-10-2011 04:50:04 10.7 C 8.74 g/m*3 10.7 C 0 km/h
865 03-10-2011 05:02:04 10.6 C 8.69 g/m*3 10.6 C 0 km/h
866 03-10-2011 05:14:04 10.3 C 8.52 g/m*3 10.3 C 0 km/h
867 03-10-2011 05:26:04 10.2 C 8.47 g/m*3 10.2 C 0 km/h
868 03-10-2011 05:38:04 10.4 C 8.58 g/m*3 10.4 C 0 km/h
869 03-10-2011 05:50:05 10.4 C 8.58 g/m*3 10.4 C 0 km/h
870 03-10-2011 06:02:05 10.7 C 8.84 g/m*3 10.7 C 0 km/h
871 03-10-2011 06:14:05 10.4 C 8.58 g/m*3 10.4 C 0 km/h
872 03-10-2011 06:26:05 10.6 C 8.78 g/m*3 10.6 C 0 km/h
873 03-10-2011 06:38:05 10.7 C 8.84 g/m*3 10.7 C 0 km/h
874 03-10-2011 06:50:05 10.3 C 8.62 g/m*3 10.3 C 0 km/h
875 03-10-2011 07:02:05 10 C 8.46 g/m*3 10 C 0 km/h
Sensor: Nr:Datum:Temp:Abs-Feuchte:Windchill:Wind:
Aussen-T/F 876 03-10-2011 07:14:05 9.6 C 8.34 g/m*3 9.6 C 0 km/h
877 03-10-2011 07:26:05 10 C 8.46 g/m*3 10 C 0 km/h
878 03-10-2011 07:38:05 10.1 C 8.51 g/m*3 10.1 C 0 km/h
879 03-10-2011 07:50:05 9.7 C 8.39 g/m*3 9.7 C 0 km/h
880 03-10-2011 08:02:03 10.2 C 8.56 g/m*3 10.2 C 0 km/h
881 03-10-2011 08:14:03 10.3 C 8.62 g/m*3 10.3 C 0 km/h
882 03-10-2011 08:26:02 10.5 C 8.73 g/m*3 10.5 C 0 km/h
883 03-10-2011 08:38:02 10.5 C 8.73 g/m*3 10.5 C 0 km/h
884 03-10-2011 08:50:02 10.5 C 8.73 g/m*3 10.5 C 0 km/h
885 03-10-2011 09:02:01 10.7 C 8.84 g/m*3 10.7 C 0 km/h
886 03-10-2011 09:14:01 10.8 C 8.9 g/m*3 10.8 C 0 km/h
887 03-10-2011 09:26:02 11.2 C 9.12 g/m*3 11.2 C 0 km/h
888 03-10-2011 09:38:01 11.2 C 9.12 g/m*3 11.2 C 0 km/h
889 03-10-2011 09:50:02 11.5 C 9.3 g/m*3 11.5 C 0 km/h
890 03-10-2011 10:02:02 11.8 C 9.47 g/m*3 11.8 C 0 km/h
891 03-10-2011 10:14:02 12 C 9.59 g/m*3 12 C 0 km/h
892 03-10-2011 10:26:01 12.2 C 9.71 g/m*3 12.2 C 0 km/h
893 03-10-2011 10:38:02 12.5 C 9.89 g/m*3 12.5 C 0 km/h
894 03-10-2011 10:50:02 12.8 C 10.08 g/m*3 12.8 C 0 km/h
895 03-10-2011 11:02:02 13.1 C 10.16 g/m*3 13.1 C 0 km/h
896 03-10-2011 11:14:02 13.4 C 10.35 g/m*3 13.4 C 0 km/h
897 03-10-2011 11:26:02 13.8 C 10.6 g/m*3 13.8 C 0 km/h
898 03-10-2011 11:38:02 14.1 C 10.8 g/m*3 14.1 C 0 km/h
899 03-10-2011 11:50:02 14.2 C 10.75 g/m*3 14.2 C 0 km/h
900 03-10-2011 12:02:02 14.5 C 10.94 g/m*3 14.5 C 0 km/h
Sensor: Nr:Datum:Temp:Abs-Feuchte:Windchill:Wind:
Aussen-T/F 901 03-10-2011 12:14:03 14.7 C 10.95 g/m*3 14.7 C 0 km/h
902 03-10-2011 12:26:02 15.4 C 11.43 g/m*3 15.4 C 0 km/h
903 03-10-2011 12:38:02 15.6 C 11.57 g/m*3 15.6 C 0 km/h
904 03-10-2011 12:50:02 16.4 C 12 g/m*3 16.4 C 0 km/h
905 03-10-2011 13:02:02 16.9 C 12.37 g/m*3 16.9 C 0 km/h
906 03-10-2011 13:14:02 17.5 C 12.52 g/m*3 17.5 C 0 km/h
907 03-10-2011 13:26:02 18 C 12.44 g/m*3 18 C 0 km/h
908 03-10-2011 13:38:02 19.8 C 13.15 g/m*3 19.8 C 0 km/h
909 03-10-2011 13:50:02 20.2 C 12.06 g/m*3 20.2 C 0 km/h
910 03-10-2011 14:02:02 19.7 C 11.38 g/m*3 19.7 C 0 km/h
911 03-10-2011 14:14:02 20 C 10.89 g/m*3 20 C 0 km/h
912 03-10-2011 14:26:02 20 C 10.37 g/m*3 20 C 0 km/h
913 03-10-2011 14:38:01 20.4 C 9.91 g/m*3 20.4 C 0 km/h
914 03-10-2011 14:50:02 21.1 C 9.77 g/m*3 21.1 C 0 km/h
915 03-10-2011 15:02:01 20.4 C 10.08 g/m*3 20.4 C 0 km/h
916 03-10-2011 15:14:01 20.8 C 9.6 g/m*3 20.8 C 0 km/h
917 03-10-2011 15:26:02 20.6 C 10.02 g/m*3 20.6 C 0 km/h
918 03-10-2011 15:38:02 21 C 9.71 g/m*3 21 C 0 km/h
919 03-10-2011 15:50:02 21.5 C 9.24 g/m*3 21.5 C 0 km/h
920 03-10-2011 16:02:02 21.2 C 9.45 g/m*3 21.2 C 0 km/h
921 03-10-2011 16:14:02 23 C 9.45 g/m*3 23 C 0 km/h
922 03-10-2011 16:26:02 26.6 C 7.8 g/m*3 26.6 C 0 km/h
923 03-10-2011 16:38:02 27.9 C 8.65 g/m*3 27.9 C 0 km/h
924 03-10-2011 16:50:01 27.5 C 8.2 g/m*3 27.5 C 0 km/h
925 03-10-2011 17:02:02 27.6 C 8.51 g/m*3 27.6 C 0 km/h
Sensor: Nr:Datum:Temp:Abs-Feuchte:Windchill:Wind:
Aussen-T/F 926 03-10-2011 17:14:02 26 C 8.03 g/m*3 26 C 0 km/h
927 03-10-2011 17:26:01 26.2 C 8.62 g/m*3 26.2 C 0 km/h
928 03-10-2011 17:38:01 25.5 C 8.29 g/m*3 25.5 C 0 km/h
929 03-10-2011 17:50:01 25.2 C 8.61 g/m*3 25.2 C 0 km/h
930 03-10-2011 18:02:02 24.6 C 8.55 g/m*3 24.6 C 0 km/h
931 03-10-2011 18:14:02 23 C 8.22 g/m*3 23 C 0 km/h
932 03-10-2011 18:26:01 22.1 C 8.39 g/m*3 22.1 C 0 km/h
933 03-10-2011 18:38:01 20.8 C 8.51 g/m*3 20.8 C 0 km/h
934 03-10-2011 18:50:01 20.2 C 8.57 g/m*3 20.2 C 0 km/h
935 03-10-2011 19:02:01 18.6 C 8.91 g/m*3 18.6 C 0 km/h
936 03-10-2011 19:14:01 18.4 C 8.81 g/m*3 18.4 C 0 km/h
937 03-10-2011 19:26:02 18.1 C 8.81 g/m*3 18.1 C 0 km/h
938 03-10-2011 19:38:01 17.7 C 9.05 g/m*3 17.7 C 0 km/h
939 03-10-2011 19:50:02 17.6 C 9 g/m*3 17.6 C 0 km/h
940 03-10-2011 20:02:01 17.4 C 9.04 g/m*3 17.4 C 0 km/h
941 03-10-2011 20:14:01 17.2 C 9.08 g/m*3 17.2 C 0 km/h
942 03-10-2011 20:26:01 16.8 C 9.15 g/m*3 16.8 C 0 km/h
943 03-10-2011 20:38:01 16.3 C 9.3 g/m*3 16.3 C 0 km/h
944 03-10-2011 20:51:04 15.6 C 9.31 g/m*3 15.6 C 0 km/h
945 03-10-2011 21:03:04 15.5 C 9.52 g/m*3 15.5 C 0 km/h
946 03-10-2011 21:15:04 15.4 C 9.72 g/m*3 15.4 C 0 km/h
947 03-10-2011 21:27:04 15.5 C 9.65 g/m*3 15.5 C 0 km/h
948 03-10-2011 21:39:04 15.2 C 9.35 g/m*3 15.2 C 0 km/h
949 03-10-2011 21:51:04 14.9 C 9.43 g/m*3 14.9 C 0 km/h
950 03-10-2011 22:03:04 15 C 9.49 g/m*3 15 C 0 km/h
Sensor: Nr:Datum:Temp:Abs-Feuchte:Windchill:Wind:
Aussen-T/F 951 03-10-2011 22:15:04 14.4 C 9.39 g/m*3 14.4 C 0 km/h
952 03-10-2011 22:27:04 14.2 C 9.4 g/m*3 14.2 C 0 km/h
953 03-10-2011 22:39:04 14.1 C 9.34 g/m*3 14.1 C 0 km/h
954 03-10-2011 22:51:04 14.3 C 9.21 g/m*3 14.3 C 0 km/h
955 03-10-2011 23:03:05 13.8 C 8.94 g/m*3 13.8 C 0 km/h
956 03-10-2011 23:15:05 13.3 C 8.9 g/m*3 13.3 C 0 km/h
957 03-10-2011 23:27:05 13.1 C 8.9 g/m*3 13.1 C 0 km/h
958 03-10-2011 23:39:05 12.9 C 9.02 g/m*3 12.9 C 0 km/h
959 03-10-2011 23:51:05 12.5 C 8.91 g/m*3 12.5 C 0 km/h
960 04-10-2011 00:03:05 12.9 C 9.35 g/m*3 12.9 C 0 km/h
961 04-10-2011 00:15:05 12.6 C 9.18 g/m*3 12.6 C 0 km/h
962 04-10-2011 00:27:05 12.3 C 9.01 g/m*3 12.3 C 0 km/h
963 04-10-2011 00:39:05 12.2 C 8.96 g/m*3 12.2 C 0 km/h
964 04-10-2011 00:51:05 12.1 C 9.01 g/m*3 12.1 C 0 km/h
965 04-10-2011 01:03:05 12 C 8.95 g/m*3 12 C 0 km/h
966 04-10-2011 01:15:05 11.8 C 8.95 g/m*3 11.8 C 0 km/h
967 04-10-2011 01:27:05 11.9 C 9.11 g/m*3 11.9 C 0 km/h
968 04-10-2011 01:39:05 11.7 C 8.99 g/m*3 11.7 C 0 km/h
969 04-10-2011 01:51:05 11.4 C 8.83 g/m*3 11.4 C 0 km/h
970 04-10-2011 02:03:05 11.3 C 8.77 g/m*3 11.3 C 0 km/h
971 04-10-2011 02:15:05 11.2 C 8.82 g/m*3 11.2 C 0 km/h
972 04-10-2011 02:27:05 11.1 C 8.76 g/m*3 11.1 C 0 km/h
973 04-10-2011 02:39:05 11.2 C 8.82 g/m*3 11.2 C 0 km/h
974 04-10-2011 02:51:05 11 C 8.71 g/m*3 11 C 0 km/h
975 04-10-2011 03:03:05 11 C 8.71 g/m*3 11 C 0 km/h
Sensor: Nr:Datum:Temp:Abs-Feuchte:Windchill:Wind:
Aussen-T/F 976 04-10-2011 03:15:06 11.1 C 8.86 g/m*3 11.1 C 0 km/h
977 04-10-2011 03:27:06 11.1 C 8.86 g/m*3 11.1 C 0 km/h
978 04-10-2011 03:39:06 11.1 C 8.86 g/m*3 11.1 C 0 km/h
979 04-10-2011 03:51:06 11.1 C 8.86 g/m*3 11.1 C 0 km/h
980 04-10-2011 04:03:06 12.1 C 9.44 g/m*3 12.1 C 0 km/h
981 04-10-2011 04:15:06 11.9 C 9.32 g/m*3 11.9 C 0 km/h
982 04-10-2011 04:27:06 11.8 C 9.26 g/m*3 11.8 C 0 km/h
983 04-10-2011 04:39:06 12.7 C 9.68 g/m*3 12.7 C 0 km/h
984 04-10-2011 04:51:06 12.5 C 9.35 g/m*3 12.5 C 0 km/h
985 04-10-2011 05:03:06 12.4 C 9.18 g/m*3 12.4 C 0 km/h
986 04-10-2011 05:15:06 13.3 C 9.7 g/m*3 13.3 C 0 km/h
987 04-10-2011 05:27:06 12.8 C 9.07 g/m*3 12.8 C 0 km/h
988 04-10-2011 05:39:06 12 C 8.63 g/m*3 12 C 0 km/h
989 04-10-2011 05:51:06 12.2 C 8.96 g/m*3 12.2 C 0 km/h
990 04-10-2011 06:03:06 12.7 C 9.02 g/m*3 12.7 C 0 km/h
991 04-10-2011 06:15:06 12.8 C 9.07 g/m*3 12.8 C 0 km/h
992 04-10-2011 06:27:06 13.5 C 8.77 g/m*3 13.5 C 0 km/h
993 04-10-2011 06:39:06 13.5 C 8.66 g/m*3 13.5 C 0 km/h
994 04-10-2011 06:51:06 13.5 C 8.54 g/m*3 13.5 C 0 km/h
995 04-10-2011 07:03:06 13.4 C 8.6 g/m*3 13.4 C 0 km/h
996 04-10-2011 07:15:07 13.5 C 8.66 g/m*3 13.5 C 0 km/h
997 04-10-2011 07:27:07 13.2 C 8.38 g/m*3 13.2 C 0 km/h
998 04-10-2011 07:39:07 13.3 C 8.43 g/m*3 13.3 C 0 km/h
999 04-10-2011 07:51:07 13.3 C 8.43 g/m*3 13.3 C 0 km/h
1000 04-10-2011 08:03:07 13.4 C 8.49 g/m*3 13.4 C 0 km/h
Sensor: Nr:Datum:Temp:Abs-Feuchte:Windchill:Wind:
Aussen-T/F 1001 04-10-2011 08:15:03 13.3 C 8.55 g/m*3 13.3 C 0 km/h
1002 04-10-2011 08:27:03 13.3 C 8.55 g/m*3 13.3 C 0 km/h
1003 04-10-2011 08:39:03 13.7 C 8.76 g/m*3 13.7 C 0 km/h
1004 04-10-2011 08:51:01 13.8 C 8.58 g/m*3 13.8 C 0 km/h
1005 04-10-2011 09:03:01 14.4 C 8.65 g/m*3 14.4 C 0 km/h
1006 04-10-2011 09:15:01 14.7 C 8.69 g/m*3 14.7 C 0 km/h
1007 04-10-2011 09:27:01 14.6 C 8.63 g/m*3 14.6 C 0 km/h
1008 04-10-2011 09:39:02 15.1 C 8.64 g/m*3 15.1 C 0 km/h
1009 04-10-2011 09:51:02 15.4 C 8.54 g/m*3 15.4 C 0 km/h
1010 04-10-2011 10:03:02 15.7 C 8.56 g/m*3 15.7 C 0 km/h
1011 04-10-2011 10:15:02 15.8 C 8.62 g/m*3 15.8 C 0 km/h
1012 04-10-2011 10:27:02 15.9 C 8.94 g/m*3 15.9 C 0 km/h
1013 04-10-2011 10:39:02 16.4 C 8.65 g/m*3 16.4 C 0 km/h
1014 04-10-2011 10:51:02 17.4 C 8.3 g/m*3 17.4 C 0 km/h
1015 04-10-2011 11:03:02 18.2 C 8.08 g/m*3 18.2 C 0 km/h
1016 04-10-2011 11:15:02 18.7 C 8.01 g/m*3 18.7 C 0 km/h
1017 04-10-2011 11:27:02 19.1 C 7.87 g/m*3 19.1 C 0 km/h
1018 04-10-2011 11:39:02 19.6 C 7.93 g/m*3 19.6 C 0 km/h
1019 04-10-2011 11:51:01 19.5 C 7.89 g/m*3 19.5 C 0 km/h
1020 04-10-2011 12:03:01 19.8 C 8.03 g/m*3 19.8 C 0 km/h
1021 04-10-2011 12:15:02 19.7 C 8.66 g/m*3 19.7 C 0 km/h
1022 04-10-2011 12:27:02 20.2 C 8.57 g/m*3 20.2 C 0 km/h
1023 04-10-2011 12:39:01 20.8 C 8.33 g/m*3 20.8 C 0 km/h
1024 04-10-2011 12:51:02 20.6 C 8.59 g/m*3 20.6 C 0 km/h
1025 04-10-2011 13:03:02 21.1 C 8.29 g/m*3 21.1 C 0 km/h
Sensor: Nr:Datum:Temp:Abs-Feuchte:Windchill:Wind:
Aussen-T/F 1026 04-10-2011 13:15:02 20.9 C 8.74 g/m*3 20.9 C 0 km/h
1027 04-10-2011 13:27:02 21.8 C 8.25 g/m*3 21.8 C 0 km/h
1028 04-10-2011 13:39:02 23 C 8.84 g/m*3 23 C 0 km/h
1029 04-10-2011 13:51:02 22.5 C 7.99 g/m*3 22.5 C 0 km/h
1030 04-10-2011 14:03:02 22.5 C 8.19 g/m*3 22.5 C 0 km/h
1031 04-10-2011 14:15:02 22.5 C 8.19 g/m*3 22.5 C 0 km/h
1032 04-10-2011 14:27:02 22.5 C 8.39 g/m*3 22.5 C 0 km/h
1033 04-10-2011 14:39:01 23.2 C 8.11 g/m*3 23.2 C 0 km/h
1034 04-10-2011 14:51:02 23.5 C 8.04 g/m*3 23.5 C 0 km/h
1035 04-10-2011 15:03:01 23.1 C 8.48 g/m*3 23.1 C 0 km/h
1036 04-10-2011 15:15:01 23.4 C 8.2 g/m*3 23.4 C 0 km/h
1037 04-10-2011 15:27:01 23.6 C 8.29 g/m*3 23.6 C 0 km/h
1038 04-10-2011 15:39:02 23.5 C 8.25 g/m*3 23.5 C 0 km/h
1039 04-10-2011 15:51:02 23.1 C 8.48 g/m*3 23.1 C 0 km/h
1040 04-10-2011 16:03:02 23.3 C 8.57 g/m*3 23.3 C 0 km/h
1041 04-10-2011 16:15:02 23.9 C 8.65 g/m*3 23.9 C 0 km/h
1042 04-10-2011 16:27:02 25 C 8.06 g/m*3 25 C 0 km/h
1043 04-10-2011 16:39:02 26 C 8.03 g/m*3 26 C 0 km/h
1044 04-10-2011 16:51:02 22.8 C 8.53 g/m*3 22.8 C 0 km/h
1045 04-10-2011 17:03:02 22.2 C 8.64 g/m*3 22.2 C 0 km/h
1046 04-10-2011 17:15:02 21.6 C 8.53 g/m*3 21.6 C 0 km/h
1047 04-10-2011 17:27:02 24 C 8.27 g/m*3 24 C 0 km/h
1048 04-10-2011 17:39:02 23.7 C 8.34 g/m*3 23.7 C 0 km/h
1049 04-10-2011 17:51:02 23 C 8.22 g/m*3 23 C 0 km/h
1050 04-10-2011 18:03:02 22.2 C 8.44 g/m*3 22.2 C 0 km/h
Sensor: Nr:Datum:Temp:Abs-Feuchte:Windchill:Wind:
Aussen-T/F 1051 04-10-2011 18:15:02 21.5 C 8.3 g/m*3 21.5 C 0 km/h
1052 04-10-2011 18:27:02 19.8 C 8.54 g/m*3 19.8 C 0 km/h
1053 04-10-2011 18:39:02 19.2 C 8.74 g/m*3 19.2 C 0 km/h
1054 04-10-2011 18:51:02 19.3 C 8.79 g/m*3 19.3 C 0 km/h
1055 04-10-2011 19:03:02 19.3 C 8.79 g/m*3 19.3 C 0 km/h
1056 04-10-2011 19:15:02 19.1 C 9.02 g/m*3 19.1 C 0 km/h
1057 04-10-2011 19:27:03 19.3 C 8.96 g/m*3 19.3 C 0 km/h
1058 04-10-2011 19:39:01 19.1 C 8.69 g/m*3 19.1 C 0 km/h
1059 04-10-2011 19:51:02 18.2 C 8.86 g/m*3 18.2 C 0 km/h
1060 04-10-2011 20:03:01 17.9 C 9.16 g/m*3 17.9 C 0 km/h
1061 04-10-2011 20:15:02 18.5 C 9.02 g/m*3 18.5 C 0 km/h
1062 04-10-2011 20:27:02 18.5 C 8.86 g/m*3 18.5 C 0 km/h
1063 04-10-2011 20:39:02 18.3 C 9.07 g/m*3 18.3 C 0 km/h
1064 04-10-2011 20:51:03 18.4 C 8.97 g/m*3 18.4 C 0 km/h
1065 04-10-2011 21:03:09 18.6 C 8.75 g/m*3 18.6 C 0 km/h
1066 04-10-2011 21:16:03 18.2 C 8.86 g/m*3 18.2 C 0 km/h
1067 04-10-2011 21:28:03 18.2 C 8.86 g/m*3 18.2 C 0 km/h
1068 04-10-2011 21:40:03 18.2 C 8.86 g/m*3 18.2 C 0 km/h
1069 04-10-2011 21:52:03 18.2 C 8.86 g/m*3 18.2 C 0 km/h
1070 04-10-2011 22:04:03 18.1 C 9.12 g/m*3 18.1 C 0 km/h
1071 04-10-2011 22:16:03 18 C 9.22 g/m*3 18 C 0 km/h
1072 04-10-2011 22:28:03 17.5 C 9.39 g/m*3 17.5 C 0 km/h
1073 04-10-2011 22:40:03 16.8 C 9.58 g/m*3 16.8 C 0 km/h
1074 04-10-2011 22:52:03 16.9 C 9.92 g/m*3 16.9 C 0 km/h
1075 04-10-2011 23:04:03 17 C 9.69 g/m*3 17 C 0 km/h
Sensor: Nr:Datum:Temp:Abs-Feuchte:Windchill:Wind:
Aussen-T/F 1076 04-10-2011 23:16:03 17.1 C 9.61 g/m*3 17.1 C 0 km/h
1077 04-10-2011 23:28:03 17 C 9.69 g/m*3 17 C 0 km/h
1078 04-10-2011 23:40:03 16.9 C 9.64 g/m*3 16.9 C 0 km/h
1079 04-10-2011 23:52:03 16.8 C 9.58 g/m*3 16.8 C 0 km/h
1080 05-10-2011 00:04:03 16.8 C 9.72 g/m*3 16.8 C 0 km/h
1081 05-10-2011 00:16:03 16.8 C 9.58 g/m*3 16.8 C 0 km/h
1082 05-10-2011 00:28:03 16.8 C 9.58 g/m*3 16.8 C 0 km/h
1083 05-10-2011 00:40:04 16.8 C 9.58 g/m*3 16.8 C 0 km/h
1084 05-10-2011 00:52:04 17 C 9.55 g/m*3 17 C 0 km/h
1085 05-10-2011 01:04:04 17.4 C 9.48 g/m*3 17.4 C 0 km/h
1086 05-10-2011 01:16:04 17.5 C 9.39 g/m*3 17.5 C 0 km/h
1087 05-10-2011 01:28:04 17.5 C 9.54 g/m*3 17.5 C 0 km/h
1088 05-10-2011 01:40:04 17.5 C 9.39 g/m*3 17.5 C 0 km/h
1089 05-10-2011 01:52:04 17.5 C 9.54 g/m*3 17.5 C 0 km/h
1090 05-10-2011 02:04:04 17.7 C 9.66 g/m*3 17.7 C 0 km/h
1091 05-10-2011 02:16:04 17.7 C 9.51 g/m*3 17.7 C 0 km/h
1092 05-10-2011 02:28:04 17.5 C 9.54 g/m*3 17.5 C 0 km/h
1093 05-10-2011 02:40:04 17.5 C 9.69 g/m*3 17.5 C 0 km/h
1094 05-10-2011 02:52:04 17.5 C 9.84 g/m*3 17.5 C 0 km/h
1095 05-10-2011 03:04:04 17.5 C 9.69 g/m*3 17.5 C 0 km/h
1096 05-10-2011 03:16:04 17.5 C 9.84 g/m*3 17.5 C 0 km/h
1097 05-10-2011 03:28:04 17.4 C 9.78 g/m*3 17.4 C 0 km/h
1098 05-10-2011 03:40:04 17.4 C 9.78 g/m*3 17.4 C 0 km/h
1099 05-10-2011 03:52:04 17.4 C 9.93 g/m*3 17.4 C 0 km/h
1100 05-10-2011 04:04:04 17.4 C 9.78 g/m*3 17.4 C 0 km/h
Sensor: Nr:Datum:Temp:Abs-Feuchte:Windchill:Wind:
Aussen-T/F 1101 05-10-2011 04:16:04 17.6 C 9.6 g/m*3 17.6 C 0 km/h
1102 05-10-2011 04:28:04 18 C 9.06 g/m*3 18 C 0 km/h
1103 05-10-2011 04:40:04 17.8 C 9.41 g/m*3 17.8 C 0 km/h
1104 05-10-2011 04:52:05 17.7 C 9.51 g/m*3 17.7 C 0 km/h
1105 05-10-2011 05:04:05 17.7 C 9.51 g/m*3 17.7 C 0 km/h
1106 05-10-2011 05:16:05 17.4 C 9.48 g/m*3 17.4 C 0 km/h
1107 05-10-2011 05:28:05 17.3 C 9.58 g/m*3 17.3 C 0 km/h
1108 05-10-2011 05:40:05 17.2 C 9.67 g/m*3 17.2 C 0 km/h
1109 05-10-2011 05:52:05 17.2 C 9.67 g/m*3 17.2 C 0 km/h
1110 05-10-2011 06:04:05 17.2 C 9.81 g/m*3 17.2 C 0 km/h
1111 05-10-2011 06:16:05 17.2 C 9.67 g/m*3 17.2 C 0 km/h
1112 05-10-2011 06:28:05 17.2 C 9.67 g/m*3 17.2 C 0 km/h
1113 05-10-2011 06:40:05 17.2 C 9.67 g/m*3 17.2 C 0 km/h
1114 05-10-2011 06:52:05 17.1 C 9.61 g/m*3 17.1 C 0 km/h
1115 05-10-2011 07:04:05 17 C 9.69 g/m*3 17 C 0 km/h
1116 05-10-2011 07:16:05 16.7 C 9.95 g/m*3 16.7 C 0 km/h
1117 05-10-2011 07:28:05 16.5 C 9.97 g/m*3 16.5 C 0 km/h
1118 05-10-2011 07:40:03 16.7 C 9.95 g/m*3 16.7 C 0 km/h
1119 05-10-2011 07:52:02 16.6 C 9.89 g/m*3 16.6 C 0 km/h
1120 05-10-2011 08:04:03 16.8 C 10.01 g/m*3 16.8 C 0 km/h
1121 05-10-2011 08:16:02 16.9 C 10.07 g/m*3 16.9 C 0 km/h
1122 05-10-2011 08:28:02 16.9 C 9.92 g/m*3 16.9 C 0 km/h
1123 05-10-2011 08:40:02 17.1 C 9.75 g/m*3 17.1 C 0 km/h
1124 05-10-2011 08:52:01 17.2 C 9.67 g/m*3 17.2 C 0 km/h
1125 05-10-2011 09:04:01 17.3 C 9.72 g/m*3 17.3 C 0 km/h
Sensor: Nr:Datum:Temp:Abs-Feuchte:Windchill:Wind:
Aussen-T/F 1126 05-10-2011 09:16:02 17.5 C 9.69 g/m*3 17.5 C 0 km/h
1127 05-10-2011 09:28:02 17.4 C 9.78 g/m*3 17.4 C 0 km/h
1128 05-10-2011 09:40:01 16.1 C 10.01 g/m*3 16.1 C 0 km/h
1129 05-10-2011 09:52:02 15.9 C 10.43 g/m*3 15.9 C 0 km/h
1130 05-10-2011 10:04:02 16.2 C 10.62 g/m*3 16.2 C 0 km/h
1131 05-10-2011 10:16:02 16.9 C 10.5 g/m*3 16.9 C 0 km/h
1132 05-10-2011 10:28:02 17.2 C 10.4 g/m*3 17.2 C 0 km/h
1133 05-10-2011 10:40:02 17.5 C 10.29 g/m*3 17.5 C 0 km/h
1134 05-10-2011 10:52:02 17.9 C 9.92 g/m*3 17.9 C 0 km/h
1135 05-10-2011 11:04:01 17.9 C 9.92 g/m*3 17.9 C 0 km/h
1136 05-10-2011 11:16:02 18.3 C 9.85 g/m*3 18.3 C 0 km/h
1137 05-10-2011 11:28:02 18.5 C 9.81 g/m*3 18.5 C 0 km/h
1138 05-10-2011 11:40:02 18.5 C 9.49 g/m*3 18.5 C 0 km/h
1139 05-10-2011 11:52:02 18.5 C 9.65 g/m*3 18.5 C 0 km/h
1140 05-10-2011 12:04:02 18.8 C 9.34 g/m*3 18.8 C 0 km/h
1141 05-10-2011 12:16:02 19.3 C 8.96 g/m*3 19.3 C 0 km/h
1142 05-10-2011 12:28:02 20.1 C 9.04 g/m*3 20.1 C 0 km/h
1143 05-10-2011 12:40:02 20.6 C 8.95 g/m*3 20.6 C 0 km/h
1144 05-10-2011 12:52:01 19.8 C 8.71 g/m*3 19.8 C 0 km/h
1145 05-10-2011 13:04:02 19.5 C 8.56 g/m*3 19.5 C 0 km/h
1146 05-10-2011 13:16:01 19.5 C 8.39 g/m*3 19.5 C 0 km/h
1147 05-10-2011 13:28:01 19.8 C 8.03 g/m*3 19.8 C 0 km/h
1148 05-10-2011 13:40:01 20.1 C 7.65 g/m*3 20.1 C 0 km/h
1149 05-10-2011 13:52:01 20.4 C 7.78 g/m*3 20.4 C 0 km/h
1150 05-10-2011 14:04:01 20.3 C 7.56 g/m*3 20.3 C 0 km/h
Sensor: Nr:Datum:Temp:Abs-Feuchte:Windchill:Wind:
Aussen-T/F 1151 05-10-2011 14:16:02 20.5 C 7.65 g/m*3 20.5 C 0 km/h
1152 05-10-2011 14:28:02 20.6 C 7.7 g/m*3 20.6 C 0 km/h
1153 05-10-2011 14:40:01 20.5 C 7.65 g/m*3 20.5 C 0 km/h
1154 05-10-2011 14:52:03 20.4 C 7.78 g/m*3 20.4 C 0 km/h
1155 05-10-2011 15:04:02 20.8 C 7.97 g/m*3 20.8 C 0 km/h
1156 05-10-2011 15:16:02 21 C 7.69 g/m*3 21 C 0 km/h
1157 05-10-2011 15:28:02 20.7 C 7.74 g/m*3 20.7 C 0 km/h
1158 05-10-2011 15:40:02 21.1 C 7.92 g/m*3 21.1 C 0 km/h
1159 05-10-2011 15:52:02 20.7 C 7.92 g/m*3 20.7 C 0 km/h
1160 05-10-2011 16:04:02 20.8 C 7.79 g/m*3 20.8 C 0 km/h
1161 05-10-2011 16:16:02 21.1 C 7.74 g/m*3 21.1 C 0 km/h
1162 05-10-2011 16:28:02 22 C 7.96 g/m*3 22 C 0 km/h
1163 05-10-2011 16:40:02 20.9 C 7.65 g/m*3 20.9 C 0 km/h
1164 05-10-2011 16:52:01 20.4 C 7.61 g/m*3 20.4 C 0 km/h
1165 05-10-2011 17:04:02 20.3 C 7.74 g/m*3 20.3 C 0 km/h
1166 05-10-2011 17:16:01 20.4 C 7.61 g/m*3 20.4 C 0 km/h
1167 05-10-2011 17:28:01 20.2 C 7.69 g/m*3 20.2 C 0 km/h
1168 05-10-2011 17:40:02 20 C 7.78 g/m*3 20 C 0 km/h
1169 05-10-2011 17:52:02 19.9 C 7.9 g/m*3 19.9 C 0 km/h
1170 05-10-2011 18:04:02 19.7 C 7.98 g/m*3 19.7 C 0 km/h
1171 05-10-2011 18:16:01 19.6 C 7.93 g/m*3 19.6 C 0 km/h
1172 05-10-2011 18:28:01 19.4 C 8.01 g/m*3 19.4 C 0 km/h
1173 05-10-2011 18:40:02 19.2 C 8.08 g/m*3 19.2 C 0 km/h
1174 05-10-2011 18:52:01 19 C 7.99 g/m*3 19 C 0 km/h
1175 05-10-2011 19:04:02 18.9 C 8.26 g/m*3 18.9 C 0 km/h
Sensor: Nr:Datum:Temp:Abs-Feuchte:Windchill:Wind:
Aussen-T/F 1176 05-10-2011 19:16:02 18.6 C 8.28 g/m*3 18.6 C 0 km/h
1177 05-10-2011 19:28:02 18.5 C 8.23 g/m*3 18.5 C 0 km/h
1178 05-10-2011 19:40:02 18.4 C 8.18 g/m*3 18.4 C 0 km/h
1179 05-10-2011 19:52:01 18.4 C 8.18 g/m*3 18.4 C 0 km/h
1180 05-10-2011 20:04:02 18.4 C 8.34 g/m*3 18.4 C 0 km/h
1181 05-10-2011 20:16:02 18 C 8.29 g/m*3 18 C 0 km/h
1182 05-10-2011 20:28:02 17.6 C 8.4 g/m*3 17.6 C 0 km/h
1183 05-10-2011 20:40:01 17.2 C 8.64 g/m*3 17.2 C 0 km/h
1184 05-10-2011 20:52:02 16.7 C 8.53 g/m*3 16.7 C 0 km/h
1185 05-10-2011 21:04:01 16.3 C 8.74 g/m*3 16.3 C 0 km/h
1186 05-10-2011 21:17:01 15.8 C 8.75 g/m*3 15.8 C 0 km/h
1187 05-10-2011 21:29:01 15.7 C 8.83 g/m*3 15.7 C 0 km/h
1188 05-10-2011 21:41:01 16 C 8.86 g/m*3 16 C 0 km/h
1189 05-10-2011 21:53:01 16.1 C 8.91 g/m*3 16.1 C 0 km/h
1190 05-10-2011 22:05:02 15.3 C 8.75 g/m*3 15.3 C 0 km/h
1191 05-10-2011 22:17:02 15 C 8.85 g/m*3 15 C 0 km/h
1192 05-10-2011 22:29:02 15 C 8.72 g/m*3 15 C 0 km/h
1193 05-10-2011 22:41:02 14.7 C 8.94 g/m*3 14.7 C 0 km/h
1194 05-10-2011 22:53:02 14.8 C 8.99 g/m*3 14.8 C 0 km/h
1195 05-10-2011 23:05:02 14.7 C 9.07 g/m*3 14.7 C 0 km/h
1196 05-10-2011 23:17:02 14.8 C 9.12 g/m*3 14.8 C 0 km/h
1197 05-10-2011 23:29:02 14.5 C 8.95 g/m*3 14.5 C 0 km/h
1198 05-10-2011 23:41:02 14.5 C 9.08 g/m*3 14.5 C 0 km/h
1199 05-10-2011 23:53:02 14.4 C 8.9 g/m*3 14.4 C 0 km/h
1200 06-10-2011 00:05:02 13.9 C 8.87 g/m*3 13.9 C 0 km/h
Sensor: Nr:Datum:Temp:Abs-Feuchte:Windchill:Wind:
Aussen-T/F 1201 06-10-2011 00:17:02 13.1 C 8.67 g/m*3 13.1 C 0 km/h
1202 06-10-2011 00:29:02 12.8 C 8.96 g/m*3 12.8 C 0 km/h
1203 06-10-2011 00:41:02 12.8 C 9.07 g/m*3 12.8 C 0 km/h
1204 06-10-2011 00:53:02 12.5 C 8.91 g/m*3 12.5 C 0 km/h
1205 06-10-2011 01:05:02 12.4 C 9.07 g/m*3 12.4 C 0 km/h
1206 06-10-2011 01:17:02 13 C 9.41 g/m*3 13 C 0 km/h
1207 06-10-2011 01:29:02 12.9 C 9.47 g/m*3 12.9 C 0 km/h
1208 06-10-2011 01:41:02 13 C 9.41 g/m*3 13 C 0 km/h
1209 06-10-2011 01:53:02 13.2 C 9.64 g/m*3 13.2 C 0 km/h
1210 06-10-2011 02:05:03 13.7 C 9.83 g/m*3 13.7 C 0 km/h
1211 06-10-2011 02:17:03 13.9 C 9.59 g/m*3 13.9 C 0 km/h
1212 06-10-2011 02:29:03 14 C 9.41 g/m*3 14 C 0 km/h
1213 06-10-2011 02:41:03 14.3 C 9.21 g/m*3 14.3 C 0 km/h
1214 06-10-2011 02:53:03 14 C 9.17 g/m*3 14 C 0 km/h
1215 06-10-2011 03:05:03 14.1 C 9.22 g/m*3 14.1 C 0 km/h
1216 06-10-2011 03:17:03 14.5 C 8.58 g/m*3 14.5 C 0 km/h
1217 06-10-2011 03:29:03 14.4 C 8.53 g/m*3 14.4 C 0 km/h
1218 06-10-2011 03:41:03 14.3 C 8.23 g/m*3 14.3 C 0 km/h
1219 06-10-2011 03:53:03 14.4 C 8.41 g/m*3 14.4 C 0 km/h
1220 06-10-2011 04:05:03 14.1 C 8.25 g/m*3 14.1 C 0 km/h
1221 06-10-2011 04:17:03 14 C 8.56 g/m*3 14 C 0 km/h
1222 06-10-2011 04:29:03 13.7 C 8.53 g/m*3 13.7 C 0 km/h
1223 06-10-2011 04:41:03 14.3 C 8.48 g/m*3 14.3 C 0 km/h
1224 06-10-2011 04:53:03 14.5 C 8.33 g/m*3 14.5 C 0 km/h
1225 06-10-2011 05:05:03 15.3 C 8.23 g/m*3 15.3 C 0 km/h
Sensor: Nr:Datum:Temp:Abs-Feuchte:Windchill:Wind:
Aussen-T/F 1226 06-10-2011 05:17:03 15 C 7.95 g/m*3 15 C 0 km/h
1227 06-10-2011 05:29:03 15.4 C 8.15 g/m*3 15.4 C 0 km/h
1228 06-10-2011 05:41:03 15.5 C 8.2 g/m*3 15.5 C 0 km/h
1229 06-10-2011 05:53:03 15.5 C 8.06 g/m*3 15.5 C 0 km/h
1230 06-10-2011 06:05:02 15.6 C 8.11 g/m*3 15.6 C 0 km/h
1231 06-10-2011 06:17:01 15.8 C 8.08 g/m*3 15.8 C 0 km/h
1232 06-10-2011 06:29:01 16.4 C 7.96 g/m*3 16.4 C 0 km/h
1233 06-10-2011 06:41:01 16.4 C 7.96 g/m*3 16.4 C 0 km/h
1234 06-10-2011 06:53:02 17 C 7.96 g/m*3 17 C 0 km/h
1235 06-10-2011 07:05:02 16.8 C 8.01 g/m*3 16.8 C 0 km/h
1236 06-10-2011 07:17:01 16.8 C 8.01 g/m*3 16.8 C 0 km/h
1237 06-10-2011 07:29:01 17 C 7.81 g/m*3 17 C 0 km/h
1238 06-10-2011 07:41:02 17 C 7.81 g/m*3 17 C 0 km/h
1239 06-10-2011 07:53:02 16.9 C 7.91 g/m*3 16.9 C 0 km/h
1240 06-10-2011 08:05:02 16.8 C 8.01 g/m*3 16.8 C 0 km/h
1241 06-10-2011 08:17:02 16.9 C 8.05 g/m*3 16.9 C 0 km/h
1242 06-10-2011 08:29:02 16.8 C 8.01 g/m*3 16.8 C 0 km/h
1243 06-10-2011 08:41:02 16.8 C 8.01 g/m*3 16.8 C 0 km/h
1244 06-10-2011 08:53:02 16.8 C 8.01 g/m*3 16.8 C 0 km/h
1245 06-10-2011 09:05:02 16.8 C 8.15 g/m*3 16.8 C 0 km/h
1246 06-10-2011 09:17:02 16.9 C 8.2 g/m*3 16.9 C 0 km/h
1247 06-10-2011 09:29:02 17 C 7.96 g/m*3 17 C 0 km/h
1248 06-10-2011 09:41:02 17.4 C 8.15 g/m*3 17.4 C 0 km/h
1249 06-10-2011 09:53:02 17.5 C 8.05 g/m*3 17.5 C 0 km/h
1250 06-10-2011 10:05:02 17.7 C 8.15 g/m*3 17.7 C 0 km/h
Sensor: Nr:Datum:Temp:Abs-Feuchte:Windchill:Wind:
Aussen-T/F 1251 06-10-2011 10:17:03 17.9 C 8.09 g/m*3 17.9 C 0 km/h
1252 06-10-2011 10:29:03 17.9 C 8.09 g/m*3 17.9 C 0 km/h
1253 06-10-2011 10:41:02 17.9 C 8.09 g/m*3 17.9 C 0 km/h
1254 06-10-2011 10:53:01 18 C 7.99 g/m*3 18 C 0 km/h
1255 06-10-2011 11:05:01 18.4 C 8.02 g/m*3 18.4 C 0 km/h
1256 06-10-2011 11:17:02 18.3 C 7.97 g/m*3 18.3 C 0 km/h
1257 06-10-2011 11:29:02 18.5 C 8.07 g/m*3 18.5 C 0 km/h
1258 06-10-2011 11:41:01 18.5 C 8.07 g/m*3 18.5 C 0 km/h
1259 06-10-2011 11:53:02 18.7 C 8.17 g/m*3 18.7 C 0 km/h
1260 06-10-2011 12:05:01 19 C 8.15 g/m*3 19 C 0 km/h
1261 06-10-2011 12:17:01 19.5 C 8.22 g/m*3 19.5 C 0 km/h
1262 06-10-2011 12:29:01 19.8 C 8.2 g/m*3 19.8 C 0 km/h
1263 06-10-2011 12:41:02 19.8 C 8.37 g/m*3 19.8 C 0 km/h
1264 06-10-2011 12:53:02 19.3 C 8.13 g/m*3 19.3 C 0 km/h
1265 06-10-2011 13:05:02 18.8 C 8.37 g/m*3 18.8 C 0 km/h
1266 06-10-2011 13:17:02 19 C 8.47 g/m*3 19 C 0 km/h
1267 06-10-2011 13:29:02 19.1 C 8.52 g/m*3 19.1 C 0 km/h
1268 06-10-2011 13:41:02 18.5 C 8.7 g/m*3 18.5 C 0 km/h
1269 06-10-2011 13:53:02 18.3 C 8.91 g/m*3 18.3 C 0 km/h
1270 06-10-2011 14:05:02 17.6 C 9.15 g/m*3 17.6 C 0 km/h
1271 06-10-2011 14:17:02 18.4 C 9.12 g/m*3 18.4 C 0 km/h
1272 06-10-2011 14:29:02 18.1 C 9.12 g/m*3 18.1 C 0 km/h
1273 06-10-2011 14:41:01 17.6 C 9.3 g/m*3 17.6 C 0 km/h
1274 06-10-2011 14:53:02 16.9 C 9.78 g/m*3 16.9 C 0 km/h
1275 06-10-2011 15:05:01 17.1 C 9.9 g/m*3 17.1 C 0 km/h
Sensor: Nr:Datum:Temp:Abs-Feuchte:Windchill:Wind:
Aussen-T/F 1276 06-10-2011 15:17:02 17.3 C 9.72 g/m*3 17.3 C 0 km/h
1277 06-10-2011 15:29:02 17 C 9.84 g/m*3 17 C 0 km/h
1278 06-10-2011 15:41:03 14.3 C 9.09 g/m*3 14.3 C 0 km/h
1279 06-10-2011 15:53:02 13 C 8.96 g/m*3 13 C 0 km/h
1280 06-10-2011 16:05:02 12.5 C 8.47 g/m*3 12.5 C 0 km/h
1281 06-10-2011 16:17:02 11.7 C 8.26 g/m*3 11.7 C 0 km/h
1282 06-10-2011 16:29:02 11.4 C 8.31 g/m*3 11.4 C 0 km/h
1283 06-10-2011 16:41:02 11.4 C 8.52 g/m*3 11.4 C 0 km/h
1284 06-10-2011 16:53:01 11.2 C 8.41 g/m*3 11.2 C 0 km/h
1285 06-10-2011 17:05:01 11 C 8.31 g/m*3 11 C 0 km/h
1286 06-10-2011 17:17:01 10.9 C 8.36 g/m*3 10.9 C 0 km/h
1287 06-10-2011 17:29:01 10.8 C 8.3 g/m*3 10.8 C 0 km/h
1288 06-10-2011 17:41:01 10.8 C 8.3 g/m*3 10.8 C 0 km/h
1289 06-10-2011 17:53:02 10.8 C 8.3 g/m*3 10.8 C 0 km/h
1290 06-10-2011 18:05:02 10.9 C 8.36 g/m*3 10.9 C 0 km/h
1291 06-10-2011 18:17:03 10.9 C 8.26 g/m*3 10.9 C 0 km/h
1292 06-10-2011 18:29:03 10.9 C 8.26 g/m*3 10.9 C 0 km/h
1293 06-10-2011 18:41:02 10.8 C 8.2 g/m*3 10.8 C 0 km/h
1294 06-10-2011 18:53:02 10.7 C 8.15 g/m*3 10.7 C 0 km/h
1295 06-10-2011 19:05:01 10.6 C 8.2 g/m*3 10.6 C 0 km/h
1296 06-10-2011 19:17:02 10.5 C 8.24 g/m*3 10.5 C 0 km/h
1297 06-10-2011 19:29:03 10.4 C 8.19 g/m*3 10.4 C 0 km/h
1298 06-10-2011 19:41:01 10.4 C 8.29 g/m*3 10.4 C 0 km/h
1299 06-10-2011 19:53:02 10.5 C 8.34 g/m*3 10.5 C 0 km/h
1300 06-10-2011 20:05:02 10.7 C 8.45 g/m*3 10.7 C 0 km/h
Sensor: Nr:Datum:Temp:Abs-Feuchte:Windchill:Wind:
Aussen-T/F 1301 06-10-2011 20:17:02 10.6 C 8.1 g/m*3 10.6 C 0 km/h
1302 06-10-2011 20:29:02 10.4 C 7.9 g/m*3 10.4 C 0 km/h
1303 06-10-2011 20:41:03 10.2 C 7.52 g/m*3 10.2 C 0 km/h
1304 06-10-2011 20:53:02 9.8 C 7.52 g/m*3 9.8 C 0 km/h
1305 06-10-2011 21:05:02 9.5 C 7.55 g/m*3 9.5 C 0 km/h
1306 06-10-2011 21:17:02 9.2 C 7.5 g/m*3 9.2 C 0 km/h
1307 06-10-2011 21:29:02 9 C 7.49 g/m*3 9 C 0 km/h
1308 06-10-2011 21:41:02 9 C 7.49 g/m*3 9 C 0 km/h
1309 06-10-2011 21:53:02 9 C 7.58 g/m*3 9 C 0 km/h
1310 06-10-2011 22:05:02 9.1 C 7.63 g/m*3 9.1 C 0 km/h
1311 06-10-2011 22:17:02 9.6 C 7.69 g/m*3 9.6 C 0 km/h
1312 06-10-2011 22:29:02 9.2 C 7.32 g/m*3 9.2 C 0 km/h
1313 06-10-2011 22:41:02 8.8 C 7.31 g/m*3 8.8 C 0 km/h
1314 06-10-2011 22:53:01 8.6 C 7.22 g/m*3 8.6 C 0 km/h
1315 06-10-2011 23:05:02 8.5 C 7.26 g/m*3 8.5 C 0 km/h
1316 06-10-2011 23:17:01 8.9 C 7.36 g/m*3 8.9 C 0 km/h
1317 06-10-2011 23:29:01 9.2 C 6.88 g/m*3 9.2 C 0 km/h
1318 06-10-2011 23:41:01 9.3 C 6.2 g/m*3 9.3 C 0 km/h
1319 06-10-2011 23:53:01 9.2 C 5.98 g/m*3 9.2 C 0 km/h
1320 07-10-2011 00:05:02 8.5 C 6.23 g/m*3 8.5 C 0 km/h
1321 07-10-2011 00:17:01 8.3 C 6.24 g/m*3 8.3 C 0 km/h
1322 07-10-2011 00:29:01 8.4 C 6.28 g/m*3 8.4 C 0 km/h
1323 07-10-2011 00:41:02 8.3 C 6.24 g/m*3 8.3 C 0 km/h
1324 07-10-2011 00:53:02 8.5 C 6.23 g/m*3 8.5 C 0 km/h
1325 07-10-2011 01:05:02 7.5 C 6.24 g/m*3 7.5 C 0 km/h
Sensor: Nr:Datum:Temp:Abs-Feuchte:Windchill:Wind:
Aussen-T/F 1326 07-10-2011 01:17:02 7.5 C 6.4 g/m*3 7.5 C 0 km/h
1327 07-10-2011 01:29:02 8 C 6.45 g/m*3 8 C 0 km/h
1328 07-10-2011 01:41:02 8.9 C 6.48 g/m*3 8.9 C 0 km/h
1329 07-10-2011 01:53:01 9.1 C 6.21 g/m*3 9.1 C 0 km/h
1330 07-10-2011 02:05:01 8.3 C 6.15 g/m*3 8.3 C 0 km/h
1331 07-10-2011 02:17:01 8.3 C 6.32 g/m*3 8.3 C 0 km/h
1332 07-10-2011 02:29:01 8.1 C 6.32 g/m*3 8.1 C 0 km/h
1333 07-10-2011 02:41:01 8.2 C 6.36 g/m*3 8.2 C 0 km/h
1334 07-10-2011 02:54:02 8.9 C 6.22 g/m*3 8.9 C 0 km/h
1335 07-10-2011 03:06:02 8.9 C 6.22 g/m*3 8.9 C 0 km/h
1336 07-10-2011 03:18:03 8.8 C 6.18 g/m*3 8.8 C 0 km/h
1337 07-10-2011 03:30:03 8.8 C 6.27 g/m*3 8.8 C 0 km/h
1338 07-10-2011 03:42:02 8.9 C 6.31 g/m*3 8.9 C 0 km/h
1339 07-10-2011 03:54:02 8.9 C 6.22 g/m*3 8.9 C 0 km/h
1340 07-10-2011 04:06:02 9 C 5.99 g/m*3 9 C 0 km/h
1341 07-10-2011 04:18:02 8.4 C 6.02 g/m*3 8.4 C 0 km/h
1342 07-10-2011 04:30:02 7.9 C 6.32 g/m*3 7.9 C 0 km/h
1343 07-10-2011 04:42:02 7.7 C 6.41 g/m*3 7.7 C 0 km/h
1344 07-10-2011 04:54:02 8 C 6.53 g/m*3 8 C 0 km/h
1345 07-10-2011 05:06:02 8.1 C 6.49 g/m*3 8.1 C 0 km/h
1346 07-10-2011 05:18:02 8.4 C 6.36 g/m*3 8.4 C 0 km/h
1347 07-10-2011 05:30:02 8.1 C 6.32 g/m*3 8.1 C 0 km/h
1348 07-10-2011 05:42:02 8.7 C 6.31 g/m*3 8.7 C 0 km/h
1349 07-10-2011 05:54:02 8.5 C 6.4 g/m*3 8.5 C 0 km/h
1350 07-10-2011 06:06:02 8.3 C 6.49 g/m*3 8.3 C 0 km/h
Sensor: Nr:Datum:Temp:Abs-Feuchte:Windchill:Wind:
Aussen-T/F 1351 07-10-2011 06:18:02 8.2 C 6.62 g/m*3 8.2 C 0 km/h
1352 07-10-2011 06:30:02 8.4 C 6.7 g/m*3 8.4 C 0 km/h
1353 07-10-2011 06:42:01 8.3 C 6.49 g/m*3 8.3 C 0 km/h
1354 07-10-2011 06:54:02 8 C 6.45 g/m*3 8 C 0 km/h
1355 07-10-2011 07:06:01 8.2 C 6.53 g/m*3 8.2 C 0 km/h
1356 07-10-2011 07:18:01 8.7 C 6.31 g/m*3 8.7 C 0 km/h
1357 07-10-2011 07:30:01 8.8 C 6.35 g/m*3 8.8 C 0 km/h
1358 07-10-2011 07:42:02 8.5 C 6.23 g/m*3 8.5 C 0 km/h
1359 07-10-2011 07:54:02 8 C 6.28 g/m*3 8 C 0 km/h
1360 07-10-2011 08:06:02 7.6 C 6.04 g/m*3 7.6 C 0 km/h
1361 07-10-2011 08:18:01 7.3 C 6 g/m*3 7.3 C 0 km/h
1362 07-10-2011 08:30:01 7.5 C 5.92 g/m*3 7.5 C 0 km/h
1363 07-10-2011 08:42:02 7.5 C 5.76 g/m*3 7.5 C 0 km/h
1364 07-10-2011 08:54:01 7.5 C 5.84 g/m*3 7.5 C 0 km/h
1365 07-10-2011 09:06:02 8.1 C 5.91 g/m*3 8.1 C 0 km/h
1366 07-10-2011 09:18:02 8.5 C 5.72 g/m*3 8.5 C 0 km/h
1367 07-10-2011 09:30:02 8.6 C 5.76 g/m*3 8.6 C 0 km/h
1368 07-10-2011 09:42:02 8.7 C 5.62 g/m*3 8.7 C 0 km/h
1369 07-10-2011 09:54:02 9.3 C 5.66 g/m*3 9.3 C 0 km/h
1370 07-10-2011 10:06:01 9.4 C 5.88 g/m*3 9.4 C 0 km/h
1371 07-10-2011 10:18:02 8.9 C 6.04 g/m*3 8.9 C 0 km/h
1372 07-10-2011 10:30:02 9.8 C 6.12 g/m*3 9.8 C 0 km/h
1373 07-10-2011 10:42:01 10 C 6.01 g/m*3 10 C 0 km/h
1374 07-10-2011 10:54:02 10.5 C 6.21 g/m*3 10.5 C 0 km/h
1375 07-10-2011 11:06:02 10.6 C 5.95 g/m*3 10.6 C 0 km/h
Sensor: Nr:Datum:Temp:Abs-Feuchte:Windchill:Wind:
Aussen-T/F 1376 07-10-2011 11:18:02 10.5 C 5.82 g/m*3 10.5 C 0 km/h
1377 07-10-2011 11:30:02 9.7 C 5.99 g/m*3 9.7 C 0 km/h
1378 07-10-2011 11:42:02 10.4 C 5.98 g/m*3 10.4 C 0 km/h
1379 07-10-2011 11:54:02 10.2 C 6.09 g/m*3 10.2 C 0 km/h
1380 07-10-2011 12:06:02 10.5 C 5.92 g/m*3 10.5 C 0 km/h
1381 07-10-2011 12:18:01 10.1 C 6.05 g/m*3 10.1 C 0 km/h
1382 07-10-2011 12:30:01 11.1 C 6.04 g/m*3 11.1 C 0 km/h
1383 07-10-2011 12:42:02 11.4 C 5.95 g/m*3 11.4 C 0 km/h
1384 07-10-2011 12:54:01 12.2 C 5.83 g/m*3 12.2 C 0 km/h
1385 07-10-2011 13:06:02 12.4 C 5.68 g/m*3 12.4 C 0 km/h
1386 07-10-2011 13:18:01 12.6 C 5.97 g/m*3 12.6 C 0 km/h
1387 07-10-2011 13:30:01 12.7 C 5.68 g/m*3 12.7 C 0 km/h
1388 07-10-2011 13:42:01 13 C 5.78 g/m*3 13 C 0 km/h
1389 07-10-2011 13:54:01 12.5 C 5.72 g/m*3 12.5 C 0 km/h
1390 07-10-2011 14:06:02 13 C 5.78 g/m*3 13 C 0 km/h
1391 07-10-2011 14:18:02 12.2 C 5.83 g/m*3 12.2 C 0 km/h
1392 07-10-2011 14:30:02 11.1 C 6.35 g/m*3 11.1 C 0 km/h
1393 07-10-2011 14:42:01 11.2 C 6.49 g/m*3 11.2 C 0 km/h
1394 07-10-2011 14:54:02 10.4 C 6.65 g/m*3 10.4 C 0 km/h
1395 07-10-2011 15:06:01 10.2 C 6.95 g/m*3 10.2 C 0 km/h
1396 07-10-2011 15:18:01 10.8 C 7.41 g/m*3 10.8 C 0 km/h
1397 07-10-2011 15:30:02 11.3 C 7.14 g/m*3 11.3 C 0 km/h
1398 07-10-2011 15:42:01 11.6 C 6.34 g/m*3 11.6 C 0 km/h
1399 07-10-2011 15:54:03 11.7 C 5.86 g/m*3 11.7 C 0 km/h
1400 07-10-2011 16:06:02 11.7 C 5.75 g/m*3 11.7 C 0 km/h
Sensor: Nr:Datum:Temp:Abs-Feuchte:Windchill:Wind:
Aussen-T/F 1401 07-10-2011 16:18:02 11.8 C 5.79 g/m*3 11.8 C 0 km/h
1402 07-10-2011 16:30:03 12.2 C 5.94 g/m*3 12.2 C 0 km/h
1403 07-10-2011 16:42:02 12.3 C 6.08 g/m*3 12.3 C 0 km/h
1404 07-10-2011 16:54:02 13.7 C 5.8 g/m*3 13.7 C 0 km/h
1405 07-10-2011 17:06:01 15.3 C 6.01 g/m*3 15.3 C 0 km/h
1406 07-10-2011 17:18:02 12.6 C 6.08 g/m*3 12.6 C 0 km/h
1407 07-10-2011 17:30:02 12.4 C 6.34 g/m*3 12.4 C 0 km/h
1408 07-10-2011 17:42:02 12 C 6.39 g/m*3 12 C 0 km/h
1409 07-10-2011 17:54:02 11.9 C 6.67 g/m*3 11.9 C 0 km/h
1410 07-10-2011 18:06:03 11.9 C 6.67 g/m*3 11.9 C 0 km/h
1411 07-10-2011 18:18:02 11.8 C 6.63 g/m*3 11.8 C 0 km/h
1412 07-10-2011 18:30:02 11.8 C 6.1 g/m*3 11.8 C 0 km/h
1413 07-10-2011 18:42:02 12 C 5.65 g/m*3 12 C 0 km/h
1414 07-10-2011 18:54:01 12 C 5.33 g/m*3 12 C 0 km/h
1415 07-10-2011 19:06:02 12 C 5.33 g/m*3 12 C 0 km/h
1416 07-10-2011 19:18:01 11.5 C 5.37 g/m*3 11.5 C 0 km/h
1417 07-10-2011 19:30:01 11.8 C 5.47 g/m*3 11.8 C 0 km/h
1418 07-10-2011 19:42:01 11.4 C 5.65 g/m*3 11.4 C 0 km/h
1419 07-10-2011 19:54:01 11.8 C 5.37 g/m*3 11.8 C 0 km/h
1420 07-10-2011 20:06:01 11.3 C 5.61 g/m*3 11.3 C 0 km/h
1421 07-10-2011 20:18:02 11.1 C 5.64 g/m*3 11.1 C 0 km/h
1422 07-10-2011 20:30:02 10.9 C 5.77 g/m*3 10.9 C 0 km/h
1423 07-10-2011 20:42:01 10.7 C 5.89 g/m*3 10.7 C 0 km/h
1424 07-10-2011 20:54:03 11.4 C 5.65 g/m*3 11.4 C 0 km/h
1425 07-10-2011 21:06:02 11 C 5.71 g/m*3 11 C 0 km/h
Sensor: Nr:Datum:Temp:Abs-Feuchte:Windchill:Wind:
Aussen-T/F 1426 07-10-2011 21:18:03 10.4 C 5.88 g/m*3 10.4 C 0 km/h
1427 07-10-2011 21:30:03 10.2 C 6.09 g/m*3 10.2 C 0 km/h
1428 07-10-2011 21:42:02 10.1 C 6.34 g/m*3 10.1 C 0 km/h
1429 07-10-2011 21:54:03 9.4 C 6.6 g/m*3 9.4 C 0 km/h
1430 07-10-2011 22:06:02 9.2 C 6.79 g/m*3 9.2 C 0 km/h
1431 07-10-2011 22:18:02 8.8 C 6.88 g/m*3 8.8 C 0 km/h
1432 07-10-2011 22:30:02 8.9 C 7.01 g/m*3 8.9 C 0 km/h
1433 07-10-2011 22:43:01 9.1 C 6.92 g/m*3 9.1 C 0 km/h
1434 07-10-2011 22:55:01 9.2 C 6.88 g/m*3 9.2 C 0 km/h
1435 07-10-2011 23:07:01 9.6 C 6.69 g/m*3 9.6 C 0 km/h
1436 07-10-2011 23:19:01 9.6 C 6.6 g/m*3 9.6 C 0 km/h
1437 07-10-2011 23:31:01 9.5 C 6.46 g/m*3 9.5 C 0 km/h
1438 07-10-2011 23:43:01 9.6 C 6.6 g/m*3 9.6 C 0 km/h
1439 07-10-2011 23:55:01 9.3 C 6.47 g/m*3 9.3 C 0 km/h
1440 08-10-2011 00:07:01 9.3 C 6.65 g/m*3 9.3 C 0 km/h
1441 08-10-2011 00:19:02 9 C 6.79 g/m*3 9 C 0 km/h
1442 08-10-2011 00:31:02 8.8 C 6.96 g/m*3 8.8 C 0 km/h
1443 08-10-2011 00:43:02 8.8 C 7.14 g/m*3 8.8 C 0 km/h
1444 08-10-2011 00:55:02 9.1 C 7.1 g/m*3 9.1 C 0 km/h
1445 08-10-2011 01:07:02 9.1 C 7.01 g/m*3 9.1 C 0 km/h
1446 08-10-2011 01:19:02 8.9 C 7.1 g/m*3 8.9 C 0 km/h
1447 08-10-2011 01:31:02 8.7 C 7.09 g/m*3 8.7 C 0 km/h
1448 08-10-2011 01:43:02 8.7 C 7.18 g/m*3 8.7 C 0 km/h
1449 08-10-2011 01:55:02 8.9 C 7.27 g/m*3 8.9 C 0 km/h
1450 08-10-2011 02:07:02 9.1 C 7.01 g/m*3 9.1 C 0 km/h
Sensor: Nr:Datum:Temp:Abs-Feuchte:Windchill:Wind:
Aussen-T/F 1451 08-10-2011 02:19:02 8.9 C 6.83 g/m*3 8.9 C 0 km/h
1452 08-10-2011 02:31:02 9 C 6.7 g/m*3 9 C 0 km/h
1453 08-10-2011 02:43:02 9 C 6.7 g/m*3 9 C 0 km/h
1454 08-10-2011 02:55:02 9 C 6.7 g/m*3 9 C 0 km/h
1455 08-10-2011 03:07:02 9.1 C 6.74 g/m*3 9.1 C 0 km/h
1456 08-10-2011 03:19:02 8.6 C 6.7 g/m*3 8.6 C 0 km/h
1457 08-10-2011 03:31:02 8.7 C 6.83 g/m*3 8.7 C 0 km/h
1458 08-10-2011 03:43:02 8.9 C 6.75 g/m*3 8.9 C 0 km/h
1459 08-10-2011 03:55:02 8.8 C 6.61 g/m*3 8.8 C 0 km/h
1460 08-10-2011 04:07:02 9 C 6.44 g/m*3 9 C 0 km/h
1461 08-10-2011 04:19:02 8.8 C 6.35 g/m*3 8.8 C 0 km/h
1462 08-10-2011 04:31:02 9.2 C 6.43 g/m*3 9.2 C 0 km/h
1463 08-10-2011 04:43:02 9 C 6.08 g/m*3 9 C 0 km/h
1464 08-10-2011 04:55:03 8.6 C 6.1 g/m*3 8.6 C 0 km/h
1465 08-10-2011 05:07:03 8.1 C 6.24 g/m*3 8.1 C 0 km/h
1466 08-10-2011 05:19:03 8.2 C 6.2 g/m*3 8.2 C 0 km/h
1467 08-10-2011 05:31:03 8.5 C 6.06 g/m*3 8.5 C 0 km/h
1468 08-10-2011 05:43:03 8.3 C 5.98 g/m*3 8.3 C 0 km/h
1469 08-10-2011 05:55:03 8.2 C 6.03 g/m*3 8.2 C 0 km/h
1470 08-10-2011 06:07:03 7.9 C 6.08 g/m*3 7.9 C 0 km/h
1471 08-10-2011 06:19:03 7.8 C 6.12 g/m*3 7.8 C 0 km/h
1472 08-10-2011 06:31:03 7.3 C 6.16 g/m*3 7.3 C 0 km/h
1473 08-10-2011 06:43:03 7.8 C 6.28 g/m*3 7.8 C 0 km/h
1474 08-10-2011 06:55:03 7.6 C 6.28 g/m*3 7.6 C 0 km/h
1475 08-10-2011 07:07:03 7.5 C 6.24 g/m*3 7.5 C 0 km/h
Sensor: Nr:Datum:Temp:Abs-Feuchte:Windchill:Wind:
Aussen-T/F 1476 08-10-2011 07:19:03 7.5 C 6.24 g/m*3 7.5 C 0 km/h
1477 08-10-2011 07:31:03 7.2 C 5.89 g/m*3 7.2 C 0 km/h
1478 08-10-2011 07:43:03 7.1 C 6.08 g/m*3 7.1 C 0 km/h
1479 08-10-2011 07:55:03 7.4 C 6.12 g/m*3 7.4 C 0 km/h
1480 08-10-2011 08:07:02 7.2 C 5.97 g/m*3 7.2 C 0 km/h
1481 08-10-2011 08:19:01 7.4 C 6.12 g/m*3 7.4 C 0 km/h
1482 08-10-2011 08:31:01 7.7 C 6.16 g/m*3 7.7 C 0 km/h
1483 08-10-2011 08:43:01 7.7 C 6.08 g/m*3 7.7 C 0 km/h
1484 08-10-2011 08:55:01 7.8 C 6.04 g/m*3 7.8 C 0 km/h
1485 08-10-2011 09:07:01 8.6 C 6.02 g/m*3 8.6 C 0 km/h
1486 08-10-2011 09:19:02 8.9 C 5.96 g/m*3 8.9 C 0 km/h
1487 08-10-2011 09:31:01 8.9 C 5.96 g/m*3 8.9 C 0 km/h
1488 08-10-2011 09:43:01 8.9 C 6.04 g/m*3 8.9 C 0 km/h
1489 08-10-2011 09:55:02 9.6 C 6.14 g/m*3 9.6 C 0 km/h
1490 08-10-2011 10:07:01 9.8 C 6.03 g/m*3 9.8 C 0 km/h
1491 08-10-2011 10:19:02 10.2 C 5.8 g/m*3 10.2 C 0 km/h
1492 08-10-2011 10:31:01 10.6 C 5.86 g/m*3 10.6 C 0 km/h
1493 08-10-2011 10:43:01 10.8 C 5.93 g/m*3 10.8 C 0 km/h
1494 08-10-2011 10:55:02 11.1 C 5.94 g/m*3 11.1 C 0 km/h
1495 08-10-2011 11:07:02 11.5 C 5.78 g/m*3 11.5 C 0 km/h
1496 08-10-2011 11:19:02 12 C 5.75 g/m*3 12 C 0 km/h
1497 08-10-2011 11:31:02 11.2 C 5.47 g/m*3 11.2 C 0 km/h
1498 08-10-2011 11:43:02 10.3 C 5.55 g/m*3 10.3 C 0 km/h
1499 08-10-2011 11:55:01 10.5 C 5.53 g/m*3 10.5 C 0 km/h
1500 08-10-2011 12:07:02 9.8 C 5.66 g/m*3 9.8 C 0 km/h
Sensor: Nr:Datum:Temp:Abs-Feuchte:Windchill:Wind:
Aussen-T/F 1501 08-10-2011 12:19:01 9.2 C 6.16 g/m*3 9.2 C 0 km/h
1502 08-10-2011 12:31:02 8.8 C 6.44 g/m*3 8.8 C 0 km/h
1503 08-10-2011 12:43:02 8.7 C 6.4 g/m*3 8.7 C 0 km/h
1504 08-10-2011 12:55:01 9.3 C 7.1 g/m*3 9.3 C 0 km/h
1505 08-10-2011 13:07:02 9.9 C 7.47 g/m*3 9.9 C 0 km/h
1506 08-10-2011 13:19:01 10.4 C 7.13 g/m*3 10.4 C 0 km/h
1507 08-10-2011 13:31:02 10.2 C 7.04 g/m*3 10.2 C 0 km/h
1508 08-10-2011 13:43:02 10.5 C 6.3 g/m*3 10.5 C 0 km/h
1509 08-10-2011 13:55:01 10.6 C 6.25 g/m*3 10.6 C 0 km/h
1510 08-10-2011 14:07:02 11.1 C 6.04 g/m*3 11.1 C 0 km/h
1511 08-10-2011 14:19:02 11.5 C 5.89 g/m*3 11.5 C 0 km/h
1512 08-10-2011 14:31:01 11.4 C 5.95 g/m*3 11.4 C 0 km/h
1513 08-10-2011 14:43:01 11.1 C 5.84 g/m*3 11.1 C 0 km/h
1514 08-10-2011 14:55:02 11.1 C 5.74 g/m*3 11.1 C 0 km/h
1515 08-10-2011 15:07:01 11.6 C 6.13 g/m*3 11.6 C 0 km/h
1516 08-10-2011 15:19:02 12.2 C 5.83 g/m*3 12.2 C 0 km/h
1517 08-10-2011 15:31:02 12.4 C 5.35 g/m*3 12.4 C 0 km/h
1518 08-10-2011 15:43:02 12.6 C 4.98 g/m*3 12.6 C 0 km/h
1519 08-10-2011 15:55:02 12.8 C 5.26 g/m*3 12.8 C 0 km/h
1520 08-10-2011 16:07:03 12.8 C 5.15 g/m*3 12.8 C 0 km/h
1521 08-10-2011 16:19:02 13 C 5.1 g/m*3 13 C 0 km/h
1522 08-10-2011 16:31:02 13.1 C 5.14 g/m*3 13.1 C 0 km/h
1523 08-10-2011 16:43:02 14.5 C 5.1 g/m*3 14.5 C 0 km/h
1524 08-10-2011 16:55:01 13 C 4.88 g/m*3 13 C 0 km/h
1525 08-10-2011 17:07:02 11.3 C 5.41 g/m*3 11.3 C 0 km/h
Sensor: Nr:Datum:Temp:Abs-Feuchte:Windchill:Wind:
Aussen-T/F 1526 08-10-2011 17:19:01 9.7 C 6.18 g/m*3 9.7 C 0 km/h
1527 08-10-2011 17:31:01 9 C 6.44 g/m*3 9 C 0 km/h
1528 08-10-2011 17:43:01 9 C 6.52 g/m*3 9 C 0 km/h
1529 08-10-2011 17:55:01 8.7 C 6.66 g/m*3 8.7 C 0 km/h
1530 08-10-2011 18:07:01 8.2 C 6.45 g/m*3 8.2 C 0 km/h
1531 08-10-2011 18:19:02 8.1 C 6.74 g/m*3 8.1 C 0 km/h
1532 08-10-2011 18:31:01 8.4 C 6.87 g/m*3 8.4 C 0 km/h
1533 08-10-2011 18:43:01 7.7 C 6.73 g/m*3 7.7 C 0 km/h
1534 08-10-2011 18:55:02 7.3 C 6.64 g/m*3 7.3 C 0 km/h
1535 08-10-2011 19:07:01 7.2 C 6.75 g/m*3 7.2 C 0 km/h
1536 08-10-2011 19:19:02 7.2 C 6.75 g/m*3 7.2 C 0 km/h
1537 08-10-2011 19:31:01 7.4 C 6.92 g/m*3 7.4 C 0 km/h
1538 08-10-2011 19:43:01 7.5 C 7.04 g/m*3 7.5 C 0 km/h
1539 08-10-2011 19:55:02 7.6 C 7.09 g/m*3 7.6 C 0 km/h
1540 08-10-2011 20:07:02 7.8 C 7.18 g/m*3 7.8 C 0 km/h
1541 08-10-2011 20:19:02 7.9 C 7.23 g/m*3 7.9 C 0 km/h
1542 08-10-2011 20:31:02 7.6 C 7.09 g/m*3 7.6 C 0 km/h
1543 08-10-2011 20:43:02 7.7 C 7.14 g/m*3 7.7 C 0 km/h
1544 08-10-2011 20:55:01 7.9 C 7.23 g/m*3 7.9 C 0 km/h
1545 08-10-2011 21:07:01 7.9 C 7.31 g/m*3 7.9 C 0 km/h
1546 08-10-2011 21:19:01 8 C 7.28 g/m*3 8 C 0 km/h
1547 08-10-2011 21:31:02 7.9 C 7.31 g/m*3 7.9 C 0 km/h
1548 08-10-2011 21:43:02 7.9 C 7.31 g/m*3 7.9 C 0 km/h
1549 08-10-2011 21:55:02 7.8 C 7.26 g/m*3 7.8 C 0 km/h
1550 08-10-2011 22:07:02 7.6 C 7.09 g/m*3 7.6 C 0 km/h
Sensor: Nr:Datum:Temp:Abs-Feuchte:Windchill:Wind:
Aussen-T/F 1551 08-10-2011 22:19:02 7.2 C 6.83 g/m*3 7.2 C 0 km/h
1552 08-10-2011 22:32:03 7.1 C 6.86 g/m*3 7.1 C 0 km/h
1553 08-10-2011 22:44:03 6.6 C 6.64 g/m*3 6.6 C 0 km/h
1554 08-10-2011 22:56:03 6.4 C 6.63 g/m*3 6.4 C 0 km/h
1555 08-10-2011 23:08:03 6.2 C 6.55 g/m*3 6.2 C 0 km/h
1556 08-10-2011 23:20:03 6.4 C 6.63 g/m*3 6.4 C 0 km/h
1557 08-10-2011 23:32:03 6.3 C 6.66 g/m*3 6.3 C 0 km/h
1558 08-10-2011 23:44:03 6.5 C 6.75 g/m*3 6.5 C 0 km/h
1559 08-10-2011 23:56:03 6.7 C 6.91 g/m*3 6.7 C 0 km/h
1560 09-10-2011 00:08:03 6.8 C 6.96 g/m*3 6.8 C 0 km/h
1561 09-10-2011 00:20:04 7 C 6.97 g/m*3 7 C 0 km/h
1562 09-10-2011 00:32:04 7 C 6.97 g/m*3 7 C 0 km/h
1563 09-10-2011 00:44:04 7.1 C 7.02 g/m*3 7.1 C 0 km/h
1564 09-10-2011 00:56:04 7 C 6.97 g/m*3 7 C 0 km/h
1565 09-10-2011 01:08:04 6.6 C 6.87 g/m*3 6.6 C 0 km/h
1566 09-10-2011 01:20:04 6.6 C 6.87 g/m*3 6.6 C 0 km/h
1567 09-10-2011 01:32:04 6.7 C 6.91 g/m*3 6.7 C 0 km/h
1568 09-10-2011 01:44:04 6.7 C 6.91 g/m*3 6.7 C 0 km/h
1569 09-10-2011 01:56:04 6.6 C 6.87 g/m*3 6.6 C 0 km/h
1570 09-10-2011 02:08:04 6.8 C 6.96 g/m*3 6.8 C 0 km/h
1571 09-10-2011 02:20:04 6.9 C 7.08 g/m*3 6.9 C 0 km/h
1572 09-10-2011 02:32:04 6.9 C 7.08 g/m*3 6.9 C 0 km/h
1573 09-10-2011 02:44:04 7 C 7.05 g/m*3 7 C 0 km/h
1574 09-10-2011 02:56:04 7.1 C 7.1 g/m*3 7.1 C 0 km/h
1575 09-10-2011 03:08:05 7.1 C 7.1 g/m*3 7.1 C 0 km/h
Sensor: Nr:Datum:Temp:Abs-Feuchte:Windchill:Wind:
Aussen-T/F 1576 09-10-2011 03:20:05 7.1 C 7.1 g/m*3 7.1 C 0 km/h
1577 09-10-2011 03:32:05 7.1 C 7.1 g/m*3 7.1 C 0 km/h
1578 09-10-2011 03:44:05 6.8 C 7.04 g/m*3 6.8 C 0 km/h
1579 09-10-2011 03:56:05 6.4 C 6.85 g/m*3 6.4 C 0 km/h
1580 09-10-2011 04:08:05 6.2 C 6.69 g/m*3 6.2 C 0 km/h
1581 09-10-2011 04:20:05 6.6 C 6.95 g/m*3 6.6 C 0 km/h
1582 09-10-2011 04:32:05 6.5 C 6.9 g/m*3 6.5 C 0 km/h
1583 09-10-2011 04:44:05 6.5 C 6.9 g/m*3 6.5 C 0 km/h
1584 09-10-2011 04:56:05 6.6 C 6.95 g/m*3 6.6 C 0 km/h
1585 09-10-2011 05:08:05 6.9 C 7.08 g/m*3 6.9 C 0 km/h
1586 09-10-2011 05:20:05 6.9 C 7.08 g/m*3 6.9 C 0 km/h
1587 09-10-2011 05:32:06 6.8 C 7.04 g/m*3 6.8 C 0 km/h
1588 09-10-2011 05:44:06 6.9 C 7.08 g/m*3 6.9 C 0 km/h
1589 09-10-2011 05:56:06 6.9 C 7.16 g/m*3 6.9 C 0 km/h
1590 09-10-2011 06:08:06 6.9 C 7.16 g/m*3 6.9 C 0 km/h
1591 09-10-2011 06:20:06 7 C 7.13 g/m*3 7 C 0 km/h
1592 09-10-2011 06:32:06 6.9 C 7.16 g/m*3 6.9 C 0 km/h
1593 09-10-2011 06:44:06 6.3 C 6.81 g/m*3 6.3 C 0 km/h
1594 09-10-2011 06:56:06 6.1 C 6.72 g/m*3 6.1 C 0 km/h
1595 09-10-2011 07:08:06 5.9 C 6.71 g/m*3 5.9 C 0 km/h
1596 09-10-2011 07:20:06 6.2 C 6.77 g/m*3 6.2 C 0 km/h
1597 09-10-2011 07:32:06 5.8 C 6.66 g/m*3 5.8 C 0 km/h
1598 09-10-2011 07:44:06 5.7 C 6.62 g/m*3 5.7 C 0 km/h
1599 09-10-2011 07:56:06 5.6 C 6.57 g/m*3 5.6 C 0 km/h
1600 09-10-2011 08:08:06 5.6 C 6.57 g/m*3 5.6 C 0 km/h
Sensor: Nr:Datum:Temp:Abs-Feuchte:Windchill:Wind:
Aussen-T/F 1601 09-10-2011 08:20:03 5.4 C 6.49 g/m*3 5.4 C 0 km/h
1602 09-10-2011 08:32:03 6.3 C 6.81 g/m*3 6.3 C 0 km/h
1603 09-10-2011 08:44:03 6.3 C 6.81 g/m*3 6.3 C 0 km/h
1604 09-10-2011 08:56:02 6.1 C 6.72 g/m*3 6.1 C 0 km/h
1605 09-10-2011 09:08:02 6.2 C 6.77 g/m*3 6.2 C 0 km/h
1606 09-10-2011 09:20:02 6.4 C 6.85 g/m*3 6.4 C 0 km/h
1607 09-10-2011 09:32:02 6.5 C 6.9 g/m*3 6.5 C 0 km/h
1608 09-10-2011 09:44:02 6.7 C 6.99 g/m*3 6.7 C 0 km/h
1609 09-10-2011 09:56:01 7 C 7.05 g/m*3 7 C 0 km/h
1610 09-10-2011 10:08:02 6.6 C 6.87 g/m*3 6.6 C 0 km/h
1611 09-10-2011 10:20:01 6.8 C 6.96 g/m*3 6.8 C 0 km/h
1612 09-10-2011 10:32:02 6.9 C 6.93 g/m*3 6.9 C 0 km/h
1613 09-10-2011 10:44:03 7 C 6.9 g/m*3 7 C 0 km/h
1614 09-10-2011 10:56:02 7.1 C 6.94 g/m*3 7.1 C 0 km/h
1615 09-10-2011 11:08:02 7.3 C 7.03 g/m*3 7.3 C 0 km/h
1616 09-10-2011 11:20:02 7.9 C 7.31 g/m*3 7.9 C 0 km/h
1617 09-10-2011 11:32:02 8.7 C 7.52 g/m*3 8.7 C 0 km/h
1618 09-10-2011 11:44:02 9.8 C 7.61 g/m*3 9.8 C 0 km/h
1619 09-10-2011 11:56:01 10.4 C 6.55 g/m*3 10.4 C 0 km/h
1620 09-10-2011 12:08:02 10.4 C 6.17 g/m*3 10.4 C 0 km/h
1621 09-10-2011 12:20:01 10.1 C 5.86 g/m*3 10.1 C 0 km/h
1622 09-10-2011 12:32:01 10.5 C 6.01 g/m*3 10.5 C 0 km/h
1623 09-10-2011 12:44:01 10.9 C 6.07 g/m*3 10.9 C 0 km/h
1624 09-10-2011 12:56:01 11 C 5.81 g/m*3 11 C 0 km/h
1625 09-10-2011 13:08:02 11.3 C 5.92 g/m*3 11.3 C 0 km/h
Sensor: Nr:Datum:Temp:Abs-Feuchte:Windchill:Wind:
Aussen-T/F 1626 09-10-2011 13:20:01 11.8 C 5.68 g/m*3 11.8 C 0 km/h
1627 09-10-2011 13:32:02 12.4 C 5.57 g/m*3 12.4 C 0 km/h
1628 09-10-2011 13:44:02 13.3 C 5.66 g/m*3 13.3 C 0 km/h
1629 09-10-2011 13:56:01 12.8 C 5.6 g/m*3 12.8 C 0 km/h
1630 09-10-2011 14:08:02 13 C 5.67 g/m*3 13 C 0 km/h
1631 09-10-2011 14:20:02 12.9 C 5.86 g/m*3 12.9 C 0 km/h
1632 09-10-2011 14:32:01 13.7 C 5.68 g/m*3 13.7 C 0 km/h
1633 09-10-2011 14:44:01 13.5 C 5.38 g/m*3 13.5 C 0 km/h
1634 09-10-2011 14:56:02 13.2 C 5.4 g/m*3 13.2 C 0 km/h
1635 09-10-2011 15:08:01 13.8 C 5.6 g/m*3 13.8 C 0 km/h
1636 09-10-2011 15:20:02 14 C 5.67 g/m*3 14 C 0 km/h
1637 09-10-2011 15:32:02 14.2 C 5.49 g/m*3 14.2 C 0 km/h
1638 09-10-2011 15:44:02 14.2 C 5.37 g/m*3 14.2 C 0 km/h
1639 09-10-2011 15:56:02 14.1 C 4.98 g/m*3 14.1 C 0 km/h
1640 09-10-2011 16:08:02 14.3 C 5.16 g/m*3 14.3 C 0 km/h
1641 09-10-2011 16:20:02 14.6 C 5.26 g/m*3 14.6 C 0 km/h
1642 09-10-2011 16:32:02 14.6 C 5.26 g/m*3 14.6 C 0 km/h
1643 09-10-2011 16:44:02 14.9 C 5.74 g/m*3 14.9 C 0 km/h
1644 09-10-2011 16:56:01 14 C 5.67 g/m*3 14 C 0 km/h
1645 09-10-2011 17:08:02 14.2 C 5.86 g/m*3 14.2 C 0 km/h
1646 09-10-2011 17:20:01 13.9 C 5.75 g/m*3 13.9 C 0 km/h
1647 09-10-2011 17:32:01 13.1 C 6.05 g/m*3 13.1 C 0 km/h
1648 09-10-2011 17:44:01 12.7 C 6.23 g/m*3 12.7 C 0 km/h
1649 09-10-2011 17:56:01 12 C 6.5 g/m*3 12 C 0 km/h
1650 09-10-2011 18:08:02 11.4 C 6.77 g/m*3 11.4 C 0 km/h
Sensor: Nr:Datum:Temp:Abs-Feuchte:Windchill:Wind:
Aussen-T/F 1651 09-10-2011 18:20:01 10.6 C 6.73 g/m*3 10.6 C 0 km/h
1652 09-10-2011 18:32:01 10 C 6.86 g/m*3 10 C 0 km/h
1653 09-10-2011 18:44:01 9.7 C 7.28 g/m*3 9.7 C 0 km/h
1654 09-10-2011 18:56:01 9.5 C 7.28 g/m*3 9.5 C 0 km/h
1655 09-10-2011 19:08:02 9.5 C 7.46 g/m*3 9.5 C 0 km/h
1656 09-10-2011 19:20:02 9.4 C 7.6 g/m*3 9.4 C 0 km/h
1657 09-10-2011 19:32:01 9.4 C 7.69 g/m*3 9.4 C 0 km/h
1658 09-10-2011 19:44:01 9.3 C 7.64 g/m*3 9.3 C 0 km/h
1659 09-10-2011 19:56:02 9.5 C 7.83 g/m*3 9.5 C 0 km/h
1660 09-10-2011 20:08:01 9.4 C 7.78 g/m*3 9.4 C 0 km/h
1661 09-10-2011 20:20:01 9.4 C 7.78 g/m*3 9.4 C 0 km/h
1662 09-10-2011 20:32:02 9.5 C 7.83 g/m*3 9.5 C 0 km/h
1663 09-10-2011 20:44:02 9.5 C 7.83 g/m*3 9.5 C 0 km/h
1664 09-10-2011 20:56:02 9.5 C 7.83 g/m*3 9.5 C 0 km/h
1665 09-10-2011 21:08:01 9.5 C 7.92 g/m*3 9.5 C 0 km/h
1666 09-10-2011 21:20:02 9.5 C 7.92 g/m*3 9.5 C 0 km/h
1667 09-10-2011 21:32:02 9.6 C 7.97 g/m*3 9.6 C 0 km/h
1668 09-10-2011 21:44:02 9.7 C 8.02 g/m*3 9.7 C 0 km/h
1669 09-10-2011 21:56:01 9.8 C 8.07 g/m*3 9.8 C 0 km/h
1670 09-10-2011 22:08:02 9.8 C 8.07 g/m*3 9.8 C 0 km/h
1671 09-10-2011 22:20:01 9.9 C 8.22 g/m*3 9.9 C 0 km/h
1672 09-10-2011 22:33:03 10 C 8.17 g/m*3 10 C 0 km/h
1673 09-10-2011 22:45:03 10.1 C 8.23 g/m*3 10.1 C 0 km/h
1674 09-10-2011 22:57:03 10.4 C 8.29 g/m*3 10.4 C 0 km/h
1675 09-10-2011 23:09:03 10.5 C 8.24 g/m*3 10.5 C 0 km/h
Sensor: Nr:Datum:Temp:Abs-Feuchte:Windchill:Wind:
Aussen-T/F 1676 09-10-2011 23:21:03 10.6 C 8.3 g/m*3 10.6 C 0 km/h
1677 09-10-2011 23:33:03 10.7 C 8.45 g/m*3 10.7 C 0 km/h
1678 09-10-2011 23:45:03 10.7 C 8.45 g/m*3 10.7 C 0 km/h
1679 09-10-2011 23:57:03 10.7 C 8.45 g/m*3 10.7 C 0 km/h
1680 10-10-2011 00:09:03 10.9 C 8.55 g/m*3 10.9 C 0 km/h
1681 10-10-2011 00:21:03 10.8 C 8.5 g/m*3 10.8 C 0 km/h
1682 10-10-2011 00:33:03 11.1 C 8.66 g/m*3 11.1 C 0 km/h
1683 10-10-2011 00:45:04 11.2 C 8.62 g/m*3 11.2 C 0 km/h
1684 10-10-2011 00:57:04 11.4 C 8.62 g/m*3 11.4 C 0 km/h
1685 10-10-2011 01:09:04 11.7 C 8.79 g/m*3 11.7 C 0 km/h
1686 10-10-2011 01:21:04 11.7 C 8.79 g/m*3 11.7 C 0 km/h
1687 10-10-2011 01:33:04 11.7 C 8.79 g/m*3 11.7 C 0 km/h
1688 10-10-2011 01:45:04 11.7 C 8.79 g/m*3 11.7 C 0 km/h
1689 10-10-2011 01:57:04 11.9 C 9 g/m*3 11.9 C 0 km/h
1690 10-10-2011 02:09:04 11.9 C 8.9 g/m*3 11.9 C 0 km/h
1691 10-10-2011 02:21:04 12.1 C 9.01 g/m*3 12.1 C 0 km/h
1692 10-10-2011 02:33:04 12.2 C 8.96 g/m*3 12.2 C 0 km/h
1693 10-10-2011 02:45:04 12.1 C 8.9 g/m*3 12.1 C 0 km/h
1694 10-10-2011 02:57:04 12.2 C 9.06 g/m*3 12.2 C 0 km/h
1695 10-10-2011 03:09:04 12.3 C 9.12 g/m*3 12.3 C 0 km/h
1696 10-10-2011 03:21:04 12.3 C 9.12 g/m*3 12.3 C 0 km/h
1697 10-10-2011 03:33:04 12.5 C 9.24 g/m*3 12.5 C 0 km/h
1698 10-10-2011 03:45:04 12.7 C 9.46 g/m*3 12.7 C 0 km/h
1699 10-10-2011 03:57:04 12.8 C 9.52 g/m*3 12.8 C 0 km/h
1700 10-10-2011 04:09:04 12.8 C 9.41 g/m*3 12.8 C 0 km/h
Sensor: Nr:Datum:Temp:Abs-Feuchte:Windchill:Wind:
Aussen-T/F 1701 10-10-2011 04:21:04 12.8 C 9.41 g/m*3 12.8 C 0 km/h
1702 10-10-2011 04:33:04 12.7 C 9.35 g/m*3 12.7 C 0 km/h
1703 10-10-2011 04:45:04 12.7 C 9.46 g/m*3 12.7 C 0 km/h
1704 10-10-2011 04:57:04 12.9 C 9.58 g/m*3 12.9 C 0 km/h
1705 10-10-2011 05:09:05 12.9 C 9.58 g/m*3 12.9 C 0 km/h
1706 10-10-2011 05:21:05 13.1 C 9.59 g/m*3 13.1 C 0 km/h
1707 10-10-2011 05:33:05 13.1 C 9.59 g/m*3 13.1 C 0 km/h
1708 10-10-2011 05:45:05 13.1 C 9.7 g/m*3 13.1 C 0 km/h
1709 10-10-2011 05:57:05 13.2 C 9.76 g/m*3 13.2 C 0 km/h
1710 10-10-2011 06:09:05 13.2 C 9.87 g/m*3 13.2 C 0 km/h
1711 10-10-2011 06:21:02 13.3 C 9.94 g/m*3 13.3 C 0 km/h
1712 10-10-2011 06:33:02 13.3 C 9.94 g/m*3 13.3 C 0 km/h
1713 10-10-2011 06:45:02 13.5 C 10.06 g/m*3 13.5 C 0 km/h
1714 10-10-2011 06:57:02 13.7 C 10.18 g/m*3 13.7 C 0 km/h
1715 10-10-2011 07:09:02 13.9 C 10.31 g/m*3 13.9 C 0 km/h
1716 10-10-2011 07:21:02 13.8 C 10.25 g/m*3 13.8 C 0 km/h
1717 10-10-2011 07:33:02 14.1 C 10.32 g/m*3 14.1 C 0 km/h
1718 10-10-2011 07:45:01 14.1 C 10.32 g/m*3 14.1 C 0 km/h
1719 10-10-2011 07:57:01 14.2 C 10.38 g/m*3 14.2 C 0 km/h
1720 10-10-2011 08:09:01 14.1 C 10.44 g/m*3 14.1 C 0 km/h
1721 10-10-2011 08:21:01 14.3 C 10.57 g/m*3 14.3 C 0 km/h
1722 10-10-2011 08:33:02 14.5 C 10.7 g/m*3 14.5 C 0 km/h
1723 10-10-2011 08:45:02 14.6 C 10.76 g/m*3 14.6 C 0 km/h
1724 10-10-2011 08:57:02 14.8 C 10.89 g/m*3 14.8 C 0 km/h
1725 10-10-2011 09:09:02 14.9 C 10.96 g/m*3 14.9 C 0 km/h
Sensor: Nr:Datum:Temp:Abs-Feuchte:Windchill:Wind:
Aussen-T/F 1726 10-10-2011 09:21:01 15.3 C 11.23 g/m*3 15.3 C 0 km/h
1727 10-10-2011 09:33:02 15.8 C 11.44 g/m*3 15.8 C 0 km/h
1728 10-10-2011 09:45:02 16.5 C 11.51 g/m*3 16.5 C 0 km/h
1729 10-10-2011 09:57:02 16.9 C 11.08 g/m*3 16.9 C 0 km/h
1730 10-10-2011 10:09:02 17.4 C 10.97 g/m*3 17.4 C 0 km/h
1731 10-10-2011 10:21:02 17.8 C 10.78 g/m*3 17.8 C 0 km/h
1732 10-10-2011 10:33:02 18.1 C 10.35 g/m*3 18.1 C 0 km/h
1733 10-10-2011 10:45:02 18 C 10.44 g/m*3 18 C 0 km/h
1734 10-10-2011 10:57:02 18.2 C 10.57 g/m*3 18.2 C 0 km/h
1735 10-10-2011 11:09:02 18.3 C 10.16 g/m*3 18.3 C 0 km/h
1736 10-10-2011 11:21:02 18.5 C 10.28 g/m*3 18.5 C 0 km/h
1737 10-10-2011 11:33:02 18.9 C 10.21 g/m*3 18.9 C 0 km/h
1738 10-10-2011 11:45:02 18.9 C 10.04 g/m*3 18.9 C 0 km/h
1739 10-10-2011 11:57:02 19.1 C 9.84 g/m*3 19.1 C 0 km/h
1740 10-10-2011 12:09:02 19.4 C 9.84 g/m*3 19.4 C 0 km/h
1741 10-10-2011 12:21:02 19.4 C 9.68 g/m*3 19.4 C 0 km/h
1742 10-10-2011 12:33:02 19.6 C 9.62 g/m*3 19.6 C 0 km/h
1743 10-10-2011 12:45:02 19.4 C 9.34 g/m*3 19.4 C 0 km/h
1744 10-10-2011 12:57:02 19.6 C 9.45 g/m*3 19.6 C 0 km/h
1745 10-10-2011 13:09:02 19.5 C 9.4 g/m*3 19.5 C 0 km/h
1746 10-10-2011 13:21:02 19.8 C 9.39 g/m*3 19.8 C 0 km/h
1747 10-10-2011 13:33:02 20.1 C 9.04 g/m*3 20.1 C 0 km/h
1748 10-10-2011 13:45:02 20.6 C 9.31 g/m*3 20.6 C 0 km/h
1749 10-10-2011 13:57:02 20.7 C 9 g/m*3 20.7 C 0 km/h
1750 10-10-2011 14:09:01 20.6 C 8.77 g/m*3 20.6 C 0 km/h
Sensor: Nr:Datum:Temp:Abs-Feuchte:Windchill:Wind:
Aussen-T/F 1751 10-10-2011 14:21:01 20.8 C 9.05 g/m*3 20.8 C 0 km/h
1752 10-10-2011 14:33:02 20.9 C 8.74 g/m*3 20.9 C 0 km/h
1753 10-10-2011 14:45:02 20.8 C 8.69 g/m*3 20.8 C 0 km/h
1754 10-10-2011 14:57:02 20.8 C 8.69 g/m*3 20.8 C 0 km/h
1755 10-10-2011 15:09:02 20.8 C 8.69 g/m*3 20.8 C 0 km/h
1756 10-10-2011 15:21:01 20.7 C 8.82 g/m*3 20.7 C 0 km/h
1757 10-10-2011 15:33:02 20.9 C 8.56 g/m*3 20.9 C 0 km/h
1758 10-10-2011 15:45:02 21.1 C 8.29 g/m*3 21.1 C 0 km/h
1759 10-10-2011 15:57:02 21.2 C 8.34 g/m*3 21.2 C 0 km/h
1760 10-10-2011 16:09:02 20.9 C 8.38 g/m*3 20.9 C 0 km/h
1761 10-10-2011 16:21:02 20.7 C 8.46 g/m*3 20.7 C 0 km/h
1762 10-10-2011 16:33:02 21.6 C 8.53 g/m*3 21.6 C 0 km/h
1763 10-10-2011 16:45:02 21.9 C 8.1 g/m*3 21.9 C 0 km/h
1764 10-10-2011 16:57:02 22.4 C 7.94 g/m*3 22.4 C 0 km/h
1765 10-10-2011 17:09:02 21.4 C 8.44 g/m*3 21.4 C 0 km/h
1766 10-10-2011 17:21:02 20.9 C 8.38 g/m*3 20.9 C 0 km/h
1767 10-10-2011 17:33:01 22 C 8.54 g/m*3 22 C 0 km/h
1768 10-10-2011 17:45:02 21.3 C 8.76 g/m*3 21.3 C 0 km/h
1769 10-10-2011 17:57:02 21 C 8.24 g/m*3 21 C 0 km/h
1770 10-10-2011 18:09:01 20 C 8.3 g/m*3 20 C 0 km/h
1771 10-10-2011 18:21:02 19.4 C 8.51 g/m*3 19.4 C 0 km/h
1772 10-10-2011 18:33:02 18.8 C 8.7 g/m*3 18.8 C 0 km/h
1773 10-10-2011 18:45:02 18.1 C 8.65 g/m*3 18.1 C 0 km/h
1774 10-10-2011 18:57:02 18 C 8.75 g/m*3 18 C 0 km/h
1775 10-10-2011 19:09:02 18 C 8.75 g/m*3 18 C 0 km/h
Sensor: Nr:Datum:Temp:Abs-Feuchte:Windchill:Wind:
Aussen-T/F 1776 10-10-2011 19:21:02 17.9 C 8.86 g/m*3 17.9 C 0 km/h
1777 10-10-2011 19:33:02 17.6 C 8.85 g/m*3 17.6 C 0 km/h
1778 10-10-2011 19:45:02 17.7 C 9.05 g/m*3 17.7 C 0 km/h
1779 10-10-2011 19:57:02 17.7 C 9.05 g/m*3 17.7 C 0 km/h
1780 10-10-2011 20:09:02 17.7 C 9.05 g/m*3 17.7 C 0 km/h
1781 10-10-2011 20:21:02 17.6 C 9.15 g/m*3 17.6 C 0 km/h
1782 10-10-2011 20:33:02 17.5 C 9.24 g/m*3 17.5 C 0 km/h
1783 10-10-2011 20:45:01 17.4 C 9.34 g/m*3 17.4 C 0 km/h
1784 10-10-2011 20:57:01 17.3 C 9.43 g/m*3 17.3 C 0 km/h
1785 10-10-2011 21:09:01 17.4 C 9.48 g/m*3 17.4 C 0 km/h
1786 10-10-2011 21:21:02 17.3 C 9.58 g/m*3 17.3 C 0 km/h
1787 10-10-2011 21:33:01 17.2 C 9.37 g/m*3 17.2 C 0 km/h
1788 10-10-2011 21:45:02 17.3 C 9.43 g/m*3 17.3 C 0 km/h
1789 10-10-2011 21:57:02 17.2 C 9.23 g/m*3 17.2 C 0 km/h
1790 10-10-2011 22:09:02 17.1 C 9.03 g/m*3 17.1 C 0 km/h
1791 10-10-2011 22:21:02 17 C 8.97 g/m*3 17 C 0 km/h
1792 10-10-2011 22:33:02 17.1 C 8.88 g/m*3 17.1 C 0 km/h
1793 10-10-2011 22:45:02 17.1 C 8.88 g/m*3 17.1 C 0 km/h
1794 10-10-2011 22:57:02 16.9 C 9.06 g/m*3 16.9 C 0 km/h
1795 10-10-2011 23:09:01 17 C 8.83 g/m*3 17 C 0 km/h
1796 10-10-2011 23:21:02 16.9 C 8.92 g/m*3 16.9 C 0 km/h
1797 10-10-2011 23:33:02 16.9 C 8.92 g/m*3 16.9 C 0 km/h
1798 10-10-2011 23:45:01 16.8 C 9.01 g/m*3 16.8 C 0 km/h
1799 10-10-2011 23:57:01 16.5 C 9.13 g/m*3 16.5 C 0 km/h
1800 11-10-2011 00:09:02 16.5 C 9.13 g/m*3 16.5 C 0 km/h
Sensor: Nr:Datum:Temp:Abs-Feuchte:Windchill:Wind:
Aussen-T/F 1801 11-10-2011 00:21:01 16.5 C 9.13 g/m*3 16.5 C 0 km/h
1802 11-10-2011 00:33:01 16.9 C 8.92 g/m*3 16.9 C 0 km/h
1803 11-10-2011 00:45:02 16.9 C 8.77 g/m*3 16.9 C 0 km/h
1804 11-10-2011 00:57:03 16.9 C 8.49 g/m*3 16.9 C 0 km/h
1805 11-10-2011 01:09:02 16.5 C 8.57 g/m*3 16.5 C 0 km/h
1806 11-10-2011 01:21:02 16.5 C 8.71 g/m*3 16.5 C 0 km/h
1807 11-10-2011 01:33:02 16.2 C 8.69 g/m*3 16.2 C 0 km/h
1808 11-10-2011 01:45:01 16.3 C 8.74 g/m*3 16.3 C 0 km/h
1809 11-10-2011 01:57:01 16.4 C 8.79 g/m*3 16.4 C 0 km/h
1810 11-10-2011 02:09:02 16.4 C 8.79 g/m*3 16.4 C 0 km/h
1811 11-10-2011 02:21:01 16.6 C 8.76 g/m*3 16.6 C 0 km/h
1812 11-10-2011 02:33:01 16.8 C 8.86 g/m*3 16.8 C 0 km/h
1813 11-10-2011 02:45:01 16.6 C 8.76 g/m*3 16.6 C 0 km/h
1814 11-10-2011 02:57:01 16.5 C 8.71 g/m*3 16.5 C 0 km/h
1815 11-10-2011 03:09:01 16.5 C 8.85 g/m*3 16.5 C 0 km/h
1816 11-10-2011 03:21:02 16.4 C 8.79 g/m*3 16.4 C 0 km/h
1817 11-10-2011 03:33:01 16.3 C 8.88 g/m*3 16.3 C 0 km/h
1818 11-10-2011 03:45:01 16.2 C 8.96 g/m*3 16.2 C 0 km/h
1819 11-10-2011 03:57:01 16.1 C 9.05 g/m*3 16.1 C 0 km/h
1820 11-10-2011 04:09:02 16.1 C 9.18 g/m*3 16.1 C 0 km/h
1821 11-10-2011 04:21:01 16 C 9.26 g/m*3 16 C 0 km/h
1822 11-10-2011 04:33:01 15.8 C 9.42 g/m*3 15.8 C 0 km/h
1823 11-10-2011 04:45:01 16 C 9.26 g/m*3 16 C 0 km/h
1824 11-10-2011 04:57:01 16 C 9.26 g/m*3 16 C 0 km/h
1825 11-10-2011 05:09:01 15.8 C 9.29 g/m*3 15.8 C 0 km/h
Sensor: Nr:Datum:Temp:Abs-Feuchte:Windchill:Wind:
Aussen-T/F 1826 11-10-2011 05:21:02 15.8 C 9.42 g/m*3 15.8 C 0 km/h
1827 11-10-2011 05:33:01 15.9 C 9.34 g/m*3 15.9 C 0 km/h
1828 11-10-2011 05:45:02 16 C 9.26 g/m*3 16 C 0 km/h
1829 11-10-2011 05:57:02 16 C 9.13 g/m*3 16 C 0 km/h
1830 11-10-2011 06:09:01 15.8 C 9.02 g/m*3 15.8 C 0 km/h
1831 11-10-2011 06:21:02 15.7 C 8.96 g/m*3 15.7 C 0 km/h
1832 11-10-2011 06:33:01 15.6 C 8.78 g/m*3 15.6 C 0 km/h
1833 11-10-2011 06:45:02 15.5 C 8.72 g/m*3 15.5 C 0 km/h
1834 11-10-2011 06:57:02 15.5 C 8.59 g/m*3 15.5 C 0 km/h
1835 11-10-2011 07:09:01 15.4 C 8.67 g/m*3 15.4 C 0 km/h
1836 11-10-2011 07:21:01 15.4 C 8.54 g/m*3 15.4 C 0 km/h
1837 11-10-2011 07:33:02 15.6 C 8.51 g/m*3 15.6 C 0 km/h
1838 11-10-2011 07:45:01 15.6 C 8.51 g/m*3 15.6 C 0 km/h
1839 11-10-2011 07:57:01 15.6 C 8.51 g/m*3 15.6 C 0 km/h
1840 11-10-2011 08:09:02 15.6 C 8.38 g/m*3 15.6 C 0 km/h
1841 11-10-2011 08:21:01 15.7 C 8.43 g/m*3 15.7 C 0 km/h
1842 11-10-2011 08:33:01 15.8 C 8.48 g/m*3 15.8 C 0 km/h
1843 11-10-2011 08:45:01 15.7 C 8.43 g/m*3 15.7 C 0 km/h
1844 11-10-2011 08:57:01 15.8 C 8.48 g/m*3 15.8 C 0 km/h
1845 11-10-2011 09:09:01 15.8 C 8.48 g/m*3 15.8 C 0 km/h
1846 11-10-2011 09:21:02 15.9 C 8.53 g/m*3 15.9 C 0 km/h
1847 11-10-2011 09:33:01 15.8 C 8.48 g/m*3 15.8 C 0 km/h
1848 11-10-2011 09:45:02 15.8 C 8.48 g/m*3 15.8 C 0 km/h
1849 11-10-2011 09:57:02 15.9 C 8.4 g/m*3 15.9 C 0 km/h
1850 11-10-2011 10:09:01 16 C 8.31 g/m*3 16 C 0 km/h
Sensor: Nr:Datum:Temp:Abs-Feuchte:Windchill:Wind:
Aussen-T/F 1851 11-10-2011 10:21:02 16 C 8.31 g/m*3 16 C 0 km/h
1852 11-10-2011 10:33:01 16 C 8.31 g/m*3 16 C 0 km/h
1853 11-10-2011 10:45:02 16 C 8.31 g/m*3 16 C 0 km/h
1854 11-10-2011 10:57:02 15.8 C 8.48 g/m*3 15.8 C 0 km/h
1855 11-10-2011 11:09:01 15.9 C 8.4 g/m*3 15.9 C 0 km/h
1856 11-10-2011 11:21:01 15.9 C 8.4 g/m*3 15.9 C 0 km/h
1857 11-10-2011 11:33:02 16 C 8.45 g/m*3 16 C 0 km/h
1858 11-10-2011 11:45:01 16 C 8.45 g/m*3 16 C 0 km/h
1859 11-10-2011 11:57:01 15.9 C 8.53 g/m*3 15.9 C 0 km/h
1860 11-10-2011 12:09:02 16 C 8.45 g/m*3 16 C 0 km/h
1861 11-10-2011 12:21:01 16 C 8.45 g/m*3 16 C 0 km/h
1862 11-10-2011 12:33:01 16.1 C 8.5 g/m*3 16.1 C 0 km/h
1863 11-10-2011 12:45:01 16.1 C 8.5 g/m*3 16.1 C 0 km/h
1864 11-10-2011 12:57:01 16.1 C 8.5 g/m*3 16.1 C 0 km/h
1865 11-10-2011 13:09:02 16.1 C 8.64 g/m*3 16.1 C 0 km/h
1866 11-10-2011 13:21:01 16.1 C 8.64 g/m*3 16.1 C 0 km/h
1867 11-10-2011 13:33:01 16 C 8.72 g/m*3 16 C 0 km/h
1868 11-10-2011 13:45:01 16.1 C 8.77 g/m*3 16.1 C 0 km/h
1869 11-10-2011 13:57:01 16 C 8.86 g/m*3 16 C 0 km/h
1870 11-10-2011 14:09:01 16 C 8.86 g/m*3 16 C 0 km/h
1871 11-10-2011 14:21:02 16.2 C 8.83 g/m*3 16.2 C 0 km/h
1872 11-10-2011 14:33:01 16.4 C 8.79 g/m*3 16.4 C 0 km/h
1873 11-10-2011 14:45:02 16.7 C 8.95 g/m*3 16.7 C 0 km/h
1874 11-10-2011 14:57:02 16.8 C 8.86 g/m*3 16.8 C 0 km/h
1875 11-10-2011 15:09:01 17.2 C 8.79 g/m*3 17.2 C 0 km/h
Sensor: Nr:Datum:Temp:Abs-Feuchte:Windchill:Wind:
Aussen-T/F 1876 11-10-2011 15:21:01 17.2 C 8.79 g/m*3 17.2 C 0 km/h
1877 11-10-2011 15:33:01 17.2 C 8.79 g/m*3 17.2 C 0 km/h
1878 11-10-2011 15:45:01 17.2 C 8.93 g/m*3 17.2 C 0 km/h
1879 11-10-2011 15:57:01 17.4 C 8.89 g/m*3 17.4 C 0 km/h
1880 11-10-2011 16:09:01 17.6 C 8.85 g/m*3 17.6 C 0 km/h
1881 11-10-2011 16:21:01 17.8 C 8.8 g/m*3 17.8 C 0 km/h
1882 11-10-2011 16:33:02 17.8 C 8.95 g/m*3 17.8 C 0 km/h
1883 11-10-2011 16:45:01 17.6 C 8.85 g/m*3 17.6 C 0 km/h
1884 11-10-2011 16:57:01 17.4 C 8.89 g/m*3 17.4 C 0 km/h
1885 11-10-2011 17:09:02 17.5 C 8.95 g/m*3 17.5 C 0 km/h
1886 11-10-2011 17:21:01 17.6 C 8.85 g/m*3 17.6 C 0 km/h
1887 11-10-2011 17:33:01 17.6 C 8.7 g/m*3 17.6 C 0 km/h
1888 11-10-2011 17:45:01 17.5 C 8.8 g/m*3 17.5 C 0 km/h
1889 11-10-2011 17:57:01 17.5 C 8.8 g/m*3 17.5 C 0 km/h
1890 11-10-2011 18:09:01 17.5 C 8.65 g/m*3 17.5 C 0 km/h
1891 11-10-2011 18:21:02 17.3 C 8.69 g/m*3 17.3 C 0 km/h
1892 11-10-2011 18:33:01 17.3 C 8.69 g/m*3 17.3 C 0 km/h
1893 11-10-2011 18:45:02 17.1 C 8.59 g/m*3 17.1 C 0 km/h
1894 11-10-2011 18:57:02 17 C 8.68 g/m*3 17 C 0 km/h
1895 11-10-2011 19:09:01 16.8 C 8.86 g/m*3 16.8 C 0 km/h
1896 11-10-2011 19:21:02 16.8 C 8.86 g/m*3 16.8 C 0 km/h
1897 11-10-2011 19:33:01 17 C 8.68 g/m*3 17 C 0 km/h
1898 11-10-2011 19:45:02 17 C 8.54 g/m*3 17 C 0 km/h
1899 11-10-2011 19:57:02 16.9 C 8.63 g/m*3 16.9 C 0 km/h
1900 11-10-2011 20:09:01 16.8 C 8.58 g/m*3 16.8 C 0 km/h
Sensor: Nr:Datum:Temp:Abs-Feuchte:Windchill:Wind:
Aussen-T/F 1901 11-10-2011 20:21:01 16.7 C 8.81 g/m*3 16.7 C 0 km/h
1902 11-10-2011 20:33:02 16.8 C 8.86 g/m*3 16.8 C 0 km/h
1903 11-10-2011 20:45:01 16.6 C 8.76 g/m*3 16.6 C 0 km/h
1904 11-10-2011 20:57:01 16.6 C 8.62 g/m*3 16.6 C 0 km/h
1905 11-10-2011 21:09:02 16.6 C 8.62 g/m*3 16.6 C 0 km/h
1906 11-10-2011 21:21:01 16.6 C 8.48 g/m*3 16.6 C 0 km/h
1907 11-10-2011 21:33:01 16.5 C 8.43 g/m*3 16.5 C 0 km/h
1908 11-10-2011 21:45:01 16.3 C 8.46 g/m*3 16.3 C 0 km/h
1909 11-10-2011 21:57:01 16.5 C 8.57 g/m*3 16.5 C 0 km/h
1910 11-10-2011 22:09:02 16.5 C 8.43 g/m*3 16.5 C 0 km/h
1911 11-10-2011 22:21:01 16.4 C 8.37 g/m*3 16.4 C 0 km/h
1912 11-10-2011 22:33:01 16.3 C 8.46 g/m*3 16.3 C 0 km/h
1913 11-10-2011 22:45:01 16.2 C 8.55 g/m*3 16.2 C 0 km/h
1914 11-10-2011 22:57:01 16.1 C 8.5 g/m*3 16.1 C 0 km/h
1915 11-10-2011 23:09:01 16.1 C 8.5 g/m*3 16.1 C 0 km/h
1916 11-10-2011 23:21:02 16 C 8.58 g/m*3 16 C 0 km/h
1917 11-10-2011 23:33:01 16 C 8.58 g/m*3 16 C 0 km/h
1918 11-10-2011 23:45:02 16 C 8.58 g/m*3 16 C 0 km/h
1919 11-10-2011 23:57:02 16 C 8.58 g/m*3 16 C 0 km/h
1920 12-10-2011 00:09:01 15.9 C 8.67 g/m*3 15.9 C 0 km/h
1921 12-10-2011 00:21:01 15.9 C 8.67 g/m*3 15.9 C 0 km/h
1922 12-10-2011 00:33:02 15.8 C 8.75 g/m*3 15.8 C 0 km/h
1923 12-10-2011 00:45:01 15.8 C 8.75 g/m*3 15.8 C 0 km/h
1924 12-10-2011 00:57:01 15.8 C 8.75 g/m*3 15.8 C 0 km/h
1925 12-10-2011 01:09:02 15.8 C 8.75 g/m*3 15.8 C 0 km/h
Sensor: Nr:Datum:Temp:Abs-Feuchte:Windchill:Wind:
Aussen-T/F 1926 12-10-2011 01:21:01 15.8 C 8.75 g/m*3 15.8 C 0 km/h
1927 12-10-2011 01:33:01 15.8 C 8.75 g/m*3 15.8 C 0 km/h
1928 12-10-2011 01:45:01 15.8 C 8.75 g/m*3 15.8 C 0 km/h
1929 12-10-2011 01:57:01 15.7 C 8.7 g/m*3 15.7 C 0 km/h
1930 12-10-2011 02:09:01 15.7 C 8.83 g/m*3 15.7 C 0 km/h
1931 12-10-2011 02:21:01 15.7 C 8.83 g/m*3 15.7 C 0 km/h
1932 12-10-2011 02:33:01 15.6 C 8.78 g/m*3 15.6 C 0 km/h
1933 12-10-2011 02:46:03 15.7 C 8.83 g/m*3 15.7 C 0 km/h
1934 12-10-2011 02:58:03 15.6 C 8.91 g/m*3 15.6 C 0 km/h
1935 12-10-2011 03:10:03 15.5 C 8.86 g/m*3 15.5 C 0 km/h
1936 12-10-2011 03:22:03 15.4 C 8.8 g/m*3 15.4 C 0 km/h
1937 12-10-2011 03:34:01 15.4 C 8.8 g/m*3 15.4 C 0 km/h
1938 12-10-2011 03:46:01 15.4 C 8.8 g/m*3 15.4 C 0 km/h
1939 12-10-2011 03:58:01 15.3 C 8.88 g/m*3 15.3 C 0 km/h
1940 12-10-2011 04:10:02 15.5 C 8.86 g/m*3 15.5 C 0 km/h
1941 12-10-2011 04:22:01 15.3 C 8.75 g/m*3 15.3 C 0 km/h
1942 12-10-2011 04:34:01 15.2 C 8.83 g/m*3 15.2 C 0 km/h
1943 12-10-2011 04:46:01 15.2 C 8.83 g/m*3 15.2 C 0 km/h
1944 12-10-2011 04:58:01 15.3 C 8.88 g/m*3 15.3 C 0 km/h
1945 12-10-2011 05:10:01 15.2 C 8.83 g/m*3 15.2 C 0 km/h
1946 12-10-2011 05:22:02 15.3 C 8.88 g/m*3 15.3 C 0 km/h
1947 12-10-2011 05:34:01 15.4 C 8.8 g/m*3 15.4 C 0 km/h
1948 12-10-2011 05:46:02 15.3 C 8.88 g/m*3 15.3 C 0 km/h
1949 12-10-2011 05:58:02 15.2 C 8.83 g/m*3 15.2 C 0 km/h
1950 12-10-2011 06:10:02 15.4 C 8.93 g/m*3 15.4 C 0 km/h
Sensor: Nr:Datum:Temp:Abs-Feuchte:Windchill:Wind:
Aussen-T/F 1951 12-10-2011 06:22:02 15.2 C 8.96 g/m*3 15.2 C 0 km/h
1952 12-10-2011 06:34:03 15.2 C 8.96 g/m*3 15.2 C 0 km/h
1953 12-10-2011 06:46:02 15.1 C 8.9 g/m*3 15.1 C 0 km/h
1954 12-10-2011 06:58:02 15.1 C 8.9 g/m*3 15.1 C 0 km/h
1955 12-10-2011 07:10:01 15 C 8.98 g/m*3 15 C 0 km/h
1956 12-10-2011 07:22:01 15.1 C 9.03 g/m*3 15.1 C 0 km/h
1957 12-10-2011 07:34:02 15 C 8.98 g/m*3 15 C 0 km/h
1958 12-10-2011 07:46:02 14.9 C 9.18 g/m*3 14.9 C 0 km/h
1959 12-10-2011 07:58:02 14.8 C 9.25 g/m*3 14.8 C 0 km/h
1960 12-10-2011 08:10:02 15 C 9.1 g/m*3 15 C 0 km/h
1961 12-10-2011 08:22:02 15 C 9.1 g/m*3 15 C 0 km/h
1962 12-10-2011 08:34:02 15.1 C 9.16 g/m*3 15.1 C 0 km/h
1963 12-10-2011 08:46:02 15.1 C 9.16 g/m*3 15.1 C 0 km/h
1964 12-10-2011 08:58:02 15.1 C 9.16 g/m*3 15.1 C 0 km/h
1965 12-10-2011 09:10:02 15.2 C 9.22 g/m*3 15.2 C 0 km/h
1966 12-10-2011 09:22:02 15.5 C 9.25 g/m*3 15.5 C 0 km/h
1967 12-10-2011 09:34:02 15.5 C 9.12 g/m*3 15.5 C 0 km/h
1968 12-10-2011 09:46:02 15.6 C 9.18 g/m*3 15.6 C 0 km/h
1969 12-10-2011 09:58:02 15.8 C 9.15 g/m*3 15.8 C 0 km/h
1970 12-10-2011 10:10:02 15.9 C 9.21 g/m*3 15.9 C 0 km/h
1971 12-10-2011 10:22:02 16.4 C 9.07 g/m*3 16.4 C 0 km/h
1972 12-10-2011 10:34:01 16.6 C 9.04 g/m*3 16.6 C 0 km/h
1973 12-10-2011 10:46:02 16.8 C 9.15 g/m*3 16.8 C 0 km/h
1974 12-10-2011 10:58:02 16.9 C 9.06 g/m*3 16.9 C 0 km/h
1975 12-10-2011 11:10:01 16.7 C 9.1 g/m*3 16.7 C 0 km/h
Sensor: Nr:Datum:Temp:Abs-Feuchte:Windchill:Wind:
Aussen-T/F 1976 12-10-2011 11:22:02 17 C 8.97 g/m*3 17 C 0 km/h
1977 12-10-2011 11:34:02 17.6 C 9 g/m*3 17.6 C 0 km/h
1978 12-10-2011 11:46:02 17.8 C 9.11 g/m*3 17.8 C 0 km/h
1979 12-10-2011 11:58:02 17.8 C 8.95 g/m*3 17.8 C 0 km/h
1980 12-10-2011 12:10:02 17.2 C 8.93 g/m*3 17.2 C 0 km/h
1981 12-10-2011 12:22:02 17.1 C 8.88 g/m*3 17.1 C 0 km/h
1982 12-10-2011 12:34:02 17.2 C 8.93 g/m*3 17.2 C 0 km/h
1983 12-10-2011 12:46:02 17.2 C 8.79 g/m*3 17.2 C 0 km/h
1984 12-10-2011 12:58:02 17 C 8.97 g/m*3 17 C 0 km/h
1985 12-10-2011 13:10:02 17.2 C 8.93 g/m*3 17.2 C 0 km/h
1986 12-10-2011 13:22:02 17.1 C 8.88 g/m*3 17.1 C 0 km/h
1987 12-10-2011 13:34:02 17.3 C 8.99 g/m*3 17.3 C 0 km/h
1988 12-10-2011 13:46:02 16.9 C 9.06 g/m*3 16.9 C 0 km/h
1989 12-10-2011 13:58:02 17 C 8.97 g/m*3 17 C 0 km/h
1990 12-10-2011 14:10:02 17.1 C 9.03 g/m*3 17.1 C 0 km/h
1991 12-10-2011 14:22:03 17 C 8.83 g/m*3 17 C 0 km/h
1992 12-10-2011 14:34:02 17.1 C 8.88 g/m*3 17.1 C 0 km/h
1993 12-10-2011 14:46:02 17.1 C 8.88 g/m*3 17.1 C 0 km/h
1994 12-10-2011 14:58:02 17.1 C 8.73 g/m*3 17.1 C 0 km/h
1995 12-10-2011 15:10:02 17.2 C 8.79 g/m*3 17.2 C 0 km/h
1996 12-10-2011 15:22:02 17 C 8.68 g/m*3 17 C 0 km/h
1997 12-10-2011 15:34:01 16.9 C 8.92 g/m*3 16.9 C 0 km/h
1998 12-10-2011 15:46:02 16.9 C 8.92 g/m*3 16.9 C 0 km/h
1999 12-10-2011 15:58:03 17 C 8.83 g/m*3 17 C 0 km/h
2000 12-10-2011 16:10:01 16.9 C 8.77 g/m*3 16.9 C 0 km/h
Sensor: Nr:Datum:Temp:Abs-Feuchte:Windchill:Wind:
Aussen-T/F 2001 12-10-2011 16:22:01 17 C 8.83 g/m*3 17 C 0 km/h
2002 12-10-2011 16:34:02 16.9 C 8.77 g/m*3 16.9 C 0 km/h
2003 12-10-2011 16:46:02 16.8 C 8.72 g/m*3 16.8 C 0 km/h
2004 12-10-2011 16:58:02 16.8 C 8.86 g/m*3 16.8 C 0 km/h
2005 12-10-2011 17:10:02 16.8 C 8.72 g/m*3 16.8 C 0 km/h
2006 12-10-2011 17:22:02 16.7 C 8.67 g/m*3 16.7 C 0 km/h
2007 12-10-2011 17:34:02 16.8 C 8.72 g/m*3 16.8 C 0 km/h
2008 12-10-2011 17:46:02 16.5 C 8.57 g/m*3 16.5 C 0 km/h
2009 12-10-2011 17:58:02 16.5 C 8.57 g/m*3 16.5 C 0 km/h
2010 12-10-2011 18:10:02 16.5 C 8.57 g/m*3 16.5 C 0 km/h
2011 12-10-2011 18:22:02 16.5 C 8.43 g/m*3 16.5 C 0 km/h
2012 12-10-2011 18:34:02 16.5 C 8.43 g/m*3 16.5 C 0 km/h
2013 12-10-2011 18:46:02 16.3 C 8.32 g/m*3 16.3 C 0 km/h
2014 12-10-2011 18:58:02 16.2 C 8.27 g/m*3 16.2 C 0 km/h
2015 12-10-2011 19:10:02 16.2 C 8.14 g/m*3 16.2 C 0 km/h
2016 12-10-2011 19:22:02 16.1 C 8.09 g/m*3 16.1 C 0 km/h
2017 12-10-2011 19:34:02 16 C 8.17 g/m*3 16 C 0 km/h
2018 12-10-2011 19:46:02 15.9 C 8.26 g/m*3 15.9 C 0 km/h
2019 12-10-2011 19:58:02 15.7 C 8.3 g/m*3 15.7 C 0 km/h
2020 12-10-2011 20:10:02 15.7 C 8.43 g/m*3 15.7 C 0 km/h
2021 12-10-2011 20:22:02 15.8 C 8.21 g/m*3 15.8 C 0 km/h
2022 12-10-2011 20:34:02 15.8 C 8.35 g/m*3 15.8 C 0 km/h
2023 12-10-2011 20:46:01 15.7 C 8.3 g/m*3 15.7 C 0 km/h
2024 12-10-2011 20:58:01 15.2 C 8.18 g/m*3 15.2 C 0 km/h
2025 12-10-2011 21:10:02 14.1 C 8.86 g/m*3 14.1 C 0 km/h
Sensor: Nr:Datum:Temp:Abs-Feuchte:Windchill:Wind:
Aussen-T/F 2026 12-10-2011 21:22:01 13.6 C 9.18 g/m*3 13.6 C 0 km/h
2027 12-10-2011 21:34:02 13.3 C 9.24 g/m*3 13.3 C 0 km/h
2028 12-10-2011 21:46:02 13.4 C 9.53 g/m*3 13.4 C 0 km/h
2029 12-10-2011 21:58:02 13.1 C 9.47 g/m*3 13.1 C 0 km/h
2030 12-10-2011 22:11:02 13.3 C 9.59 g/m*3 13.3 C 0 km/h
2031 12-10-2011 22:23:02 13.3 C 9.59 g/m*3 13.3 C 0 km/h
2032 12-10-2011 22:35:02 13.2 C 9.64 g/m*3 13.2 C 0 km/h
2033 12-10-2011 22:47:02 13.4 C 9.76 g/m*3 13.4 C 0 km/h
2034 12-10-2011 22:59:02 13.3 C 9.82 g/m*3 13.3 C 0 km/h
2035 12-10-2011 23:11:03 13.3 C 9.94 g/m*3 13.3 C 0 km/h
2036 12-10-2011 23:23:03 13.3 C 9.94 g/m*3 13.3 C 0 km/h
2037 12-10-2011 23:35:03 13.3 C 9.94 g/m*3 13.3 C 0 km/h
2038 12-10-2011 23:47:03 13.2 C 9.99 g/m*3 13.2 C 0 km/h
2039 12-10-2011 23:59:03 13.2 C 9.99 g/m*3 13.2 C 0 km/h
2040 13-10-2011 00:11:03 12.9 C 9.81 g/m*3 12.9 C 0 km/h
2041 13-10-2011 00:23:03 12.5 C 9.57 g/m*3 12.5 C 0 km/h
2042 13-10-2011 00:35:03 11.8 C 9.16 g/m*3 11.8 C 0 km/h
2043 13-10-2011 00:47:03 11.1 C 8.66 g/m*3 11.1 C 0 km/h
2044 13-10-2011 00:59:03 10.7 C 8.45 g/m*3 10.7 C 0 km/h
2045 13-10-2011 01:11:03 10.8 C 8.5 g/m*3 10.8 C 0 km/h
2046 13-10-2011 01:23:03 10.7 C 8.55 g/m*3 10.7 C 0 km/h
2047 13-10-2011 01:35:03 10.5 C 8.34 g/m*3 10.5 C 0 km/h
2048 13-10-2011 01:47:03 10.2 C 8.18 g/m*3 10.2 C 0 km/h
2049 13-10-2011 01:59:03 10 C 8.08 g/m*3 10 C 0 km/h
2050 13-10-2011 02:11:03 9.9 C 8.12 g/m*3 9.9 C 0 km/h
Sensor: Nr:Datum:Temp:Abs-Feuchte:Windchill:Wind:
Aussen-T/F 2051 13-10-2011 02:23:03 9.6 C 7.97 g/m*3 9.6 C 0 km/h
2052 13-10-2011 02:35:03 9.5 C 7.92 g/m*3 9.5 C 0 km/h
2053 13-10-2011 02:47:03 9.4 C 7.87 g/m*3 9.4 C 0 km/h
2054 13-10-2011 02:59:03 9.5 C 7.92 g/m*3 9.5 C 0 km/h
2055 13-10-2011 03:11:03 9.5 C 7.92 g/m*3 9.5 C 0 km/h
2056 13-10-2011 03:23:04 9.5 C 7.92 g/m*3 9.5 C 0 km/h
2057 13-10-2011 03:35:04 9.4 C 7.96 g/m*3 9.4 C 0 km/h
2058 13-10-2011 03:47:04 9.2 C 7.77 g/m*3 9.2 C 0 km/h
2059 13-10-2011 03:59:04 8.9 C 7.71 g/m*3 8.9 C 0 km/h
2060 13-10-2011 04:11:04 8.6 C 7.56 g/m*3 8.6 C 0 km/h
2061 13-10-2011 04:23:04 8.5 C 7.51 g/m*3 8.5 C 0 km/h
2062 13-10-2011 04:35:04 8.4 C 7.47 g/m*3 8.4 C 0 km/h
2063 13-10-2011 04:47:04 8.5 C 7.6 g/m*3 8.5 C 0 km/h
2064 13-10-2011 04:59:04 8.5 C 7.6 g/m*3 8.5 C 0 km/h
2065 13-10-2011 05:11:04 8.5 C 7.6 g/m*3 8.5 C 0 km/h
2066 13-10-2011 05:23:04 8.4 C 7.55 g/m*3 8.4 C 0 km/h
2067 13-10-2011 05:35:04 8.1 C 7.41 g/m*3 8.1 C 0 km/h
2068 13-10-2011 05:47:04 8 C 7.36 g/m*3 8 C 0 km/h
2069 13-10-2011 05:59:04 8.1 C 7.41 g/m*3 8.1 C 0 km/h
2070 13-10-2011 06:11:04 8.2 C 7.45 g/m*3 8.2 C 0 km/h
2071 13-10-2011 06:23:04 8.2 C 7.54 g/m*3 8.2 C 0 km/h
2072 13-10-2011 06:35:04 8.2 C 7.54 g/m*3 8.2 C 0 km/h
2073 13-10-2011 06:47:04 8.3 C 7.59 g/m*3 8.3 C 0 km/h
2074 13-10-2011 06:59:04 8.4 C 7.63 g/m*3 8.4 C 0 km/h
2075 13-10-2011 07:11:02 8.4 C 7.63 g/m*3 8.4 C 0 km/h
Sensor: Nr:Datum:Temp:Abs-Feuchte:Windchill:Wind:
Aussen-T/F 2076 13-10-2011 07:23:02 8.4 C 7.63 g/m*3 8.4 C 0 km/h
2077 13-10-2011 07:35:03 8.4 C 7.63 g/m*3 8.4 C 0 km/h
2078 13-10-2011 07:47:02 8.3 C 7.59 g/m*3 8.3 C 0 km/h
2079 13-10-2011 07:59:02 8.2 C 7.54 g/m*3 8.2 C 0 km/h
2080 13-10-2011 08:11:02 8.2 C 7.54 g/m*3 8.2 C 0 km/h
2081 13-10-2011 08:23:02 8.4 C 7.63 g/m*3 8.4 C 0 km/h
2082 13-10-2011 08:35:02 8.6 C 7.73 g/m*3 8.6 C 0 km/h
2083 13-10-2011 08:47:02 8.7 C 7.78 g/m*3 8.7 C 0 km/h
2084 13-10-2011 08:59:02 9 C 7.85 g/m*3 9 C 0 km/h
2085 13-10-2011 09:11:02 9.3 C 8.09 g/m*3 9.3 C 0 km/h
2086 13-10-2011 09:23:02 9 C 7.85 g/m*3 9 C 0 km/h
2087 13-10-2011 09:35:03 9.2 C 7.86 g/m*3 9.2 C 0 km/h
2088 13-10-2011 09:47:02 9.3 C 7.82 g/m*3 9.3 C 0 km/h
2089 13-10-2011 09:59:02 9.5 C 7.74 g/m*3 9.5 C 0 km/h
2090 13-10-2011 10:11:01 9.7 C 7.65 g/m*3 9.7 C 0 km/h
2091 13-10-2011 10:23:02 9.9 C 7.56 g/m*3 9.9 C 0 km/h
2092 13-10-2011 10:35:02 10.4 C 7.42 g/m*3 10.4 C 0 km/h
2093 13-10-2011 10:47:01 10.6 C 7.22 g/m*3 10.6 C 0 km/h
2094 13-10-2011 10:59:01 10.3 C 6.99 g/m*3 10.3 C 0 km/h
2095 13-10-2011 11:11:01 10.3 C 6.99 g/m*3 10.3 C 0 km/h
2096 13-10-2011 11:23:01 10 C 7.05 g/m*3 10 C 0 km/h
2097 13-10-2011 11:35:02 10.5 C 7.08 g/m*3 10.5 C 0 km/h
2098 13-10-2011 11:47:01 11 C 7.01 g/m*3 11 C 0 km/h
2099 13-10-2011 11:59:01 11.1 C 6.95 g/m*3 11.1 C 0 km/h
2100 13-10-2011 12:11:02 11.1 C 6.85 g/m*3 11.1 C 0 km/h
Sensor: Nr:Datum:Temp:Abs-Feuchte:Windchill:Wind:
Aussen-T/F 2101 13-10-2011 12:23:01 11.2 C 6.79 g/m*3 11.2 C 0 km/h
2102 13-10-2011 12:35:02 12 C 6.61 g/m*3 12 C 0 km/h
2103 13-10-2011 12:47:01 13.1 C 6.39 g/m*3 13.1 C 0 km/h
2104 13-10-2011 12:59:01 13.8 C 6.31 g/m*3 13.8 C 0 km/h
2105 13-10-2011 13:11:02 14.2 C 6.23 g/m*3 14.2 C 0 km/h
2106 13-10-2011 13:23:02 13.5 C 6.32 g/m*3 13.5 C 0 km/h
2107 13-10-2011 13:35:01 14.4 C 6.3 g/m*3 14.4 C 0 km/h
2108 13-10-2011 13:47:02 13.4 C 6.28 g/m*3 13.4 C 0 km/h
2109 13-10-2011 13:59:02 13.1 C 5.93 g/m*3 13.1 C 0 km/h
2110 13-10-2011 14:11:01 13.1 C 6.16 g/m*3 13.1 C 0 km/h
2111 13-10-2011 14:23:02 13.5 C 5.85 g/m*3 13.5 C 0 km/h
2112 13-10-2011 14:35:01 13.4 C 5.23 g/m*3 13.4 C 0 km/h
2113 13-10-2011 14:47:02 14 C 4.95 g/m*3 14 C 0 km/h
2114 13-10-2011 14:59:02 14.2 C 5.13 g/m*3 14.2 C 0 km/h
2115 13-10-2011 15:11:02 14.3 C 5.28 g/m*3 14.3 C 0 km/h
2116 13-10-2011 15:23:02 14.4 C 5.56 g/m*3 14.4 C 0 km/h
2117 13-10-2011 15:35:03 13.9 C 5.04 g/m*3 13.9 C 0 km/h
2118 13-10-2011 15:47:02 14.5 C 4.97 g/m*3 14.5 C 0 km/h
2119 13-10-2011 15:59:02 14.8 C 4.81 g/m*3 14.8 C 0 km/h
2120 13-10-2011 16:11:02 14.1 C 4.98 g/m*3 14.1 C 0 km/h
2121 13-10-2011 16:23:01 13.2 C 5.4 g/m*3 13.2 C 0 km/h
2122 13-10-2011 16:35:02 12.8 C 6.16 g/m*3 12.8 C 0 km/h
2123 13-10-2011 16:47:02 16.5 C 5.76 g/m*3 16.5 C 0 km/h
2124 13-10-2011 16:59:02 18.6 C 6.05 g/m*3 18.6 C 0 km/h
2125 13-10-2011 17:11:02 20.1 C 5.56 g/m*3 20.1 C 0 km/h
Sensor: Nr:Datum:Temp:Abs-Feuchte:Windchill:Wind:
Aussen-T/F 2126 13-10-2011 17:23:01 18.7 C 4.8 g/m*3 18.7 C 0 km/h
2127 13-10-2011 17:35:02 20.3 C 4.92 g/m*3 20.3 C 0 km/h
2128 13-10-2011 17:47:02 18 C 5.53 g/m*3 18 C 0 km/h
2129 13-10-2011 17:59:02 13.8 C 5.48 g/m*3 13.8 C 0 km/h
2130 13-10-2011 18:11:02 11.7 C 5.65 g/m*3 11.7 C 0 km/h
2131 13-10-2011 18:23:02 10.5 C 5.82 g/m*3 10.5 C 0 km/h
2132 13-10-2011 18:35:02 9.5 C 5.83 g/m*3 9.5 C 0 km/h
2133 13-10-2011 18:47:02 8.9 C 5.78 g/m*3 8.9 C 0 km/h
2134 13-10-2011 18:59:02 8.6 C 5.76 g/m*3 8.6 C 0 km/h
2135 13-10-2011 19:11:02 7.7 C 5.59 g/m*3 7.7 C 0 km/h
2136 13-10-2011 19:23:02 7.8 C 5.88 g/m*3 7.8 C 0 km/h
2137 13-10-2011 19:35:01 8.2 C 5.69 g/m*3 8.2 C 0 km/h
2138 13-10-2011 19:47:01 7.6 C 5.8 g/m*3 7.6 C 0 km/h
2139 13-10-2011 19:59:01 7.5 C 5.84 g/m*3 7.5 C 0 km/h
2140 13-10-2011 20:11:01 7.9 C 6.08 g/m*3 7.9 C 0 km/h
2141 13-10-2011 20:23:01 8.2 C 6.11 g/m*3 8.2 C 0 km/h
2142 13-10-2011 20:35:02 8.4 C 6.28 g/m*3 8.4 C 0 km/h
2143 13-10-2011 20:47:02 8.2 C 6.11 g/m*3 8.2 C 0 km/h
2144 13-10-2011 20:59:02 8.3 C 6.24 g/m*3 8.3 C 0 km/h
2145 13-10-2011 21:11:02 7.8 C 6.12 g/m*3 7.8 C 0 km/h
2146 13-10-2011 21:23:01 8.1 C 6.07 g/m*3 8.1 C 0 km/h
2147 13-10-2011 21:35:02 6.7 C 5.55 g/m*3 6.7 C 0 km/h
2148 13-10-2011 21:47:02 6.5 C 5.7 g/m*3 6.5 C 0 km/h
2149 13-10-2011 21:59:02 6.3 C 5.77 g/m*3 6.3 C 0 km/h
2150 13-10-2011 22:11:02 6.5 C 5.92 g/m*3 6.5 C 0 km/h
Sensor: Nr:Datum:Temp:Abs-Feuchte:Windchill:Wind:
Aussen-T/F 2151 13-10-2011 22:23:02 6.1 C 5.84 g/m*3 6.1 C 0 km/h
2152 13-10-2011 22:35:02 5.7 C 5.76 g/m*3 5.7 C 0 km/h
2153 13-10-2011 22:47:02 5.3 C 5.68 g/m*3 5.3 C 0 km/h
2154 13-10-2011 22:59:02 4.8 C 5.57 g/m*3 4.8 C 0 km/h
2155 13-10-2011 23:11:02 5.2 C 5.78 g/m*3 5.2 C 0 km/h
2156 13-10-2011 23:23:02 4.8 C 5.77 g/m*3 4.8 C 0 km/h
2157 13-10-2011 23:35:02 4.6 C 5.76 g/m*3 4.6 C 0 km/h
2158 13-10-2011 23:47:02 4.6 C 5.76 g/m*3 4.6 C 0 km/h
2159 13-10-2011 23:59:02 4.2 C 5.61 g/m*3 4.2 C 0 km/h
2160 14-10-2011 00:11:02 3.8 C 5.52 g/m*3 3.8 C 0 km/h
2161 14-10-2011 00:23:02 3.7 C 5.48 g/m*3 3.7 C 0 km/h
2162 14-10-2011 00:35:02 4.1 C 5.63 g/m*3 4.1 C 0 km/h
2163 14-10-2011 00:47:02 3.6 C 5.51 g/m*3 3.6 C 0 km/h
2164 14-10-2011 00:59:02 3.8 C 5.58 g/m*3 3.8 C 0 km/h
2165 14-10-2011 01:11:02 3.4 C 5.44 g/m*3 3.4 C 0 km/h
2166 14-10-2011 01:23:02 3.3 C 5.4 g/m*3 3.3 C 0 km/h
2167 14-10-2011 01:35:01 3.4 C 5.44 g/m*3 3.4 C 0 km/h
2168 14-10-2011 01:47:02 3.3 C 5.4 g/m*3 3.3 C 0 km/h
2169 14-10-2011 01:59:03 3.4 C 5.5 g/m*3 3.4 C 0 km/h
2170 14-10-2011 02:11:01 3.9 C 5.68 g/m*3 3.9 C 0 km/h
2171 14-10-2011 02:23:02 3.4 C 5.5 g/m*3 3.4 C 0 km/h
2172 14-10-2011 02:35:02 3.3 C 5.46 g/m*3 3.3 C 0 km/h
2173 14-10-2011 02:48:04 3 C 5.35 g/m*3 3 C 0 km/h
2174 14-10-2011 03:00:04 2.9 C 5.37 g/m*3 2.9 C 0 km/h
2175 14-10-2011 03:12:04 2.6 C 5.27 g/m*3 2.6 C 0 km/h
Sensor: Nr:Datum:Temp:Abs-Feuchte:Windchill:Wind:
Aussen-T/F 2176 14-10-2011 03:24:04 2.6 C 5.32 g/m*3 2.6 C 0 km/h
2177 14-10-2011 03:36:02 2.5 C 5.23 g/m*3 2.5 C 0 km/h
2178 14-10-2011 03:48:02 2.5 C 5.23 g/m*3 2.5 C 0 km/h
2179 14-10-2011 04:00:02 2.2 C 5.13 g/m*3 2.2 C 0 km/h
2180 14-10-2011 04:12:02 2.3 C 5.16 g/m*3 2.3 C 0 km/h
2181 14-10-2011 04:24:02 2.2 C 5.13 g/m*3 2.2 C 0 km/h
2182 14-10-2011 04:36:02 2.3 C 5.16 g/m*3 2.3 C 0 km/h
2183 14-10-2011 04:48:01 2.3 C 5.16 g/m*3 2.3 C 0 km/h
2184 14-10-2011 05:00:01 2 C 5.06 g/m*3 2 C 0 km/h
2185 14-10-2011 05:12:02 2.2 C 5.13 g/m*3 2.2 C 0 km/h
2186 14-10-2011 05:24:01 1.9 C 5.08 g/m*3 1.9 C 0 km/h
2187 14-10-2011 05:36:02 1.9 C 5.08 g/m*3 1.9 C 0 km/h
2188 14-10-2011 05:48:01 1.9 C 5.08 g/m*3 1.9 C 0 km/h
2189 14-10-2011 06:00:01 1.5 C 4.94 g/m*3 1.5 C 0 km/h
2190 14-10-2011 06:12:02 1.2 C 4.79 g/m*3 1.2 C 0 km/h
2191 14-10-2011 06:24:02 1.7 C 5.01 g/m*3 1.7 C 0 km/h
2192 14-10-2011 06:36:01 2.4 C 5.25 g/m*3 2.4 C 0 km/h
2193 14-10-2011 06:48:02 2.5 C 5.29 g/m*3 2.5 C 0 km/h
2194 14-10-2011 07:00:02 2.6 C 5.32 g/m*3 2.6 C 0 km/h
2195 14-10-2011 07:12:01 2.5 C 5.29 g/m*3 2.5 C 0 km/h
2196 14-10-2011 07:24:02 2.3 C 5.22 g/m*3 2.3 C 0 km/h
2197 14-10-2011 07:36:01 3 C 5.47 g/m*3 3 C 0 km/h
2198 14-10-2011 07:48:02 3.3 C 5.58 g/m*3 3.3 C 0 km/h
2199 14-10-2011 08:00:02 3.6 C 5.76 g/m*3 3.6 C 0 km/h
2200 14-10-2011 08:12:02 3.8 C 5.83 g/m*3 3.8 C 0 km/h
Sensor: Nr:Datum:Temp:Abs-Feuchte:Windchill:Wind:
Aussen-T/F 2201 14-10-2011 08:24:02 3.7 C 5.8 g/m*3 3.7 C 0 km/h
2202 14-10-2011 08:36:02 4 C 5.85 g/m*3 4 C 0 km/h
2203 14-10-2011 08:48:02 4.2 C 5.99 g/m*3 4.2 C 0 km/h
2204 14-10-2011 09:00:02 4.4 C 6.07 g/m*3 4.4 C 0 km/h
2205 14-10-2011 09:12:03 4.2 C 5.99 g/m*3 4.2 C 0 km/h
2206 14-10-2011 09:24:02 4.3 C 6.03 g/m*3 4.3 C 0 km/h
2207 14-10-2011 09:36:02 4.3 C 6.03 g/m*3 4.3 C 0 km/h
2208 14-10-2011 09:48:02 4.4 C 6.07 g/m*3 4.4 C 0 km/h
2209 14-10-2011 10:00:02 4.5 C 6.11 g/m*3 4.5 C 0 km/h
2210 14-10-2011 10:12:02 4.8 C 6.24 g/m*3 4.8 C 0 km/h
2211 14-10-2011 10:24:02 5.4 C 6.49 g/m*3 5.4 C 0 km/h
2212 14-10-2011 10:36:02 5.4 C 6.42 g/m*3 5.4 C 0 km/h
2213 14-10-2011 10:48:02 5.1 C 6.29 g/m*3 5.1 C 0 km/h
2214 14-10-2011 11:00:02 5.1 C 6.22 g/m*3 5.1 C 0 km/h
2215 14-10-2011 11:12:02 4.9 C 6.21 g/m*3 4.9 C 0 km/h
2216 14-10-2011 11:24:02 5.4 C 6.35 g/m*3 5.4 C 0 km/h
2217 14-10-2011 11:36:02 5.9 C 6.63 g/m*3 5.9 C 0 km/h
2218 14-10-2011 11:48:02 6.2 C 6.69 g/m*3 6.2 C 0 km/h
2219 14-10-2011 12:00:02 6.7 C 6.91 g/m*3 6.7 C 0 km/h
2220 14-10-2011 12:12:02 7 C 7.05 g/m*3 7 C 0 km/h
2221 14-10-2011 12:24:02 7.4 C 7.24 g/m*3 7.4 C 0 km/h
2222 14-10-2011 12:36:01 8.4 C 7.63 g/m*3 8.4 C 0 km/h
2223 14-10-2011 12:48:02 9.3 C 7.73 g/m*3 9.3 C 0 km/h
2224 14-10-2011 13:00:02 9 C 7.14 g/m*3 9 C 0 km/h
2225 14-10-2011 13:12:01 10.2 C 6.38 g/m*3 10.2 C 0 km/h
Sensor: Nr:Datum:Temp:Abs-Feuchte:Windchill:Wind:
Aussen-T/F 2226 14-10-2011 13:24:01 10.9 C 6.07 g/m*3 10.9 C 0 km/h
2227 14-10-2011 13:36:02 12.7 C 6.23 g/m*3 12.7 C 0 km/h
2228 14-10-2011 13:48:02 11.7 C 5.65 g/m*3 11.7 C 0 km/h
2229 14-10-2011 14:00:02 11.6 C 5.4 g/m*3 11.6 C 0 km/h
2230 14-10-2011 14:12:02 10.9 C 5.47 g/m*3 10.9 C 0 km/h
2231 14-10-2011 14:24:01 11 C 4.8 g/m*3 11 C 0 km/h
2232 14-10-2011 14:36:02 11 C 5 g/m*3 11 C 0 km/h
2233 14-10-2011 14:48:02 11.2 C 4.97 g/m*3 11.2 C 0 km/h
2234 14-10-2011 15:00:02 11.8 C 4.74 g/m*3 11.8 C 0 km/h
2235 14-10-2011 15:12:02 11.8 C 4.74 g/m*3 11.8 C 0 km/h
2236 14-10-2011 15:24:01 12.7 C 4.9 g/m*3 12.7 C 0 km/h
2237 14-10-2011 15:36:02 13 C 4.42 g/m*3 13 C 0 km/h
2238 14-10-2011 15:48:01 13.1 C 4.56 g/m*3 13.1 C 0 km/h
2239 14-10-2011 16:00:01 13 C 4.54 g/m*3 13 C 0 km/h
2240 14-10-2011 16:12:02 13.1 C 4.56 g/m*3 13.1 C 0 km/h
2241 14-10-2011 16:24:02 13.1 C 4.68 g/m*3 13.1 C 0 km/h
2242 14-10-2011 16:36:01 13.2 C 4.94 g/m*3 13.2 C 0 km/h
2243 14-10-2011 16:48:02 14.3 C 5.04 g/m*3 14.3 C 0 km/h
2244 14-10-2011 17:00:02 14 C 5.43 g/m*3 14 C 0 km/h
2245 14-10-2011 17:12:01 13.7 C 4.86 g/m*3 13.7 C 0 km/h
2246 14-10-2011 17:24:02 15 C 5.13 g/m*3 15 C 0 km/h
2247 14-10-2011 17:36:02 13.7 C 4.97 g/m*3 13.7 C 0 km/h
2248 14-10-2011 17:48:02 14.5 C 5.35 g/m*3 14.5 C 0 km/h
2249 14-10-2011 18:00:02 14.3 C 5.04 g/m*3 14.3 C 0 km/h
2250 14-10-2011 18:12:03 11.3 C 5.3 g/m*3 11.3 C 0 km/h
Sensor: Nr:Datum:Temp:Abs-Feuchte:Windchill:Wind:
Aussen-T/F 2251 14-10-2011 18:24:02 9.6 C 5.4 g/m*3 9.6 C 0 km/h
2252 14-10-2011 18:36:02 8.5 C 5.38 g/m*3 8.5 C 0 km/h
2253 14-10-2011 18:48:01 7.9 C 5.5 g/m*3 7.9 C 0 km/h
2254 14-10-2011 19:00:01 7.5 C 5.6 g/m*3 7.5 C 0 km/h
2255 14-10-2011 19:12:02 7 C 5.66 g/m*3 7 C 0 km/h
2256 14-10-2011 19:24:01 6.5 C 5.62 g/m*3 6.5 C 0 km/h
2257 14-10-2011 19:36:01 6.4 C 5.59 g/m*3 6.4 C 0 km/h
2258 14-10-2011 19:48:01 6.2 C 5.59 g/m*3 6.2 C 0 km/h
2259 14-10-2011 20:00:01 5.9 C 5.55 g/m*3 5.9 C 0 km/h
2260 14-10-2011 20:12:01 5.6 C 5.59 g/m*3 5.6 C 0 km/h
2261 14-10-2011 20:24:02 5.3 C 5.54 g/m*3 5.3 C 0 km/h
2262 14-10-2011 20:36:01 5.4 C 5.72 g/m*3 5.4 C 0 km/h
2263 14-10-2011 20:48:03 5.5 C 5.76 g/m*3 5.5 C 0 km/h
2264 14-10-2011 21:00:03 5.2 C 5.71 g/m*3 5.2 C 0 km/h
2265 14-10-2011 21:12:02 5.4 C 5.86 g/m*3 5.4 C 0 km/h
2266 14-10-2011 21:24:02 5.1 C 5.68 g/m*3 5.1 C 0 km/h
2267 14-10-2011 21:36:02 5 C 5.71 g/m*3 5 C 0 km/h
2268 14-10-2011 21:48:02 4.8 C 5.7 g/m*3 4.8 C 0 km/h
2269 14-10-2011 22:00:02 4.7 C 5.73 g/m*3 4.7 C 0 km/h
2270 14-10-2011 22:13:02 4.6 C 5.69 g/m*3 4.6 C 0 km/h
2271 14-10-2011 22:25:02 4.8 C 5.83 g/m*3 4.8 C 0 km/h
2272 14-10-2011 22:37:02 4.3 C 5.64 g/m*3 4.3 C 0 km/h
2273 14-10-2011 22:49:02 4.4 C 5.68 g/m*3 4.4 C 0 km/h
2274 14-10-2011 23:01:03 4.3 C 5.64 g/m*3 4.3 C 0 km/h
2275 14-10-2011 23:13:03 4.3 C 5.71 g/m*3 4.3 C 0 km/h
Sensor: Nr:Datum:Temp:Abs-Feuchte:Windchill:Wind:
Aussen-T/F 2276 14-10-2011 23:25:03 4.1 C 5.63 g/m*3 4.1 C 0 km/h
2277 14-10-2011 23:37:03 4 C 5.59 g/m*3 4 C 0 km/h
2278 14-10-2011 23:49:03 3.8 C 5.58 g/m*3 3.8 C 0 km/h
2279 15-10-2011 00:01:03 3.8 C 5.58 g/m*3 3.8 C 0 km/h
2280 15-10-2011 00:13:03 3.5 C 5.53 g/m*3 3.5 C 0 km/h
2281 15-10-2011 00:25:03 3.5 C 5.53 g/m*3 3.5 C 0 km/h
2282 15-10-2011 00:37:03 3.2 C 5.42 g/m*3 3.2 C 0 km/h
2283 15-10-2011 00:49:03 3.2 C 5.42 g/m*3 3.2 C 0 km/h
2284 15-10-2011 01:01:03 3.1 C 5.39 g/m*3 3.1 C 0 km/h
2285 15-10-2011 01:13:03 2.9 C 5.37 g/m*3 2.9 C 0 km/h
2286 15-10-2011 01:25:03 2.9 C 5.37 g/m*3 2.9 C 0 km/h
2287 15-10-2011 01:37:03 2.7 C 5.3 g/m*3 2.7 C 0 km/h
2288 15-10-2011 01:49:03 2.7 C 5.3 g/m*3 2.7 C 0 km/h
2289 15-10-2011 02:01:03 2.7 C 5.3 g/m*3 2.7 C 0 km/h
2290 15-10-2011 02:13:03 2.6 C 5.27 g/m*3 2.6 C 0 km/h
2291 15-10-2011 02:25:03 2.3 C 5.16 g/m*3 2.3 C 0 km/h
2292 15-10-2011 02:37:03 2.5 C 5.29 g/m*3 2.5 C 0 km/h
2293 15-10-2011 02:49:03 2.5 C 5.29 g/m*3 2.5 C 0 km/h
2294 15-10-2011 03:01:03 2.5 C 5.29 g/m*3 2.5 C 0 km/h
2295 15-10-2011 03:13:04 2.3 C 5.22 g/m*3 2.3 C 0 km/h
2296 15-10-2011 03:25:04 1.7 C 5.01 g/m*3 1.7 C 0 km/h
2297 15-10-2011 03:37:04 1.5 C 4.94 g/m*3 1.5 C 0 km/h
2298 15-10-2011 03:49:04 1.6 C 4.97 g/m*3 1.6 C 0 km/h
2299 15-10-2011 04:01:04 1.4 C 4.91 g/m*3 1.4 C 0 km/h
2300 15-10-2011 04:13:04 1.5 C 4.94 g/m*3 1.5 C 0 km/h
Sensor: Nr:Datum:Temp:Abs-Feuchte:Windchill:Wind:
Aussen-T/F 2301 15-10-2011 04:25:04 1.7 C 5.06 g/m*3 1.7 C 0 km/h
2302 15-10-2011 04:37:04 1.4 C 4.91 g/m*3 1.4 C 0 km/h
2303 15-10-2011 04:49:04 0.9 C 4.79 g/m*3 0.9 C 0 km/h
2304 15-10-2011 05:01:04 0.8 C 4.76 g/m*3 0.8 C 0 km/h
2305 15-10-2011 05:13:04 0.9 C 4.79 g/m*3 0.9 C 0 km/h
2306 15-10-2011 05:25:04 0.8 C 4.76 g/m*3 0.8 C 0 km/h
2307 15-10-2011 05:37:04 1.1 C 4.81 g/m*3 1.1 C 0 km/h
2308 15-10-2011 05:49:04 0.6 C 4.7 g/m*3 0.6 C 0 km/h
2309 15-10-2011 06:01:04 1.2 C 4.89 g/m*3 1.2 C 0 km/h
2310 15-10-2011 06:13:04 0.9 C 4.79 g/m*3 0.9 C 0 km/h
2311 15-10-2011 06:25:04 1 C 4.83 g/m*3 1 C 0 km/h
2312 15-10-2011 06:37:04 0.6 C 4.7 g/m*3 0.6 C 0 km/h
2313 15-10-2011 06:49:04 0.7 C 4.73 g/m*3 0.7 C 0 km/h
2314 15-10-2011 07:01:04 0.2 C 4.57 g/m*3 0.2 C 0 km/h
2315 15-10-2011 07:13:04 0.2 C 4.57 g/m*3 0.2 C 0 km/h
2316 15-10-2011 07:25:02 0.2 C 4.57 g/m*3 0.2 C 0 km/h
2317 15-10-2011 07:37:02 0.3 C 4.6 g/m*3 0.3 C 0 km/h
2318 15-10-2011 07:49:02 0.3 C 4.6 g/m*3 0.3 C 0 km/h
2319 15-10-2011 08:01:02 0.5 C 4.66 g/m*3 0.5 C 0 km/h
2320 15-10-2011 08:13:02 0.7 C 4.73 g/m*3 0.7 C 0 km/h
2321 15-10-2011 08:25:01 0.3 C 4.6 g/m*3 0.3 C 0 km/h
2322 15-10-2011 08:37:02 0.3 C 4.6 g/m*3 0.3 C 0 km/h
2323 15-10-2011 08:49:02 0 C 4.51 g/m*3 0 C 0 km/h
2324 15-10-2011 09:01:02 0.3 C 4.6 g/m*3 0.3 C 0 km/h
2325 15-10-2011 09:13:02 0.6 C 4.7 g/m*3 0.6 C 0 km/h
Sensor: Nr:Datum:Temp:Abs-Feuchte:Windchill:Wind:
Aussen-T/F 2326 15-10-2011 09:25:01 1.4 C 4.96 g/m*3 1.4 C 0 km/h
2327 15-10-2011 09:37:02 1.3 C 4.93 g/m*3 1.3 C 0 km/h
2328 15-10-2011 09:49:01 1.5 C 4.99 g/m*3 1.5 C 0 km/h
2329 15-10-2011 10:01:02 1.6 C 5.03 g/m*3 1.6 C 0 km/h
2330 15-10-2011 10:13:02 1.7 C 5.12 g/m*3 1.7 C 0 km/h
2331 15-10-2011 10:25:02 2 C 5.17 g/m*3 2 C 0 km/h
2332 15-10-2011 10:37:02 2.1 C 5.2 g/m*3 2.1 C 0 km/h
2333 15-10-2011 10:49:02 2.6 C 5.38 g/m*3 2.6 C 0 km/h
2334 15-10-2011 11:01:01 2.8 C 5.51 g/m*3 2.8 C 0 km/h
2335 15-10-2011 11:13:01 3.3 C 5.64 g/m*3 3.3 C 0 km/h
2336 15-10-2011 11:25:02 3.7 C 5.8 g/m*3 3.7 C 0 km/h
2337 15-10-2011 11:37:01 4.1 C 5.95 g/m*3 4.1 C 0 km/h
2338 15-10-2011 11:49:02 4.4 C 6.07 g/m*3 4.4 C 0 km/h
2339 15-10-2011 12:01:01 4.9 C 6.28 g/m*3 4.9 C 0 km/h
2340 15-10-2011 12:13:01 5.2 C 6.33 g/m*3 5.2 C 0 km/h
2341 15-10-2011 12:25:01 5.7 C 6.55 g/m*3 5.7 C 0 km/h
2342 15-10-2011 12:37:02 6.3 C 6.74 g/m*3 6.3 C 0 km/h
2343 15-10-2011 12:49:02 7 C 6.9 g/m*3 7 C 0 km/h
2344 15-10-2011 13:01:02 7.4 C 6.84 g/m*3 7.4 C 0 km/h
2345 15-10-2011 13:13:02 7.5 C 6.56 g/m*3 7.5 C 0 km/h
2346 15-10-2011 13:25:01 9.7 C 6.64 g/m*3 9.7 C 0 km/h
2347 15-10-2011 13:37:02 10.2 C 6.28 g/m*3 10.2 C 0 km/h
2348 15-10-2011 13:49:02 9.9 C 5.88 g/m*3 9.9 C 0 km/h
2349 15-10-2011 14:01:02 9.3 C 4.76 g/m*3 9.3 C 0 km/h
2350 15-10-2011 14:13:02 9.6 C 5.22 g/m*3 9.6 C 0 km/h
Sensor: Nr:Datum:Temp:Abs-Feuchte:Windchill:Wind:
Aussen-T/F 2351 15-10-2011 14:25:01 9.4 C 4.97 g/m*3 9.4 C 0 km/h
2352 15-10-2011 14:37:02 10 C 4.6 g/m*3 10 C 0 km/h
2353 15-10-2011 14:49:01 9.7 C 4.98 g/m*3 9.7 C 0 km/h
2354 15-10-2011 15:01:02 9.8 C 5.01 g/m*3 9.8 C 0 km/h
2355 15-10-2011 15:13:02 9.9 C 5.32 g/m*3 9.9 C 0 km/h
2356 15-10-2011 15:25:02 10.8 C 4.55 g/m*3 10.8 C 0 km/h
2357 15-10-2011 15:37:02 11.1 C 4.43 g/m*3 11.1 C 0 km/h
2358 15-10-2011 15:49:02 11.3 C 4.28 g/m*3 11.3 C 0 km/h
2359 15-10-2011 16:01:01 11.4 C 4.62 g/m*3 11.4 C 0 km/h
2360 15-10-2011 16:13:01 11.7 C 4.29 g/m*3 11.7 C 0 km/h
2361 15-10-2011 16:25:02 12.2 C 4.32 g/m*3 12.2 C 0 km/h
2362 15-10-2011 16:37:02 12.6 C 4.65 g/m*3 12.6 C 0 km/h
2363 15-10-2011 16:49:02 15.2 C 4.93 g/m*3 15.2 C 0 km/h
2364 15-10-2011 17:01:03 18.1 C 4.94 g/m*3 18.1 C 0 km/h
2365 15-10-2011 17:13:03 18.2 C 4.2 g/m*3 18.2 C 0 km/h
2366 15-10-2011 17:25:02 18.5 C 5.06 g/m*3 18.5 C 0 km/h
2367 15-10-2011 17:37:02 17.8 C 4.86 g/m*3 17.8 C 0 km/h
2368 15-10-2011 17:49:01 15.8 C 4.98 g/m*3 15.8 C 0 km/h
2369 15-10-2011 18:01:02 13.1 C 4.34 g/m*3 13.1 C 0 km/h
2370 15-10-2011 18:13:02 9.3 C 4.58 g/m*3 9.3 C 0 km/h
2371 15-10-2011 18:25:01 8.1 C 4.66 g/m*3 8.1 C 0 km/h
2372 15-10-2011 18:37:02 7.4 C 4.61 g/m*3 7.4 C 0 km/h
2373 15-10-2011 18:49:01 6.8 C 4.59 g/m*3 6.8 C 0 km/h
2374 15-10-2011 19:01:02 6 C 4.5 g/m*3 6 C 0 km/h
2375 15-10-2011 19:13:02 5.7 C 4.7 g/m*3 5.7 C 0 km/h
Sensor: Nr:Datum:Temp:Abs-Feuchte:Windchill:Wind:
Aussen-T/F 2376 15-10-2011 19:25:02 5.6 C 4.67 g/m*3 5.6 C 0 km/h
2377 15-10-2011 19:37:02 5.4 C 4.74 g/m*3 5.4 C 0 km/h
2378 15-10-2011 19:49:02 5.2 C 4.68 g/m*3 5.2 C 0 km/h
2379 15-10-2011 20:01:01 4.9 C 4.79 g/m*3 4.9 C 0 km/h
2380 15-10-2011 20:13:01 5.1 C 4.86 g/m*3 5.1 C 0 km/h
2381 15-10-2011 20:25:02 4.9 C 4.86 g/m*3 4.9 C 0 km/h
2382 15-10-2011 20:37:01 4.4 C 4.77 g/m*3 4.4 C 0 km/h
2383 15-10-2011 20:49:02 4.5 C 4.93 g/m*3 4.5 C 0 km/h
2384 15-10-2011 21:01:01 3.8 C 4.89 g/m*3 3.8 C 0 km/h
2385 15-10-2011 21:13:01 3.3 C 4.73 g/m*3 3.3 C 0 km/h
2386 15-10-2011 21:25:01 3 C 4.76 g/m*3 3 C 0 km/h
2387 15-10-2011 21:37:02 2.6 C 4.75 g/m*3 2.6 C 0 km/h
2388 15-10-2011 21:49:02 2.5 C 4.77 g/m*3 2.5 C 0 km/h
2389 15-10-2011 22:01:01 2.6 C 4.86 g/m*3 2.6 C 0 km/h
2390 15-10-2011 22:13:01 2.1 C 4.7 g/m*3 2.1 C 0 km/h
2391 15-10-2011 22:25:02 1.8 C 4.66 g/m*3 1.8 C 0 km/h
2392 15-10-2011 22:37:02 1.6 C 4.65 g/m*3 1.6 C 0 km/h
2393 15-10-2011 22:49:02 1.6 C 4.65 g/m*3 1.6 C 0 km/h
2394 15-10-2011 23:01:02 1.3 C 4.56 g/m*3 1.3 C 0 km/h
2395 15-10-2011 23:13:02 1.1 C 4.55 g/m*3 1.1 C 0 km/h
2396 15-10-2011 23:25:02 1 C 4.52 g/m*3 1 C 0 km/h
2397 15-10-2011 23:37:02 0.9 C 4.48 g/m*3 0.9 C 0 km/h
2398 15-10-2011 23:49:01 1.1 C 4.55 g/m*3 1.1 C 0 km/h
2399 16-10-2011 00:01:01 1.3 C 4.66 g/m*3 1.3 C 0 km/h
2400 16-10-2011 00:13:01 0.9 C 4.54 g/m*3 0.9 C 0 km/h
Sensor: Nr:Datum:Temp:Abs-Feuchte:Windchill:Wind:
Aussen-T/F 2401 16-10-2011 00:25:01 0.8 C 4.56 g/m*3 0.8 C 0 km/h
2402 16-10-2011 00:37:02 0.5 C 4.41 g/m*3 0.5 C 0 km/h
2403 16-10-2011 00:49:02 0.2 C 4.32 g/m*3 0.2 C 0 km/h
2404 16-10-2011 01:01:02 0.4 C 4.38 g/m*3 0.4 C 0 km/h
2405 16-10-2011 01:13:02 0.4 C 4.43 g/m*3 0.4 C 0 km/h
2406 16-10-2011 01:25:01 0.1 C 4.34 g/m*3 0.1 C 0 km/h
2407 16-10-2011 01:37:02 0.2 C 4.37 g/m*3 0.2 C 0 km/h
2408 16-10-2011 01:49:01 0.1 C 4.34 g/m*3 0.1 C 0 km/h
2409 16-10-2011 02:01:02 0 C 4.31 g/m*3 0 C 0 km/h
2410 16-10-2011 02:13:02 -0.2 C 4.25 g/m*3 -0.2 C 0 km/h
2411 16-10-2011 02:25:02 -0.1 C 4.28 g/m*3 -0.1 C 0 km/h
2412 16-10-2011 02:37:02 -0.4 C 4.19 g/m*3 -0.4 C 0 km/h
2413 16-10-2011 02:50:03 -0.3 C 4.22 g/m*3 -0.3 C 0 km/h
2414 16-10-2011 03:02:03 -0.1 C 4.28 g/m*3 -0.1 C 0 km/h
2415 16-10-2011 03:14:03 -0.3 C 4.27 g/m*3 -0.3 C 0 km/h
2416 16-10-2011 03:26:03 -0.1 C 4.33 g/m*3 -0.1 C 0 km/h
2417 16-10-2011 03:38:01 -0.3 C 4.27 g/m*3 -0.3 C 0 km/h
2418 16-10-2011 03:50:01 -0.6 C 4.18 g/m*3 -0.6 C 0 km/h
2419 16-10-2011 04:02:02 -0.4 C 4.24 g/m*3 -0.4 C 0 km/h
2420 16-10-2011 04:14:02 -0.5 C 4.21 g/m*3 -0.5 C 0 km/h
2421 16-10-2011 04:26:02 -0.8 C 4.13 g/m*3 -0.8 C 0 km/h
2422 16-10-2011 04:38:02 -0.7 C 4.2 g/m*3 -0.7 C 0 km/h
2423 16-10-2011 04:50:02 -0.9 C 4.14 g/m*3 -0.9 C 0 km/h
2424 16-10-2011 05:02:01 -0.9 C 4.14 g/m*3 -0.9 C 0 km/h
2425 16-10-2011 05:14:01 -1 C 4.11 g/m*3 -1 C 0 km/h
Sensor: Nr:Datum:Temp:Abs-Feuchte:Windchill:Wind:
Aussen-T/F 2426 16-10-2011 05:26:02 -1.2 C 4.06 g/m*3 -1.2 C 0 km/h
2427 16-10-2011 05:38:01 -1.3 C 4.03 g/m*3 -1.3 C 0 km/h
2428 16-10-2011 05:50:02 -1.7 C 3.92 g/m*3 -1.7 C 0 km/h
2429 16-10-2011 06:02:01 -1.6 C 3.94 g/m*3 -1.6 C 0 km/h
2430 16-10-2011 06:14:01 -1.6 C 3.94 g/m*3 -1.6 C 0 km/h
2431 16-10-2011 06:26:01 -1.6 C 3.94 g/m*3 -1.6 C 0 km/h
2432 16-10-2011 06:38:02 -1.2 C 4.06 g/m*3 -1.2 C 0 km/h
2433 16-10-2011 06:50:02 -1.5 C 3.97 g/m*3 -1.5 C 0 km/h
2434 16-10-2011 07:02:02 -1.1 C 4.13 g/m*3 -1.1 C 0 km/h
2435 16-10-2011 07:14:02 -1.4 C 4.04 g/m*3 -1.4 C 0 km/h
2436 16-10-2011 07:26:01 -1.5 C 4.02 g/m*3 -1.5 C 0 km/h
2437 16-10-2011 07:38:02 -1.7 C 3.92 g/m*3 -1.7 C 0 km/h
2438 16-10-2011 07:50:02 -1 C 4.16 g/m*3 -1 C 0 km/h
2439 16-10-2011 08:02:02 -0.5 C 4.31 g/m*3 -0.5 C 0 km/h
2440 16-10-2011 08:14:02 -0.5 C 4.35 g/m*3 -0.5 C 0 km/h
2441 16-10-2011 08:26:01 -0.7 C 4.25 g/m*3 -0.7 C 0 km/h
2442 16-10-2011 08:38:02 -0.2 C 4.44 g/m*3 -0.2 C 0 km/h
2443 16-10-2011 08:50:01 -0.4 C 4.38 g/m*3 -0.4 C 0 km/h
2444 16-10-2011 09:02:02 -0.4 C 4.38 g/m*3 -0.4 C 0 km/h
2445 16-10-2011 09:14:02 -0.2 C 4.44 g/m*3 -0.2 C 0 km/h
2446 16-10-2011 09:26:02 -0.2 C 4.44 g/m*3 -0.2 C 0 km/h
2447 16-10-2011 09:38:01 -0.6 C 4.32 g/m*3 -0.6 C 0 km/h
2448 16-10-2011 09:50:02 -0.3 C 4.41 g/m*3 -0.3 C 0 km/h
2449 16-10-2011 10:02:01 -0.1 C 4.47 g/m*3 -0.1 C 0 km/h
2450 16-10-2011 10:14:01 0 C 4.51 g/m*3 0 C 0 km/h
Sensor: Nr:Datum:Temp:Abs-Feuchte:Windchill:Wind:
Aussen-T/F 2451 16-10-2011 10:26:02 0.1 C 4.54 g/m*3 0.1 C 0 km/h
2452 16-10-2011 10:38:02 0.1 C 4.54 g/m*3 0.1 C 0 km/h
2453 16-10-2011 10:50:02 0.5 C 4.71 g/m*3 0.5 C 0 km/h
2454 16-10-2011 11:02:03 1.4 C 4.96 g/m*3 1.4 C 0 km/h
2455 16-10-2011 11:14:03 2.4 C 5.31 g/m*3 2.4 C 0 km/h
2456 16-10-2011 11:26:02 3.5 C 5.72 g/m*3 3.5 C 0 km/h
2457 16-10-2011 11:38:02 4 C 5.91 g/m*3 4 C 0 km/h
2458 16-10-2011 11:50:01 4.5 C 6.11 g/m*3 4.5 C 0 km/h
2459 16-10-2011 12:02:02 5 C 6.32 g/m*3 5 C 0 km/h
2460 16-10-2011 12:14:02 5.6 C 6.57 g/m*3 5.6 C 0 km/h
2461 16-10-2011 12:26:01 6 C 6.68 g/m*3 6 C 0 km/h
2462 16-10-2011 12:38:01 6.7 C 6.99 g/m*3 6.7 C 0 km/h
2463 16-10-2011 12:50:01 7.7 C 7.22 g/m*3 7.7 C 0 km/h
2464 16-10-2011 13:02:01 8.5 C 6.74 g/m*3 8.5 C 0 km/h
2465 16-10-2011 13:14:01 9.1 C 6.12 g/m*3 9.1 C 0 km/h
2466 16-10-2011 13:26:02 10.6 C 6.54 g/m*3 10.6 C 0 km/h
2467 16-10-2011 13:38:01 10.9 C 6.27 g/m*3 10.9 C 0 km/h
2468 16-10-2011 13:50:02 11.2 C 5.37 g/m*3 11.2 C 0 km/h
2469 16-10-2011 14:02:01 10.8 C 5.14 g/m*3 10.8 C 0 km/h
2470 16-10-2011 14:14:01 10.4 C 5.3 g/m*3 10.4 C 0 km/h
2471 16-10-2011 14:26:01 11 C 5.31 g/m*3 11 C 0 km/h
2472 16-10-2011 14:38:01 11.1 C 5.04 g/m*3 11.1 C 0 km/h
2473 16-10-2011 14:50:02 10.8 C 5.44 g/m*3 10.8 C 0 km/h
2474 16-10-2011 15:02:02 10.9 C 5.27 g/m*3 10.9 C 0 km/h
2475 16-10-2011 15:14:02 11.2 C 5.47 g/m*3 11.2 C 0 km/h
Sensor: Nr:Datum:Temp:Abs-Feuchte:Windchill:Wind:
Aussen-T/F 2476 16-10-2011 15:26:02 11.4 C 5.44 g/m*3 11.4 C 0 km/h
2477 16-10-2011 15:38:02 11 C 5.71 g/m*3 11 C 0 km/h
2478 16-10-2011 15:50:01 11.3 C 5.41 g/m*3 11.3 C 0 km/h
2479 16-10-2011 16:02:02 11.4 C 5.65 g/m*3 11.4 C 0 km/h
2480 16-10-2011 16:14:02 11.9 C 5.3 g/m*3 11.9 C 0 km/h
2481 16-10-2011 16:26:01 12.4 C 5.24 g/m*3 12.4 C 0 km/h
2482 16-10-2011 16:38:01 12.7 C 5.68 g/m*3 12.7 C 0 km/h
2483 16-10-2011 16:50:01 13.8 C 5.48 g/m*3 13.8 C 0 km/h
2484 16-10-2011 17:02:02 16.1 C 5.48 g/m*3 16.1 C 0 km/h
2485 16-10-2011 17:14:02 17.2 C 5.86 g/m*3 17.2 C 0 km/h
2486 16-10-2011 17:26:01 17.4 C 5.63 g/m*3 17.4 C 0 km/h
2487 16-10-2011 17:38:01 14.9 C 5.48 g/m*3 14.9 C 0 km/h
2488 16-10-2011 17:50:01 14.7 C 5.79 g/m*3 14.7 C 0 km/h
2489 16-10-2011 18:02:01 12.5 C 5.61 g/m*3 12.5 C 0 km/h
2490 16-10-2011 18:14:02 9.6 C 5.77 g/m*3 9.6 C 0 km/h
2491 16-10-2011 18:26:01 9 C 5.91 g/m*3 9 C 0 km/h
2492 16-10-2011 18:38:02 9.1 C 5.86 g/m*3 9.1 C 0 km/h
2493 16-10-2011 18:50:01 9.3 C 5.75 g/m*3 9.3 C 0 km/h
2494 16-10-2011 19:02:02 9.2 C 5.63 g/m*3 9.2 C 0 km/h
2495 16-10-2011 19:14:02 9.5 C 5.55 g/m*3 9.5 C 0 km/h
2496 16-10-2011 19:26:02 9.1 C 5.68 g/m*3 9.1 C 0 km/h
2497 16-10-2011 19:38:01 9.3 C 5.66 g/m*3 9.3 C 0 km/h
2498 16-10-2011 19:50:02 8.9 C 5.69 g/m*3 8.9 C 0 km/h
2499 16-10-2011 20:02:01 7.9 C 5.67 g/m*3 7.9 C 0 km/h
2500 16-10-2011 20:14:01 7 C 5.66 g/m*3 7 C 0 km/h
Sensor: Nr:Datum:Temp:Abs-Feuchte:Windchill:Wind:
Aussen-T/F 2501 16-10-2011 20:26:02 6.2 C 5.74 g/m*3 6.2 C 0 km/h
2502 16-10-2011 20:38:01 5.9 C 5.91 g/m*3 5.9 C 0 km/h
2503 16-10-2011 20:50:02 5.7 C 5.91 g/m*3 5.7 C 0 km/h
2504 16-10-2011 21:02:02 5.3 C 5.82 g/m*3 5.3 C 0 km/h
2505 16-10-2011 21:14:02 5.1 C 5.75 g/m*3 5.1 C 0 km/h
2506 16-10-2011 21:26:02 4.8 C 5.7 g/m*3 4.8 C 0 km/h
2507 16-10-2011 21:38:02 5 C 5.78 g/m*3 5 C 0 km/h
2508 16-10-2011 21:50:01 4.5 C 5.72 g/m*3 4.5 C 0 km/h
2509 16-10-2011 22:03:03 4.4 C 5.68 g/m*3 4.4 C 0 km/h
2510 16-10-2011 22:15:03 4.3 C 5.64 g/m*3 4.3 C 0 km/h
2511 16-10-2011 22:27:03 4.2 C 5.67 g/m*3 4.2 C 0 km/h
2512 16-10-2011 22:39:03 4.2 C 5.73 g/m*3 4.2 C 0 km/h
2513 16-10-2011 22:51:03 3.9 C 5.68 g/m*3 3.9 C 0 km/h
2514 16-10-2011 23:03:03 3.6 C 5.57 g/m*3 3.6 C 0 km/h
2515 16-10-2011 23:15:03 3.6 C 5.57 g/m*3 3.6 C 0 km/h
2516 16-10-2011 23:27:03 3.4 C 5.56 g/m*3 3.4 C 0 km/h
2517 16-10-2011 23:39:03 3.2 C 5.48 g/m*3 3.2 C 0 km/h
2518 16-10-2011 23:51:03 3.1 C 5.39 g/m*3 3.1 C 0 km/h

Legende:
   Min
   Max


Maximal/Minimal-Werte vom 26.09.2011 - 16.10.2011

Sensor Min Max Avg
Temp
(Aussen-T/F)
-1.7 °C
16-10-2011  05:50:02
30.6 °C
30-09-2011  16:59:01
13.12 °C
Abs-Feuchte
(Aussen-T/F)
3.92 g/m*3
16-10-2011  05:50:02
13.31 g/m*3
01-10-2011  13:36:02
8.23 g/m*3
Windchill
(Aussen-T/F)
-1.7 C
16-10-2011  05:50:02
30.6 C
30-09-2011  16:59:01
13.12 C

Die Daten stammen von einer Davis Vantage Pro 2 Wetter-Station und werden unter Linux mit der Software wview2wettercgi und aufbereitet. Alle Angaben erfolgen ohne Gewähr für ihre Vollständigkeit oder Richtigkeit.
Kontakt: Rainer Krienke krienke@uni-koblenz.de . Meine Webseiten an der Uni Koblenz oder privat.
Version: $Revision: 0.78 $